Darstellungsparameter: Aktuell verwendete Einstellungen:
Skalierung der Graphiken ... ?
xyx+y,   Skalierungsfaktor:      Skalierung: Modus: x, Faktor: 1
Darstellungszeitraum ... ?
Vom - - bis: - -   Zeitraum: 28.11.2003 - 27.05.2004
Min/Max/Avg-Anzeige ... ?
Zeige MMA aktuell
Zeige MMA Monat
Zeige MMA alles
Zeige --A aktuell
Zeige --A Monat
Zeige --A alles
Keine MMA-Anzeige
MMA:
Keine MMA-Graphiken
MMA-Basis: 28.11.2003 - 27.05.2004
Quicknavigation für Darstellung... ?
Tage:      1T, 2T, 3T, 5T -1T -2T -3T -5T +1T +2T +3T +5T
Wochen: 1W, 2W, 3W -1W -2W -3W +1W +2W +3W
Monate: 1M, 3M, 6M -1M -3M -6M +1M +3M +6M
Jahre:    1J, 3J, 5J, 10J -1J -3J -5J -10J +1J +3J +5J +10J
Nutze für die Darstellung ... ?
Originaldaten oder Mittelwerte auf ...
Stundenbasis Tagesbasis Wochenbasis
Monatsbasis Jahresbasis      Datenbasis: Original-Daten
Darstellen als:
Statistik (Auto) Statistik J:M      Darstellung:
Zur Graphik,    zurück zur Übersicht aller Sensoren.
 
Tabellarische Datenbersicht: ?
 
Sensor: Nr:Datum:Temp:Abs-Feuchte:Windchill:Wind:
Aussen-T/F 1 28-11-2003 00:06:01 6.4 C 6.63 g/m*3 6.4 C 0 km/h
2 28-11-2003 00:18:01 6.3 C 6.59 g/m*3 6.3 C 0 km/h
3 28-11-2003 00:30:01 6.3 C 6.51 g/m*3 6.3 C 0 km/h
4 28-11-2003 00:41:00 6.2 C 6.47 g/m*3 6.2 C 0 km/h
5 28-11-2003 00:53:00 6.2 C 6.47 g/m*3 6.2 C 0 km/h
6 28-11-2003 01:05:00 6.1 C 6.28 g/m*3 6.1 C 0 km/h
7 28-11-2003 01:17:00 6.1 C 6.28 g/m*3 6.1 C 0 km/h
8 28-11-2003 01:29:00 6.2 C 6.32 g/m*3 6.2 C 0 km/h
9 28-11-2003 01:41:00 6.1 C 6.28 g/m*3 6.1 C 0 km/h
10 28-11-2003 01:53:00 6.1 C 6.36 g/m*3 6.1 C 0 km/h
11 28-11-2003 01:53:01 6.1 C 6.36 g/m*3 6.1 C 0 km/h
12 28-11-2003 02:05:00 6 C 6.31 g/m*3 6 C 0 km/h
13 28-11-2003 02:17:00 6 C 6.24 g/m*3 6 C 0 km/h
14 28-11-2003 02:29:00 6 C 6.17 g/m*3 6 C 0 km/h
15 28-11-2003 02:41:00 5.8 C 6.16 g/m*3 5.8 C 0 km/h
16 28-11-2003 02:53:00 5.8 C 6.16 g/m*3 5.8 C 0 km/h
17 28-11-2003 03:06:00 5.9 C 6.2 g/m*3 5.9 C 0 km/h
18 28-11-2003 03:18:00 5.7 C 6.12 g/m*3 5.7 C 0 km/h
19 28-11-2003 03:30:01 5.6 C 6.08 g/m*3 5.6 C 0 km/h
20 28-11-2003 03:41:00 5.6 C 6.15 g/m*3 5.6 C 0 km/h
21 28-11-2003 03:53:01 5.6 C 6.15 g/m*3 5.6 C 0 km/h
22 28-11-2003 04:05:00 5.6 C 6.15 g/m*3 5.6 C 0 km/h
23 28-11-2003 04:17:00 5.6 C 6.15 g/m*3 5.6 C 0 km/h
24 28-11-2003 04:29:00 5.4 C 6.07 g/m*3 5.4 C 0 km/h
25 28-11-2003 04:41:00 5.3 C 5.96 g/m*3 5.3 C 0 km/h
Sensor: Nr:Datum:Temp:Abs-Feuchte:Windchill:Wind:
Aussen-T/F 26 28-11-2003 04:53:00 5.3 C 5.96 g/m*3 5.3 C 0 km/h
27 28-11-2003 05:06:00 5.4 C 6.07 g/m*3 5.4 C 0 km/h
28 28-11-2003 05:18:01 5.4 C 6.14 g/m*3 5.4 C 0 km/h
29 28-11-2003 05:30:01 5.4 C 6.14 g/m*3 5.4 C 0 km/h
30 28-11-2003 05:41:01 5.4 C 6.21 g/m*3 5.4 C 0 km/h
31 28-11-2003 05:53:01 5.4 C 6.21 g/m*3 5.4 C 0 km/h
32 28-11-2003 06:05:00 5.5 C 6.32 g/m*3 5.5 C 0 km/h
33 28-11-2003 06:17:00 5.6 C 6.36 g/m*3 5.6 C 0 km/h
34 28-11-2003 06:29:00 5.6 C 6.36 g/m*3 5.6 C 0 km/h
35 28-11-2003 06:41:00 5.5 C 6.25 g/m*3 5.5 C 0 km/h
36 28-11-2003 06:53:01 5.5 C 6.25 g/m*3 5.5 C 0 km/h
37 28-11-2003 07:05:00 5.4 C 6.21 g/m*3 5.4 C 0 km/h
38 28-11-2003 07:17:00 5.3 C 6.17 g/m*3 5.3 C 0 km/h
39 28-11-2003 07:29:00 5.3 C 6.17 g/m*3 5.3 C 0 km/h
40 28-11-2003 07:41:00 5.2 C 6.13 g/m*3 5.2 C 0 km/h
41 28-11-2003 07:53:00 5.2 C 6.13 g/m*3 5.2 C 0 km/h
42 28-11-2003 08:06:00 5.2 C 6.13 g/m*3 5.2 C 0 km/h
43 28-11-2003 08:18:00 5.2 C 6.13 g/m*3 5.2 C 0 km/h
44 28-11-2003 08:30:01 5.2 C 6.13 g/m*3 5.2 C 0 km/h
45 28-11-2003 08:41:01 5.3 C 6.17 g/m*3 5.3 C 0 km/h
46 28-11-2003 08:53:01 5.4 C 6.21 g/m*3 5.4 C 0 km/h
47 28-11-2003 09:05:00 5.6 C 6.22 g/m*3 5.6 C 0 km/h
48 28-11-2003 09:17:00 5.6 C 6.22 g/m*3 5.6 C 0 km/h
49 28-11-2003 09:29:00 5.7 C 6.26 g/m*3 5.7 C 0 km/h
50 28-11-2003 09:41:00 5.7 C 6.26 g/m*3 5.7 C 0 km/h
Sensor: Nr:Datum:Temp:Abs-Feuchte:Windchill:Wind:
Aussen-T/F 51 28-11-2003 09:53:00 5.7 C 6.26 g/m*3 5.7 C 0 km/h
52 28-11-2003 10:06:00 5.8 C 6.38 g/m*3 5.8 C 0 km/h
53 28-11-2003 10:18:01 5.8 C 6.3 g/m*3 5.8 C 0 km/h
54 28-11-2003 10:30:01 5.8 C 6.3 g/m*3 5.8 C 0 km/h
55 28-11-2003 10:41:00 5.8 C 6.3 g/m*3 5.8 C 0 km/h
56 28-11-2003 10:53:01 5.6 C 6.15 g/m*3 5.6 C 0 km/h
57 28-11-2003 11:05:00 5.4 C 6.07 g/m*3 5.4 C 0 km/h
58 28-11-2003 11:17:00 5.3 C 5.96 g/m*3 5.3 C 0 km/h
59 28-11-2003 11:29:00 5.3 C 5.96 g/m*3 5.3 C 0 km/h
60 28-11-2003 11:41:01 5.4 C 6 g/m*3 5.4 C 0 km/h
61 28-11-2003 11:53:01 5.4 C 5.93 g/m*3 5.4 C 0 km/h
62 28-11-2003 12:06:00 5.5 C 5.97 g/m*3 5.5 C 0 km/h
63 28-11-2003 12:18:00 5.4 C 5.86 g/m*3 5.4 C 0 km/h
64 28-11-2003 12:30:00 5.4 C 5.86 g/m*3 5.4 C 0 km/h
65 28-11-2003 12:41:01 5.5 C 5.9 g/m*3 5.5 C 0 km/h
66 28-11-2003 12:53:01 5.5 C 5.83 g/m*3 5.5 C 0 km/h
67 28-11-2003 13:05:00 5.4 C 5.72 g/m*3 5.4 C 0 km/h
68 28-11-2003 13:17:00 5.5 C 5.83 g/m*3 5.5 C 0 km/h
69 28-11-2003 13:29:00 5.5 C 5.69 g/m*3 5.5 C 0 km/h
70 28-11-2003 13:41:01 5.6 C 5.73 g/m*3 5.6 C 0 km/h
71 28-11-2003 13:53:00 5.6 C 5.66 g/m*3 5.6 C 0 km/h
72 28-11-2003 13:53:01 5.6 C 5.66 g/m*3 5.6 C 0 km/h
73 28-11-2003 14:05:00 5.6 C 5.59 g/m*3 5.6 C 0 km/h
74 28-11-2003 14:17:00 5.7 C 5.62 g/m*3 5.7 C 0 km/h
75 28-11-2003 14:29:00 5.8 C 5.59 g/m*3 5.8 C 0 km/h
Sensor: Nr:Datum:Temp:Abs-Feuchte:Windchill:Wind:
Aussen-T/F 76 28-11-2003 14:41:00 5.8 C 5.59 g/m*3 5.8 C 0 km/h
77 28-11-2003 14:53:00 6 C 5.59 g/m*3 6 C 0 km/h
78 28-11-2003 15:06:00 6.1 C 5.55 g/m*3 6.1 C 0 km/h
79 28-11-2003 15:18:01 6 C 5.44 g/m*3 6 C 0 km/h
80 28-11-2003 15:30:01 5.7 C 5.41 g/m*3 5.7 C 0 km/h
81 28-11-2003 15:41:01 5.5 C 5.41 g/m*3 5.5 C 0 km/h
82 28-11-2003 15:53:01 5.3 C 5.48 g/m*3 5.3 C 0 km/h
83 28-11-2003 16:05:00 5.1 C 5.47 g/m*3 5.1 C 0 km/h
84 28-11-2003 16:17:00 4.8 C 5.5 g/m*3 4.8 C 0 km/h
85 28-11-2003 16:29:00 4.5 C 5.46 g/m*3 4.5 C 0 km/h
86 28-11-2003 16:41:00 4.4 C 5.48 g/m*3 4.4 C 0 km/h
87 28-11-2003 16:53:00 4.1 C 5.38 g/m*3 4.1 C 0 km/h
88 28-11-2003 17:05:01 3.8 C 5.4 g/m*3 3.8 C 0 km/h
89 28-11-2003 17:17:01 3.8 C 5.46 g/m*3 3.8 C 0 km/h
90 28-11-2003 17:29:01 4 C 5.53 g/m*3 4 C 0 km/h
91 28-11-2003 17:41:01 4.2 C 5.67 g/m*3 4.2 C 0 km/h
92 28-11-2003 17:53:01 4.4 C 5.75 g/m*3 4.4 C 0 km/h
93 28-11-2003 18:05:01 4.5 C 5.78 g/m*3 4.5 C 0 km/h
94 28-11-2003 18:17:01 4.4 C 5.68 g/m*3 4.4 C 0 km/h
95 28-11-2003 18:29:01 4.1 C 5.57 g/m*3 4.1 C 0 km/h
96 28-11-2003 18:41:01 4.1 C 5.57 g/m*3 4.1 C 0 km/h
97 28-11-2003 18:53:01 4.1 C 5.57 g/m*3 4.1 C 0 km/h
98 28-11-2003 18:54:00 4.1 C 5.57 g/m*3 4.1 C 0 km/h
99 28-11-2003 19:06:00 4.2 C 5.67 g/m*3 4.2 C 0 km/h
100 28-11-2003 19:18:00 4.3 C 5.71 g/m*3 4.3 C 0 km/h
Sensor: Nr:Datum:Temp:Abs-Feuchte:Windchill:Wind:
Aussen-T/F 101 28-11-2003 19:30:00 4.5 C 5.85 g/m*3 4.5 C 0 km/h
102 28-11-2003 19:41:00 4.6 C 5.89 g/m*3 4.6 C 0 km/h
103 28-11-2003 19:53:01 4.7 C 5.86 g/m*3 4.7 C 0 km/h
104 28-11-2003 20:05:00 4.6 C 5.76 g/m*3 4.6 C 0 km/h
105 28-11-2003 20:17:00 4.5 C 5.72 g/m*3 4.5 C 0 km/h
106 28-11-2003 20:29:00 4.2 C 5.54 g/m*3 4.2 C 0 km/h
107 28-11-2003 20:41:00 4.2 C 5.61 g/m*3 4.2 C 0 km/h
108 28-11-2003 20:53:00 4.3 C 5.64 g/m*3 4.3 C 0 km/h
109 28-11-2003 21:06:01 4.5 C 5.72 g/m*3 4.5 C 0 km/h
110 28-11-2003 21:18:01 4.4 C 5.68 g/m*3 4.4 C 0 km/h
111 28-11-2003 21:30:01 4.5 C 5.72 g/m*3 4.5 C 0 km/h
112 28-11-2003 21:41:01 4.6 C 5.69 g/m*3 4.6 C 0 km/h
113 28-11-2003 21:53:01 4.6 C 5.69 g/m*3 4.6 C 0 km/h
114 28-11-2003 22:05:00 4.6 C 5.69 g/m*3 4.6 C 0 km/h
115 28-11-2003 22:17:00 4.6 C 5.69 g/m*3 4.6 C 0 km/h
116 28-11-2003 22:29:00 4.7 C 5.66 g/m*3 4.7 C 0 km/h
117 28-11-2003 22:41:00 4.8 C 5.43 g/m*3 4.8 C 0 km/h
118 28-11-2003 22:53:00 4.8 C 5.3 g/m*3 4.8 C 0 km/h
119 28-11-2003 23:06:01 4.8 C 5.16 g/m*3 4.8 C 0 km/h
120 28-11-2003 23:18:01 4.9 C 5.13 g/m*3 4.9 C 0 km/h
121 28-11-2003 23:30:01 4.8 C 5.1 g/m*3 4.8 C 0 km/h
122 28-11-2003 23:41:01 4.9 C 5 g/m*3 4.9 C 0 km/h
123 28-11-2003 23:53:01 4.9 C 4.93 g/m*3 4.9 C 0 km/h
124 29-11-2003 00:05:00 4.9 C 4.86 g/m*3 4.9 C 0 km/h
125 29-11-2003 00:17:00 4.8 C 4.83 g/m*3 4.8 C 0 km/h
Sensor: Nr:Datum:Temp:Abs-Feuchte:Windchill:Wind:
Aussen-T/F 126 29-11-2003 00:29:00 4.8 C 4.76 g/m*3 4.8 C 0 km/h
127 29-11-2003 00:41:01 4.8 C 4.76 g/m*3 4.8 C 0 km/h
128 29-11-2003 00:53:01 4.7 C 4.73 g/m*3 4.7 C 0 km/h
129 29-11-2003 01:05:00 4.7 C 4.8 g/m*3 4.7 C 0 km/h
130 29-11-2003 01:17:00 4.7 C 4.73 g/m*3 4.7 C 0 km/h
131 29-11-2003 01:29:00 4.6 C 4.7 g/m*3 4.6 C 0 km/h
132 29-11-2003 01:41:00 4.6 C 4.76 g/m*3 4.6 C 0 km/h
133 29-11-2003 01:53:00 4.6 C 4.83 g/m*3 4.6 C 0 km/h
134 29-11-2003 02:06:01 4.6 C 4.76 g/m*3 4.6 C 0 km/h
135 29-11-2003 02:18:01 4.5 C 4.73 g/m*3 4.5 C 0 km/h
136 29-11-2003 02:30:01 4.3 C 4.67 g/m*3 4.3 C 0 km/h
137 29-11-2003 02:41:01 4.2 C 4.7 g/m*3 4.2 C 0 km/h
138 29-11-2003 02:53:01 4.1 C 4.74 g/m*3 4.1 C 0 km/h
139 29-11-2003 03:05:00 4.1 C 4.74 g/m*3 4.1 C 0 km/h
140 29-11-2003 03:17:00 4.1 C 4.74 g/m*3 4.1 C 0 km/h
141 29-11-2003 03:29:00 4 C 4.77 g/m*3 4 C 0 km/h
142 29-11-2003 03:41:01 4.1 C 4.8 g/m*3 4.1 C 0 km/h
143 29-11-2003 03:53:01 4.2 C 4.77 g/m*3 4.2 C 0 km/h
144 29-11-2003 04:05:00 4.2 C 4.77 g/m*3 4.2 C 0 km/h
145 29-11-2003 04:17:00 4.2 C 4.77 g/m*3 4.2 C 0 km/h
146 29-11-2003 04:29:00 4 C 4.83 g/m*3 4 C 0 km/h
147 29-11-2003 04:41:00 3.8 C 4.89 g/m*3 3.8 C 0 km/h
148 29-11-2003 04:53:00 3.8 C 4.96 g/m*3 3.8 C 0 km/h
149 29-11-2003 05:06:01 3.8 C 5.02 g/m*3 3.8 C 0 km/h
150 29-11-2003 05:18:01 3.8 C 5.02 g/m*3 3.8 C 0 km/h
Sensor: Nr:Datum:Temp:Abs-Feuchte:Windchill:Wind:
Aussen-T/F 151 29-11-2003 05:30:01 3.8 C 5.02 g/m*3 3.8 C 0 km/h
152 29-11-2003 05:41:01 3.7 C 4.99 g/m*3 3.7 C 0 km/h
153 29-11-2003 05:53:01 3.7 C 4.99 g/m*3 3.7 C 0 km/h
154 29-11-2003 06:05:00 3.6 C 4.95 g/m*3 3.6 C 0 km/h
155 29-11-2003 06:17:00 3.5 C 4.98 g/m*3 3.5 C 0 km/h
156 29-11-2003 06:29:00 3.5 C 4.98 g/m*3 3.5 C 0 km/h
157 29-11-2003 06:41:01 3.5 C 5.04 g/m*3 3.5 C 0 km/h
158 29-11-2003 06:53:01 3.5 C 4.98 g/m*3 3.5 C 0 km/h
159 29-11-2003 07:05:00 3.5 C 4.98 g/m*3 3.5 C 0 km/h
160 29-11-2003 07:17:00 3.4 C 4.95 g/m*3 3.4 C 0 km/h
161 29-11-2003 07:29:00 3.2 C 4.94 g/m*3 3.2 C 0 km/h
162 29-11-2003 07:41:00 3.1 C 4.91 g/m*3 3.1 C 0 km/h
163 29-11-2003 07:53:00 3.1 C 4.97 g/m*3 3.1 C 0 km/h
164 29-11-2003 08:06:00 2.9 C 4.9 g/m*3 2.9 C 0 km/h
165 29-11-2003 08:18:01 2.8 C 4.87 g/m*3 2.8 C 0 km/h
166 29-11-2003 08:30:01 2.6 C 4.8 g/m*3 2.6 C 0 km/h
167 29-11-2003 08:41:01 2.4 C 4.8 g/m*3 2.4 C 0 km/h
168 29-11-2003 08:53:01 2.2 C 4.73 g/m*3 2.2 C 0 km/h
169 29-11-2003 09:05:00 2 C 4.67 g/m*3 2 C 0 km/h
170 29-11-2003 09:17:00 2 C 4.72 g/m*3 2 C 0 km/h
171 29-11-2003 09:29:00 2.1 C 4.76 g/m*3 2.1 C 0 km/h
172 29-11-2003 09:41:01 2.2 C 4.79 g/m*3 2.2 C 0 km/h
173 29-11-2003 09:53:01 2.4 C 4.85 g/m*3 2.4 C 0 km/h
174 29-11-2003 10:05:00 2.5 C 4.83 g/m*3 2.5 C 0 km/h
175 29-11-2003 10:17:00 2.5 C 4.83 g/m*3 2.5 C 0 km/h
Sensor: Nr:Datum:Temp:Abs-Feuchte:Windchill:Wind:
Aussen-T/F 176 29-11-2003 10:29:00 2.5 C 4.83 g/m*3 2.5 C 0 km/h
177 29-11-2003 10:41:00 2.7 C 4.89 g/m*3 2.7 C 0 km/h
178 29-11-2003 10:53:00 3 C 4.93 g/m*3 3 C 0 km/h
179 29-11-2003 11:06:00 3.4 C 5.01 g/m*3 3.4 C 0 km/h
180 29-11-2003 11:18:01 3.5 C 4.92 g/m*3 3.5 C 0 km/h
181 29-11-2003 11:30:01 4 C 5.02 g/m*3 4 C 0 km/h
182 29-11-2003 11:41:00 4.1 C 4.86 g/m*3 4.1 C 0 km/h
183 29-11-2003 11:53:01 4.3 C 4.86 g/m*3 4.3 C 0 km/h
184 29-11-2003 12:05:00 4.3 C 4.8 g/m*3 4.3 C 0 km/h
185 29-11-2003 12:17:00 4.4 C 4.9 g/m*3 4.4 C 0 km/h
186 29-11-2003 12:29:00 4.4 C 4.83 g/m*3 4.4 C 0 km/h
187 29-11-2003 12:41:00 4.7 C 4.93 g/m*3 4.7 C 0 km/h
188 29-11-2003 12:53:00 4.9 C 4.93 g/m*3 4.9 C 0 km/h
189 29-11-2003 13:06:01 5.1 C 4.92 g/m*3 5.1 C 0 km/h
190 29-11-2003 13:18:01 5.2 C 4.96 g/m*3 5.2 C 0 km/h
191 29-11-2003 13:30:01 5.2 C 4.96 g/m*3 5.2 C 0 km/h
192 29-11-2003 13:41:00 5.4 C 5.02 g/m*3 5.4 C 0 km/h
193 29-11-2003 13:53:01 5.5 C 5.06 g/m*3 5.5 C 0 km/h
194 29-11-2003 14:05:00 5.6 C 5.09 g/m*3 5.6 C 0 km/h
195 29-11-2003 14:17:00 5.6 C 5.16 g/m*3 5.6 C 0 km/h
196 29-11-2003 14:29:00 5.1 C 4.99 g/m*3 5.1 C 0 km/h
197 29-11-2003 14:41:00 5 C 5.1 g/m*3 5 C 0 km/h
198 29-11-2003 14:53:01 5.1 C 5.2 g/m*3 5.1 C 0 km/h
199 29-11-2003 15:05:00 5.4 C 5.3 g/m*3 5.4 C 0 km/h
200 29-11-2003 15:17:00 5.4 C 5.23 g/m*3 5.4 C 0 km/h
Sensor: Nr:Datum:Temp:Abs-Feuchte:Windchill:Wind:
Aussen-T/F 201 29-11-2003 15:29:00 5.2 C 5.16 g/m*3 5.2 C 0 km/h
202 29-11-2003 15:41:00 5.2 C 5.3 g/m*3 5.2 C 0 km/h
203 29-11-2003 15:53:00 5.3 C 5.27 g/m*3 5.3 C 0 km/h
204 29-11-2003 16:06:00 5 C 5.16 g/m*3 5 C 0 km/h
205 29-11-2003 16:18:00 4.5 C 5.19 g/m*3 4.5 C 0 km/h
206 29-11-2003 16:30:01 4 C 5.09 g/m*3 4 C 0 km/h
207 29-11-2003 16:41:01 3.7 C 5.17 g/m*3 3.7 C 0 km/h
208 29-11-2003 16:53:01 3.5 C 5.16 g/m*3 3.5 C 0 km/h
209 29-11-2003 17:05:00 3.3 C 5.1 g/m*3 3.3 C 0 km/h
210 29-11-2003 17:17:00 3.4 C 5.19 g/m*3 3.4 C 0 km/h
211 29-11-2003 17:29:00 3.4 C 5.25 g/m*3 3.4 C 0 km/h
212 29-11-2003 17:41:00 3.4 C 5.19 g/m*3 3.4 C 0 km/h
213 29-11-2003 17:53:00 3.2 C 5.06 g/m*3 3.2 C 0 km/h
214 29-11-2003 18:06:01 2.9 C 5.02 g/m*3 2.9 C 0 km/h
215 29-11-2003 18:18:01 2.8 C 4.99 g/m*3 2.8 C 0 km/h
216 29-11-2003 18:30:01 2.5 C 4.89 g/m*3 2.5 C 0 km/h
217 29-11-2003 18:41:00 2.5 C 4.94 g/m*3 2.5 C 0 km/h
218 29-11-2003 18:53:00 2.5 C 4.94 g/m*3 2.5 C 0 km/h
219 29-11-2003 19:05:00 2.4 C 4.91 g/m*3 2.4 C 0 km/h
220 29-11-2003 19:17:00 2.3 C 4.88 g/m*3 2.3 C 0 km/h
221 29-11-2003 19:29:00 2.1 C 4.81 g/m*3 2.1 C 0 km/h
222 29-11-2003 19:41:00 2 C 4.83 g/m*3 2 C 0 km/h
223 29-11-2003 19:53:00 2 C 4.83 g/m*3 2 C 0 km/h
224 29-11-2003 20:06:00 2 C 4.83 g/m*3 2 C 0 km/h
225 29-11-2003 20:18:01 2.1 C 4.92 g/m*3 2.1 C 0 km/h
Sensor: Nr:Datum:Temp:Abs-Feuchte:Windchill:Wind:
Aussen-T/F 226 29-11-2003 20:30:01 2.3 C 4.99 g/m*3 2.3 C 0 km/h
227 29-11-2003 20:41:01 2.3 C 5.05 g/m*3 2.3 C 0 km/h
228 29-11-2003 20:53:01 2.2 C 5.01 g/m*3 2.2 C 0 km/h
229 29-11-2003 21:05:00 2.2 C 5.01 g/m*3 2.2 C 0 km/h
230 29-11-2003 21:17:00 2.1 C 4.98 g/m*3 2.1 C 0 km/h
231 29-11-2003 21:29:00 2.1 C 4.98 g/m*3 2.1 C 0 km/h
232 29-11-2003 21:41:00 2.1 C 4.98 g/m*3 2.1 C 0 km/h
233 29-11-2003 21:53:00 2 C 4.95 g/m*3 2 C 0 km/h
234 29-11-2003 22:06:01 2.1 C 4.98 g/m*3 2.1 C 0 km/h
235 29-11-2003 22:18:01 2.2 C 5.01 g/m*3 2.2 C 0 km/h
236 29-11-2003 22:30:01 2.4 C 5.08 g/m*3 2.4 C 0 km/h
237 29-11-2003 22:41:01 2.3 C 5.05 g/m*3 2.3 C 0 km/h
238 29-11-2003 22:53:01 2.3 C 5.05 g/m*3 2.3 C 0 km/h
239 29-11-2003 23:05:00 2.1 C 4.92 g/m*3 2.1 C 0 km/h
240 29-11-2003 23:17:00 2.2 C 4.96 g/m*3 2.2 C 0 km/h
241 29-11-2003 23:29:00 2.1 C 4.92 g/m*3 2.1 C 0 km/h
242 29-11-2003 23:41:01 2.3 C 5.05 g/m*3 2.3 C 0 km/h
243 29-11-2003 23:53:01 2.4 C 5.08 g/m*3 2.4 C 0 km/h
244 30-11-2003 00:05:00 2.5 C 5.12 g/m*3 2.5 C 0 km/h
245 30-11-2003 00:17:00 2.5 C 5.12 g/m*3 2.5 C 0 km/h
246 30-11-2003 00:29:00 2.6 C 5.15 g/m*3 2.6 C 0 km/h
247 30-11-2003 00:41:00 2.5 C 5.12 g/m*3 2.5 C 0 km/h
248 30-11-2003 00:53:00 2.6 C 5.15 g/m*3 2.6 C 0 km/h
249 30-11-2003 01:06:00 2.5 C 5.06 g/m*3 2.5 C 0 km/h
250 30-11-2003 01:18:00 2.2 C 4.96 g/m*3 2.2 C 0 km/h
Sensor: Nr:Datum:Temp:Abs-Feuchte:Windchill:Wind:
Aussen-T/F 251 30-11-2003 01:30:01 2 C 4.89 g/m*3 2 C 0 km/h
252 30-11-2003 01:41:01 1.7 C 4.79 g/m*3 1.7 C 0 km/h
253 30-11-2003 01:53:01 1.8 C 4.88 g/m*3 1.8 C 0 km/h
254 30-11-2003 02:05:00 2.3 C 5.05 g/m*3 2.3 C 0 km/h
255 30-11-2003 02:17:00 2.5 C 5.17 g/m*3 2.5 C 0 km/h
256 30-11-2003 02:29:00 2.7 C 5.24 g/m*3 2.7 C 0 km/h
257 30-11-2003 02:41:00 2.8 C 5.28 g/m*3 2.8 C 0 km/h
258 30-11-2003 02:53:00 2.8 C 5.28 g/m*3 2.8 C 0 km/h
259 30-11-2003 03:06:01 2.8 C 5.22 g/m*3 2.8 C 0 km/h
260 30-11-2003 03:18:01 2.8 C 5.22 g/m*3 2.8 C 0 km/h
261 30-11-2003 03:30:01 2.7 C 5.19 g/m*3 2.7 C 0 km/h
262 30-11-2003 03:41:01 2.7 C 5.19 g/m*3 2.7 C 0 km/h
263 30-11-2003 03:53:01 2.9 C 5.26 g/m*3 2.9 C 0 km/h
264 30-11-2003 04:05:00 3.1 C 5.33 g/m*3 3.1 C 0 km/h
265 30-11-2003 04:17:00 3.3 C 5.4 g/m*3 3.3 C 0 km/h
266 30-11-2003 04:29:00 3.4 C 5.44 g/m*3 3.4 C 0 km/h
267 30-11-2003 04:41:01 3.5 C 5.47 g/m*3 3.5 C 0 km/h
268 30-11-2003 04:53:01 3.5 C 5.47 g/m*3 3.5 C 0 km/h
269 30-11-2003 05:05:00 3.6 C 5.51 g/m*3 3.6 C 0 km/h
270 30-11-2003 05:17:00 3.8 C 5.58 g/m*3 3.8 C 0 km/h
271 30-11-2003 05:29:00 4 C 5.53 g/m*3 4 C 0 km/h
272 30-11-2003 05:41:00 4 C 5.47 g/m*3 4 C 0 km/h
273 30-11-2003 05:53:00 4.2 C 5.41 g/m*3 4.2 C 0 km/h
274 30-11-2003 06:06:00 4.3 C 5.38 g/m*3 4.3 C 0 km/h
275 30-11-2003 06:18:01 4.3 C 5.38 g/m*3 4.3 C 0 km/h
Sensor: Nr:Datum:Temp:Abs-Feuchte:Windchill:Wind:
Aussen-T/F 276 30-11-2003 06:30:01 4.2 C 5.41 g/m*3 4.2 C 0 km/h
277 30-11-2003 06:41:01 4.2 C 5.41 g/m*3 4.2 C 0 km/h
278 30-11-2003 06:53:01 4.3 C 5.45 g/m*3 4.3 C 0 km/h
279 30-11-2003 07:05:00 4.4 C 5.42 g/m*3 4.4 C 0 km/h
280 30-11-2003 07:17:00 4.4 C 5.35 g/m*3 4.4 C 0 km/h
281 30-11-2003 07:29:00 4.4 C 5.42 g/m*3 4.4 C 0 km/h
282 30-11-2003 07:41:00 4.6 C 5.43 g/m*3 4.6 C 0 km/h
283 30-11-2003 07:53:00 4.6 C 5.36 g/m*3 4.6 C 0 km/h
284 30-11-2003 08:06:01 4.7 C 5.46 g/m*3 4.7 C 0 km/h
285 30-11-2003 08:18:01 4.7 C 5.46 g/m*3 4.7 C 0 km/h
286 30-11-2003 08:30:01 4.8 C 5.5 g/m*3 4.8 C 0 km/h
287 30-11-2003 08:41:01 5.1 C 5.47 g/m*3 5.1 C 0 km/h
288 30-11-2003 08:53:01 5.1 C 5.4 g/m*3 5.1 C 0 km/h
289 30-11-2003 09:05:00 5.2 C 5.44 g/m*3 5.2 C 0 km/h
290 30-11-2003 09:17:00 5.5 C 5.55 g/m*3 5.5 C 0 km/h
291 30-11-2003 09:29:00 5.3 C 5.48 g/m*3 5.3 C 0 km/h
292 30-11-2003 09:41:01 5.4 C 5.51 g/m*3 5.4 C 0 km/h
293 30-11-2003 09:53:01 5.5 C 5.55 g/m*3 5.5 C 0 km/h
294 30-11-2003 10:05:00 5.7 C 5.62 g/m*3 5.7 C 0 km/h
295 30-11-2003 10:17:00 5.7 C 5.55 g/m*3 5.7 C 0 km/h
296 30-11-2003 10:29:00 5.8 C 5.66 g/m*3 5.8 C 0 km/h
297 30-11-2003 10:41:00 6 C 5.66 g/m*3 6 C 0 km/h
298 30-11-2003 10:53:00 6.2 C 5.74 g/m*3 6.2 C 0 km/h
299 30-11-2003 11:06:01 6.3 C 5.63 g/m*3 6.3 C 0 km/h
300 30-11-2003 11:18:01 6.2 C 5.66 g/m*3 6.2 C 0 km/h
Sensor: Nr:Datum:Temp:Abs-Feuchte:Windchill:Wind:
Aussen-T/F 301 30-11-2003 11:30:01 6.4 C 5.74 g/m*3 6.4 C 0 km/h
302 30-11-2003 11:41:00 6.4 C 5.74 g/m*3 6.4 C 0 km/h
303 30-11-2003 11:53:00 6.5 C 5.85 g/m*3 6.5 C 0 km/h
304 30-11-2003 12:05:00 6.7 C 6 g/m*3 6.7 C 0 km/h
305 30-11-2003 12:17:00 7 C 5.97 g/m*3 7 C 0 km/h
306 30-11-2003 12:29:00 7.3 C 6.08 g/m*3 7.3 C 0 km/h
307 30-11-2003 12:41:00 7.1 C 5.93 g/m*3 7.1 C 0 km/h
308 30-11-2003 12:53:00 7.3 C 6 g/m*3 7.3 C 0 km/h
309 30-11-2003 13:06:01 7.3 C 6 g/m*3 7.3 C 0 km/h
310 30-11-2003 13:18:01 7.2 C 5.97 g/m*3 7.2 C 0 km/h
311 30-11-2003 13:30:01 7.1 C 5.85 g/m*3 7.1 C 0 km/h
312 30-11-2003 13:41:01 7.1 C 5.93 g/m*3 7.1 C 0 km/h
313 30-11-2003 13:53:01 7.3 C 5.93 g/m*3 7.3 C 0 km/h
314 30-11-2003 14:05:00 7.3 C 5.93 g/m*3 7.3 C 0 km/h
315 30-11-2003 14:17:00 7.4 C 5.96 g/m*3 7.4 C 0 km/h
316 30-11-2003 14:29:00 7.1 C 5.77 g/m*3 7.1 C 0 km/h
317 30-11-2003 14:41:00 7.2 C 5.89 g/m*3 7.2 C 0 km/h
318 30-11-2003 14:53:00 7.2 C 5.81 g/m*3 7.2 C 0 km/h
319 30-11-2003 15:05:01 7.2 C 5.89 g/m*3 7.2 C 0 km/h
320 30-11-2003 15:17:01 7.2 C 5.89 g/m*3 7.2 C 0 km/h
321 30-11-2003 15:29:01 7.3 C 6 g/m*3 7.3 C 0 km/h
322 30-11-2003 15:41:01 7.1 C 5.85 g/m*3 7.1 C 0 km/h
323 30-11-2003 15:53:01 7 C 5.89 g/m*3 7 C 0 km/h
324 30-11-2003 16:05:01 6.9 C 5.93 g/m*3 6.9 C 0 km/h
325 30-11-2003 16:17:01 6.8 C 5.97 g/m*3 6.8 C 0 km/h
Sensor: Nr:Datum:Temp:Abs-Feuchte:Windchill:Wind:
Aussen-T/F 326 30-11-2003 16:29:01 6.9 C 6.08 g/m*3 6.9 C 0 km/h
327 30-11-2003 16:41:00 6.8 C 6.04 g/m*3 6.8 C 0 km/h
328 30-11-2003 16:53:00 6.8 C 6.04 g/m*3 6.8 C 0 km/h
329 30-11-2003 17:06:01 6.8 C 6.04 g/m*3 6.8 C 0 km/h
330 30-11-2003 17:18:01 6.8 C 6.04 g/m*3 6.8 C 0 km/h
331 30-11-2003 17:30:01 6.8 C 6.04 g/m*3 6.8 C 0 km/h
332 30-11-2003 17:41:01 6.8 C 6.04 g/m*3 6.8 C 0 km/h
333 30-11-2003 17:53:01 6.8 C 6.04 g/m*3 6.8 C 0 km/h
334 30-11-2003 18:05:00 6.8 C 6.04 g/m*3 6.8 C 0 km/h
335 30-11-2003 18:17:00 6.8 C 6.12 g/m*3 6.8 C 0 km/h
336 30-11-2003 18:29:00 6.6 C 6.11 g/m*3 6.6 C 0 km/h
337 30-11-2003 18:41:01 6.5 C 6.15 g/m*3 6.5 C 0 km/h
338 30-11-2003 18:53:01 6.5 C 6.22 g/m*3 6.5 C 0 km/h
339 30-11-2003 19:05:00 6.4 C 6.26 g/m*3 6.4 C 0 km/h
340 30-11-2003 19:17:01 6.4 C 6.33 g/m*3 6.4 C 0 km/h
341 30-11-2003 19:29:01 6.3 C 6.29 g/m*3 6.3 C 0 km/h
342 30-11-2003 19:41:00 6.3 C 6.37 g/m*3 6.3 C 0 km/h
343 30-11-2003 19:53:01 6.3 C 6.37 g/m*3 6.3 C 0 km/h
344 30-11-2003 20:05:00 6.3 C 6.44 g/m*3 6.3 C 0 km/h
345 30-11-2003 20:17:00 6.1 C 6.36 g/m*3 6.1 C 0 km/h
346 30-11-2003 20:29:00 5.9 C 6.35 g/m*3 5.9 C 0 km/h
347 30-11-2003 20:41:00 5.7 C 6.26 g/m*3 5.7 C 0 km/h
348 30-11-2003 20:53:00 5.7 C 6.26 g/m*3 5.7 C 0 km/h
349 30-11-2003 21:06:01 5.5 C 6.18 g/m*3 5.5 C 0 km/h
350 30-11-2003 21:18:01 5.6 C 6.29 g/m*3 5.6 C 0 km/h
Sensor: Nr:Datum:Temp:Abs-Feuchte:Windchill:Wind:
Aussen-T/F 351 30-11-2003 21:30:01 5.8 C 6.38 g/m*3 5.8 C 0 km/h
352 30-11-2003 21:41:01 6 C 6.46 g/m*3 6 C 0 km/h
353 30-11-2003 21:53:01 6.2 C 6.55 g/m*3 6.2 C 0 km/h
354 30-11-2003 22:05:00 6.2 C 6.55 g/m*3 6.2 C 0 km/h
355 30-11-2003 22:17:00 6.4 C 6.63 g/m*3 6.4 C 0 km/h
356 30-11-2003 22:29:01 6.6 C 6.72 g/m*3 6.6 C 0 km/h
357 30-11-2003 22:41:01 6.7 C 6.69 g/m*3 6.7 C 0 km/h
358 30-11-2003 22:53:01 6.7 C 6.61 g/m*3 6.7 C 0 km/h
359 30-11-2003 23:05:00 6.4 C 6.48 g/m*3 6.4 C 0 km/h
360 30-11-2003 23:17:01 6.3 C 6.44 g/m*3 6.3 C 0 km/h
361 30-11-2003 23:29:01 6.6 C 6.64 g/m*3 6.6 C 0 km/h
362 30-11-2003 23:41:00 6.7 C 6.69 g/m*3 6.7 C 0 km/h
363 30-11-2003 23:53:00 6.6 C 6.57 g/m*3 6.6 C 0 km/h
364 01-12-2003 00:06:01 7 C 6.74 g/m*3 7 C 0 km/h
365 01-12-2003 00:18:01 7.2 C 6.67 g/m*3 7.2 C 0 km/h
366 01-12-2003 00:30:01 7.4 C 6.76 g/m*3 7.4 C 0 km/h
367 01-12-2003 00:41:01 7.4 C 6.68 g/m*3 7.4 C 0 km/h
368 01-12-2003 00:53:01 7.8 C 6.77 g/m*3 7.8 C 0 km/h
369 01-12-2003 01:05:00 7.7 C 6.73 g/m*3 7.7 C 0 km/h
370 01-12-2003 01:17:00 7.7 C 6.73 g/m*3 7.7 C 0 km/h
371 01-12-2003 01:29:00 7.5 C 6.64 g/m*3 7.5 C 0 km/h
372 01-12-2003 01:41:00 7.8 C 6.86 g/m*3 7.8 C 0 km/h
373 01-12-2003 01:53:00 7.8 C 6.77 g/m*3 7.8 C 0 km/h
374 01-12-2003 02:06:01 7.8 C 6.77 g/m*3 7.8 C 0 km/h
375 01-12-2003 02:18:01 7.8 C 6.69 g/m*3 7.8 C 0 km/h
Sensor: Nr:Datum:Temp:Abs-Feuchte:Windchill:Wind:
Aussen-T/F 376 01-12-2003 02:30:01 7.9 C 6.74 g/m*3 7.9 C 0 km/h
377 01-12-2003 02:41:01 8 C 6.61 g/m*3 8 C 0 km/h
378 01-12-2003 02:53:01 8.2 C 6.7 g/m*3 8.2 C 0 km/h
379 01-12-2003 03:05:00 8.3 C 6.66 g/m*3 8.3 C 0 km/h
380 01-12-2003 03:17:00 8.4 C 6.7 g/m*3 8.4 C 0 km/h
381 01-12-2003 03:29:00 8.4 C 6.7 g/m*3 8.4 C 0 km/h
382 01-12-2003 03:41:01 8.2 C 6.7 g/m*3 8.2 C 0 km/h
383 01-12-2003 03:53:01 8.1 C 6.74 g/m*3 8.1 C 0 km/h
384 01-12-2003 04:05:00 7.9 C 6.82 g/m*3 7.9 C 0 km/h
385 01-12-2003 04:17:00 8 C 6.78 g/m*3 8 C 0 km/h
386 01-12-2003 04:29:00 8 C 6.78 g/m*3 8 C 0 km/h
387 01-12-2003 04:41:00 8.1 C 6.82 g/m*3 8.1 C 0 km/h
388 01-12-2003 04:53:00 8.5 C 6.83 g/m*3 8.5 C 0 km/h
389 01-12-2003 05:06:01 8.4 C 6.7 g/m*3 8.4 C 0 km/h
390 01-12-2003 05:18:01 8.5 C 6.74 g/m*3 8.5 C 0 km/h
391 01-12-2003 05:30:01 8.4 C 6.7 g/m*3 8.4 C 0 km/h
392 01-12-2003 05:41:01 8.4 C 6.7 g/m*3 8.4 C 0 km/h
393 01-12-2003 05:53:01 8.3 C 6.66 g/m*3 8.3 C 0 km/h
394 01-12-2003 06:05:00 8.3 C 6.74 g/m*3 8.3 C 0 km/h
395 01-12-2003 06:17:00 8.2 C 6.7 g/m*3 8.2 C 0 km/h
396 01-12-2003 06:29:00 8.1 C 6.66 g/m*3 8.1 C 0 km/h
397 01-12-2003 06:41:00 8 C 6.7 g/m*3 8 C 0 km/h
398 01-12-2003 06:53:00 8.1 C 6.66 g/m*3 8.1 C 0 km/h
399 01-12-2003 07:06:01 8 C 6.61 g/m*3 8 C 0 km/h
400 01-12-2003 07:18:01 7.6 C 6.61 g/m*3 7.6 C 0 km/h
Sensor: Nr:Datum:Temp:Abs-Feuchte:Windchill:Wind:
Aussen-T/F 401 01-12-2003 07:30:01 7.5 C 6.64 g/m*3 7.5 C 0 km/h
402 01-12-2003 07:41:00 7.7 C 6.73 g/m*3 7.7 C 0 km/h
403 01-12-2003 07:53:01 8 C 6.45 g/m*3 8 C 0 km/h
404 01-12-2003 08:05:00 8.2 C 6.36 g/m*3 8.2 C 0 km/h
405 01-12-2003 08:17:00 8.4 C 6.19 g/m*3 8.4 C 0 km/h
406 01-12-2003 08:29:00 8.5 C 6.15 g/m*3 8.5 C 0 km/h
407 01-12-2003 08:41:01 8.5 C 6.06 g/m*3 8.5 C 0 km/h
408 01-12-2003 08:53:01 8.4 C 6.11 g/m*3 8.4 C 0 km/h
409 01-12-2003 09:05:00 8.2 C 6.03 g/m*3 8.2 C 0 km/h
410 01-12-2003 09:17:00 8.2 C 6.03 g/m*3 8.2 C 0 km/h
411 01-12-2003 09:29:00 8.2 C 6.03 g/m*3 8.2 C 0 km/h
412 01-12-2003 09:41:00 8.2 C 6.03 g/m*3 8.2 C 0 km/h
413 01-12-2003 09:53:00 8.2 C 6.11 g/m*3 8.2 C 0 km/h
414 01-12-2003 10:06:01 7.7 C 6.32 g/m*3 7.7 C 0 km/h
415 01-12-2003 10:18:01 7.6 C 6.69 g/m*3 7.6 C 0 km/h
416 01-12-2003 10:30:01 7.5 C 6.72 g/m*3 7.5 C 0 km/h
417 01-12-2003 10:41:01 7.6 C 6.85 g/m*3 7.6 C 0 km/h
418 01-12-2003 10:53:01 7.7 C 6.97 g/m*3 7.7 C 0 km/h
419 01-12-2003 11:05:00 7.8 C 7.02 g/m*3 7.8 C 0 km/h
420 01-12-2003 11:17:00 8 C 7.03 g/m*3 8 C 0 km/h
421 01-12-2003 11:29:00 8.1 C 6.99 g/m*3 8.1 C 0 km/h
422 01-12-2003 11:41:01 8.1 C 6.91 g/m*3 8.1 C 0 km/h
423 01-12-2003 11:53:01 8.3 C 6.74 g/m*3 8.3 C 0 km/h
424 01-12-2003 12:05:00 8.6 C 6.79 g/m*3 8.6 C 0 km/h
425 01-12-2003 12:17:00 8.9 C 6.83 g/m*3 8.9 C 0 km/h
Sensor: Nr:Datum:Temp:Abs-Feuchte:Windchill:Wind:
Aussen-T/F 426 01-12-2003 12:29:00 9.4 C 6.69 g/m*3 9.4 C 0 km/h
427 01-12-2003 12:41:00 9.9 C 6.72 g/m*3 9.9 C 0 km/h
428 01-12-2003 12:53:01 10.1 C 6.52 g/m*3 10.1 C 0 km/h
429 01-12-2003 13:05:00 10 C 6.39 g/m*3 10 C 0 km/h
430 01-12-2003 13:17:00 10.3 C 6.51 g/m*3 10.3 C 0 km/h
431 01-12-2003 13:29:00 10.2 C 6.28 g/m*3 10.2 C 0 km/h
432 01-12-2003 13:42:00 10.1 C 6.24 g/m*3 10.1 C 0 km/h
433 01-12-2003 13:54:00 10.1 C 6.34 g/m*3 10.1 C 0 km/h
434 01-12-2003 14:06:00 9.9 C 6.35 g/m*3 9.9 C 0 km/h
435 01-12-2003 14:18:00 9.8 C 6.4 g/m*3 9.8 C 0 km/h
436 01-12-2003 14:30:01 9.8 C 6.49 g/m*3 9.8 C 0 km/h
437 01-12-2003 14:41:01 9.7 C 6.27 g/m*3 9.7 C 0 km/h
438 01-12-2003 14:53:01 9.6 C 6.41 g/m*3 9.6 C 0 km/h
439 01-12-2003 15:05:00 9.7 C 6.27 g/m*3 9.7 C 0 km/h
440 01-12-2003 15:17:00 9.6 C 6.23 g/m*3 9.6 C 0 km/h
441 01-12-2003 15:29:00 9.3 C 6.2 g/m*3 9.3 C 0 km/h
442 01-12-2003 15:41:01 9 C 6.35 g/m*3 9 C 0 km/h
443 01-12-2003 15:53:01 8.7 C 6.4 g/m*3 8.7 C 0 km/h
444 01-12-2003 16:05:00 8.4 C 6.28 g/m*3 8.4 C 0 km/h
445 01-12-2003 16:17:00 8.3 C 6.24 g/m*3 8.3 C 0 km/h
446 01-12-2003 16:29:00 8 C 6.12 g/m*3 8 C 0 km/h
447 01-12-2003 16:41:00 8 C 6.04 g/m*3 8 C 0 km/h
448 01-12-2003 16:53:00 7.7 C 6.08 g/m*3 7.7 C 0 km/h
449 01-12-2003 17:06:01 7.5 C 6 g/m*3 7.5 C 0 km/h
450 01-12-2003 17:18:01 7.4 C 5.96 g/m*3 7.4 C 0 km/h
Sensor: Nr:Datum:Temp:Abs-Feuchte:Windchill:Wind:
Aussen-T/F 451 01-12-2003 17:30:01 7.6 C 5.96 g/m*3 7.6 C 0 km/h
452 01-12-2003 17:41:01 7.5 C 5.92 g/m*3 7.5 C 0 km/h
453 01-12-2003 17:53:01 7.3 C 5.85 g/m*3 7.3 C 0 km/h
454 01-12-2003 18:05:00 6.8 C 5.81 g/m*3 6.8 C 0 km/h
455 01-12-2003 18:17:00 6.5 C 5.7 g/m*3 6.5 C 0 km/h
456 01-12-2003 18:29:00 6.5 C 5.7 g/m*3 6.5 C 0 km/h
457 01-12-2003 18:41:00 6.4 C 5.74 g/m*3 6.4 C 0 km/h
458 01-12-2003 18:53:00 6.3 C 5.7 g/m*3 6.3 C 0 km/h
459 01-12-2003 19:06:01 6.2 C 5.66 g/m*3 6.2 C 0 km/h
460 01-12-2003 19:18:01 6.3 C 5.7 g/m*3 6.3 C 0 km/h
461 01-12-2003 19:30:01 6.3 C 5.63 g/m*3 6.3 C 0 km/h
462 01-12-2003 19:41:01 6.3 C 5.55 g/m*3 6.3 C 0 km/h
463 01-12-2003 19:53:01 5.9 C 5.55 g/m*3 5.9 C 0 km/h
464 01-12-2003 20:05:00 5.9 C 5.55 g/m*3 5.9 C 0 km/h
465 01-12-2003 20:17:00 5.9 C 5.62 g/m*3 5.9 C 0 km/h
466 01-12-2003 20:29:00 5.7 C 5.55 g/m*3 5.7 C 0 km/h
467 01-12-2003 20:41:01 5.9 C 5.62 g/m*3 5.9 C 0 km/h
468 01-12-2003 20:53:01 6.3 C 5.55 g/m*3 6.3 C 0 km/h
469 01-12-2003 21:05:00 6.3 C 5.48 g/m*3 6.3 C 0 km/h
470 01-12-2003 21:17:00 6.4 C 5.51 g/m*3 6.4 C 0 km/h
471 01-12-2003 21:29:00 6.3 C 5.48 g/m*3 6.3 C 0 km/h
472 01-12-2003 21:41:00 6.2 C 5.44 g/m*3 6.2 C 0 km/h
473 01-12-2003 21:53:00 6.2 C 5.52 g/m*3 6.2 C 0 km/h
474 01-12-2003 22:06:01 6.1 C 5.48 g/m*3 6.1 C 0 km/h
475 01-12-2003 22:18:01 6.1 C 5.55 g/m*3 6.1 C 0 km/h
Sensor: Nr:Datum:Temp:Abs-Feuchte:Windchill:Wind:
Aussen-T/F 476 01-12-2003 22:30:01 6 C 5.52 g/m*3 6 C 0 km/h
477 01-12-2003 22:41:01 6 C 5.52 g/m*3 6 C 0 km/h
478 01-12-2003 22:53:01 5.9 C 5.62 g/m*3 5.9 C 0 km/h
479 01-12-2003 23:05:00 5.9 C 5.62 g/m*3 5.9 C 0 km/h
480 01-12-2003 23:17:00 5.9 C 5.62 g/m*3 5.9 C 0 km/h
481 01-12-2003 23:29:00 6.2 C 5.59 g/m*3 6.2 C 0 km/h
482 01-12-2003 23:41:01 6.2 C 5.52 g/m*3 6.2 C 0 km/h
483 01-12-2003 23:53:01 5.9 C 5.55 g/m*3 5.9 C 0 km/h
484 02-12-2003 00:05:01 5.9 C 5.62 g/m*3 5.9 C 0 km/h
485 02-12-2003 00:17:01 5.9 C 5.62 g/m*3 5.9 C 0 km/h
486 02-12-2003 00:29:01 5.8 C 5.66 g/m*3 5.8 C 0 km/h
487 02-12-2003 00:41:00 5.8 C 5.66 g/m*3 5.8 C 0 km/h
488 02-12-2003 00:53:00 5.8 C 5.59 g/m*3 5.8 C 0 km/h
489 02-12-2003 01:06:01 5.7 C 5.62 g/m*3 5.7 C 0 km/h
490 02-12-2003 01:18:01 5.8 C 5.66 g/m*3 5.8 C 0 km/h
491 02-12-2003 01:30:01 6.2 C 5.52 g/m*3 6.2 C 0 km/h
492 02-12-2003 01:41:01 6 C 5.52 g/m*3 6 C 0 km/h
493 02-12-2003 01:53:01 5.8 C 5.52 g/m*3 5.8 C 0 km/h
494 02-12-2003 02:05:00 5.6 C 5.59 g/m*3 5.6 C 0 km/h
495 02-12-2003 02:17:00 5.6 C 5.51 g/m*3 5.6 C 0 km/h
496 02-12-2003 02:29:00 5.6 C 5.59 g/m*3 5.6 C 0 km/h
497 02-12-2003 02:41:01 5.5 C 5.55 g/m*3 5.5 C 0 km/h
498 02-12-2003 02:53:01 5.2 C 5.44 g/m*3 5.2 C 0 km/h
499 02-12-2003 03:05:00 5.1 C 5.47 g/m*3 5.1 C 0 km/h
500 02-12-2003 03:17:00 4.9 C 5.47 g/m*3 4.9 C 0 km/h
Sensor: Nr:Datum:Temp:Abs-Feuchte:Windchill:Wind:
Aussen-T/F 501 02-12-2003 03:29:00 4.9 C 5.54 g/m*3 4.9 C 0 km/h
502 02-12-2003 03:41:00 4.7 C 5.46 g/m*3 4.7 C 0 km/h
503 02-12-2003 03:53:00 4.6 C 5.49 g/m*3 4.6 C 0 km/h
504 02-12-2003 04:06:01 4.5 C 5.46 g/m*3 4.5 C 0 km/h
505 02-12-2003 04:18:01 4.6 C 5.49 g/m*3 4.6 C 0 km/h
506 02-12-2003 04:30:01 4.6 C 5.56 g/m*3 4.6 C 0 km/h
507 02-12-2003 04:41:01 4.6 C 5.56 g/m*3 4.6 C 0 km/h
508 02-12-2003 04:53:01 4.6 C 5.56 g/m*3 4.6 C 0 km/h
509 02-12-2003 05:05:00 4.6 C 5.56 g/m*3 4.6 C 0 km/h
510 02-12-2003 05:17:00 4.6 C 5.56 g/m*3 4.6 C 0 km/h
511 02-12-2003 05:29:00 4.6 C 5.56 g/m*3 4.6 C 0 km/h
512 02-12-2003 05:41:00 4.6 C 5.56 g/m*3 4.6 C 0 km/h
513 02-12-2003 05:53:00 4.5 C 5.52 g/m*3 4.5 C 0 km/h
514 02-12-2003 06:06:01 4.4 C 5.48 g/m*3 4.4 C 0 km/h
515 02-12-2003 06:18:01 4.3 C 5.45 g/m*3 4.3 C 0 km/h
516 02-12-2003 06:30:01 4.2 C 5.41 g/m*3 4.2 C 0 km/h
517 02-12-2003 06:41:00 4.1 C 5.38 g/m*3 4.1 C 0 km/h
518 02-12-2003 06:53:00 4.3 C 5.51 g/m*3 4.3 C 0 km/h
519 02-12-2003 07:05:00 4.3 C 5.51 g/m*3 4.3 C 0 km/h
520 02-12-2003 07:17:00 4.3 C 5.51 g/m*3 4.3 C 0 km/h
521 02-12-2003 07:29:00 4.1 C 5.44 g/m*3 4.1 C 0 km/h
522 02-12-2003 07:41:01 4 C 5.4 g/m*3 4 C 0 km/h
523 02-12-2003 07:53:01 3.8 C 5.4 g/m*3 3.8 C 0 km/h
524 02-12-2003 08:05:00 3.8 C 5.4 g/m*3 3.8 C 0 km/h
525 02-12-2003 08:17:00 3.8 C 5.46 g/m*3 3.8 C 0 km/h
Sensor: Nr:Datum:Temp:Abs-Feuchte:Windchill:Wind:
Aussen-T/F 526 02-12-2003 08:29:00 3.8 C 5.46 g/m*3 3.8 C 0 km/h
527 02-12-2003 08:41:00 3.9 C 5.49 g/m*3 3.9 C 0 km/h
528 02-12-2003 08:53:00 4 C 5.47 g/m*3 4 C 0 km/h
529 02-12-2003 09:06:00 4.1 C 5.5 g/m*3 4.1 C 0 km/h
530 02-12-2003 09:18:01 4.2 C 5.61 g/m*3 4.2 C 0 km/h
531 02-12-2003 09:30:01 4.3 C 5.64 g/m*3 4.3 C 0 km/h
532 02-12-2003 09:41:01 4.5 C 5.65 g/m*3 4.5 C 0 km/h
533 02-12-2003 09:53:01 4.7 C 5.73 g/m*3 4.7 C 0 km/h
534 02-12-2003 10:05:00 4.8 C 5.63 g/m*3 4.8 C 0 km/h
535 02-12-2003 10:17:00 5 C 5.64 g/m*3 5 C 0 km/h
536 02-12-2003 10:29:00 5.5 C 5.83 g/m*3 5.5 C 0 km/h
537 02-12-2003 10:41:01 5.8 C 5.87 g/m*3 5.8 C 0 km/h
538 02-12-2003 10:53:01 5.9 C 5.77 g/m*3 5.9 C 0 km/h
539 02-12-2003 11:05:00 6.4 C 5.81 g/m*3 6.4 C 0 km/h
540 02-12-2003 11:17:00 6.4 C 5.74 g/m*3 6.4 C 0 km/h
541 02-12-2003 11:29:00 6.4 C 5.74 g/m*3 6.4 C 0 km/h
542 02-12-2003 11:41:00 6.4 C 5.66 g/m*3 6.4 C 0 km/h
543 02-12-2003 11:53:00 6.4 C 5.81 g/m*3 6.4 C 0 km/h
544 02-12-2003 12:05:00 6.3 C 5.77 g/m*3 6.3 C 0 km/h
545 02-12-2003 12:17:00 6.2 C 5.74 g/m*3 6.2 C 0 km/h
546 02-12-2003 12:29:00 6.9 C 5.85 g/m*3 6.9 C 0 km/h
547 02-12-2003 12:41:00 8 C 6.04 g/m*3 8 C 0 km/h
548 02-12-2003 12:53:00 7.9 C 5.91 g/m*3 7.9 C 0 km/h
549 02-12-2003 13:06:00 8.5 C 5.89 g/m*3 8.5 C 0 km/h
550 02-12-2003 13:18:01 9.3 C 5.66 g/m*3 9.3 C 0 km/h
Sensor: Nr:Datum:Temp:Abs-Feuchte:Windchill:Wind:
Aussen-T/F 551 02-12-2003 13:30:01 9.6 C 5.59 g/m*3 9.6 C 0 km/h
552 02-12-2003 13:41:00 9.2 C 5.45 g/m*3 9.2 C 0 km/h
553 02-12-2003 13:53:01 8.5 C 5.46 g/m*3 8.5 C 0 km/h
554 02-12-2003 14:05:00 8 C 5.54 g/m*3 8 C 0 km/h
555 02-12-2003 14:17:00 7.7 C 5.59 g/m*3 7.7 C 0 km/h
556 02-12-2003 14:29:00 7.5 C 5.68 g/m*3 7.5 C 0 km/h
557 02-12-2003 14:41:01 7.4 C 5.57 g/m*3 7.4 C 0 km/h
558 02-12-2003 14:53:01 7.3 C 5.77 g/m*3 7.3 C 0 km/h
559 02-12-2003 15:05:00 7.3 C 5.77 g/m*3 7.3 C 0 km/h
560 02-12-2003 15:17:00 7.1 C 5.77 g/m*3 7.1 C 0 km/h
561 02-12-2003 15:29:00 7 C 5.66 g/m*3 7 C 0 km/h
562 02-12-2003 15:41:00 7 C 5.73 g/m*3 7 C 0 km/h
563 02-12-2003 15:53:00 6.8 C 5.81 g/m*3 6.8 C 0 km/h
564 02-12-2003 16:06:00 6.6 C 5.74 g/m*3 6.6 C 0 km/h
565 02-12-2003 16:18:00 6.6 C 5.66 g/m*3 6.6 C 0 km/h
566 02-12-2003 16:30:01 6.4 C 5.66 g/m*3 6.4 C 0 km/h
567 02-12-2003 16:41:01 6.2 C 5.74 g/m*3 6.2 C 0 km/h
568 02-12-2003 16:53:01 5.9 C 5.7 g/m*3 5.9 C 0 km/h
569 02-12-2003 17:05:00 5.7 C 5.69 g/m*3 5.7 C 0 km/h
570 02-12-2003 17:17:00 5.7 C 5.76 g/m*3 5.7 C 0 km/h
571 02-12-2003 17:29:00 5.6 C 5.73 g/m*3 5.6 C 0 km/h
572 02-12-2003 17:41:00 5.4 C 5.58 g/m*3 5.4 C 0 km/h
573 02-12-2003 17:53:00 5.2 C 5.58 g/m*3 5.2 C 0 km/h
574 02-12-2003 18:06:01 4.9 C 5.54 g/m*3 4.9 C 0 km/h
575 02-12-2003 18:18:01 4.7 C 5.53 g/m*3 4.7 C 0 km/h
Sensor: Nr:Datum:Temp:Abs-Feuchte:Windchill:Wind:
Aussen-T/F 576 02-12-2003 18:30:01 4.6 C 5.49 g/m*3 4.6 C 0 km/h
577 02-12-2003 18:41:01 4.5 C 5.52 g/m*3 4.5 C 0 km/h
578 02-12-2003 18:53:01 4.4 C 5.48 g/m*3 4.4 C 0 km/h
579 02-12-2003 19:05:00 4.3 C 5.45 g/m*3 4.3 C 0 km/h
580 02-12-2003 19:17:00 4.3 C 5.51 g/m*3 4.3 C 0 km/h
581 02-12-2003 19:29:00 4.2 C 5.48 g/m*3 4.2 C 0 km/h
582 02-12-2003 19:41:00 4 C 5.34 g/m*3 4 C 0 km/h
583 02-12-2003 19:53:00 4 C 5.4 g/m*3 4 C 0 km/h
584 02-12-2003 20:06:00 3.7 C 5.3 g/m*3 3.7 C 0 km/h
585 02-12-2003 20:18:01 3.8 C 5.4 g/m*3 3.8 C 0 km/h
586 02-12-2003 20:30:01 3.7 C 5.36 g/m*3 3.7 C 0 km/h
587 02-12-2003 20:41:01 3.4 C 5.25 g/m*3 3.4 C 0 km/h
588 02-12-2003 20:53:01 3.2 C 5.18 g/m*3 3.2 C 0 km/h
589 02-12-2003 21:05:00 3.3 C 5.22 g/m*3 3.3 C 0 km/h
590 02-12-2003 21:17:00 3.3 C 5.28 g/m*3 3.3 C 0 km/h
591 02-12-2003 21:29:00 3.3 C 5.28 g/m*3 3.3 C 0 km/h
592 02-12-2003 21:41:01 3.3 C 5.34 g/m*3 3.3 C 0 km/h
593 02-12-2003 21:53:01 3.3 C 5.34 g/m*3 3.3 C 0 km/h
594 02-12-2003 22:05:00 3.1 C 5.21 g/m*3 3.1 C 0 km/h
595 02-12-2003 22:17:00 3.3 C 5.34 g/m*3 3.3 C 0 km/h
596 02-12-2003 22:29:00 2.9 C 5.2 g/m*3 2.9 C 0 km/h
597 02-12-2003 22:41:00 2.9 C 5.2 g/m*3 2.9 C 0 km/h
598 02-12-2003 22:53:00 2.9 C 5.2 g/m*3 2.9 C 0 km/h
599 02-12-2003 23:06:01 3 C 5.23 g/m*3 3 C 0 km/h
600 02-12-2003 23:18:01 2.9 C 5.2 g/m*3 2.9 C 0 km/h
Sensor: Nr:Datum:Temp:Abs-Feuchte:Windchill:Wind:
Aussen-T/F 601 02-12-2003 23:30:01 2.8 C 5.16 g/m*3 2.8 C 0 km/h
602 02-12-2003 23:41:00 3 C 5.23 g/m*3 3 C 0 km/h
603 02-12-2003 23:53:01 3.1 C 5.27 g/m*3 3.1 C 0 km/h
604 03-12-2003 00:05:00 3.1 C 5.27 g/m*3 3.1 C 0 km/h
605 03-12-2003 00:17:00 3.1 C 5.27 g/m*3 3.1 C 0 km/h
606 03-12-2003 00:29:00 3.1 C 5.27 g/m*3 3.1 C 0 km/h
607 03-12-2003 00:42:00 3 C 5.23 g/m*3 3 C 0 km/h
608 03-12-2003 00:53:00 3 C 5.23 g/m*3 3 C 0 km/h
609 03-12-2003 01:06:00 3 C 5.23 g/m*3 3 C 0 km/h
610 03-12-2003 01:18:01 3.1 C 5.27 g/m*3 3.1 C 0 km/h
611 03-12-2003 01:30:01 3 C 5.23 g/m*3 3 C 0 km/h
612 03-12-2003 01:41:01 3 C 5.23 g/m*3 3 C 0 km/h
613 03-12-2003 01:53:01 3 C 5.23 g/m*3 3 C 0 km/h
614 03-12-2003 02:05:00 3 C 5.23 g/m*3 3 C 0 km/h
615 03-12-2003 02:17:00 3 C 5.23 g/m*3 3 C 0 km/h
616 03-12-2003 02:29:00 3.1 C 5.27 g/m*3 3.1 C 0 km/h
617 03-12-2003 02:41:01 2.9 C 5.2 g/m*3 2.9 C 0 km/h
618 03-12-2003 02:53:01 2.7 C 5.13 g/m*3 2.7 C 0 km/h
619 03-12-2003 03:05:00 2.5 C 5.06 g/m*3 2.5 C 0 km/h
620 03-12-2003 03:17:00 2.4 C 5.02 g/m*3 2.4 C 0 km/h
621 03-12-2003 03:29:00 2.2 C 4.9 g/m*3 2.2 C 0 km/h
622 03-12-2003 03:41:00 2.1 C 4.87 g/m*3 2.1 C 0 km/h
623 03-12-2003 03:53:00 1.9 C 4.86 g/m*3 1.9 C 0 km/h
624 03-12-2003 04:06:00 2 C 4.89 g/m*3 2 C 0 km/h
625 03-12-2003 04:18:01 2.1 C 4.92 g/m*3 2.1 C 0 km/h
Sensor: Nr:Datum:Temp:Abs-Feuchte:Windchill:Wind:
Aussen-T/F 626 03-12-2003 04:30:01 1.9 C 4.91 g/m*3 1.9 C 0 km/h
627 03-12-2003 04:41:01 1.7 C 4.85 g/m*3 1.7 C 0 km/h
628 03-12-2003 04:53:01 1.6 C 4.81 g/m*3 1.6 C 0 km/h
629 03-12-2003 05:05:00 1.6 C 4.81 g/m*3 1.6 C 0 km/h
630 03-12-2003 05:17:00 1.7 C 4.9 g/m*3 1.7 C 0 km/h
631 03-12-2003 05:29:00 1.7 C 4.9 g/m*3 1.7 C 0 km/h
632 03-12-2003 05:41:01 1.6 C 4.87 g/m*3 1.6 C 0 km/h
633 03-12-2003 05:53:01 1.5 C 4.78 g/m*3 1.5 C 0 km/h
634 03-12-2003 06:05:00 1.6 C 4.81 g/m*3 1.6 C 0 km/h
635 03-12-2003 06:17:00 1.5 C 4.78 g/m*3 1.5 C 0 km/h
636 03-12-2003 06:29:00 1.4 C 4.75 g/m*3 1.4 C 0 km/h
637 03-12-2003 06:41:00 1.5 C 4.83 g/m*3 1.5 C 0 km/h
638 03-12-2003 06:53:00 1.3 C 4.77 g/m*3 1.3 C 0 km/h
639 03-12-2003 07:06:00 1.4 C 4.8 g/m*3 1.4 C 0 km/h
640 03-12-2003 07:18:01 1.3 C 4.77 g/m*3 1.3 C 0 km/h
641 03-12-2003 07:30:01 1.2 C 4.74 g/m*3 1.2 C 0 km/h
642 03-12-2003 07:41:00 1.2 C 4.74 g/m*3 1.2 C 0 km/h
643 03-12-2003 07:53:01 1.2 C 4.74 g/m*3 1.2 C 0 km/h
644 03-12-2003 08:05:00 1.3 C 4.77 g/m*3 1.3 C 0 km/h
645 03-12-2003 08:17:00 1.5 C 4.89 g/m*3 1.5 C 0 km/h
646 03-12-2003 08:29:00 1.8 C 4.99 g/m*3 1.8 C 0 km/h
647 03-12-2003 08:41:01 1.9 C 5.08 g/m*3 1.9 C 0 km/h
648 03-12-2003 08:53:01 2.1 C 5.09 g/m*3 2.1 C 0 km/h
649 03-12-2003 09:05:00 2.2 C 5.13 g/m*3 2.2 C 0 km/h
650 03-12-2003 09:17:00 2.3 C 5.22 g/m*3 2.3 C 0 km/h
Sensor: Nr:Datum:Temp:Abs-Feuchte:Windchill:Wind:
Aussen-T/F 651 03-12-2003 09:29:00 2.5 C 5.29 g/m*3 2.5 C 0 km/h
652 03-12-2003 09:41:00 2.5 C 5.29 g/m*3 2.5 C 0 km/h
653 03-12-2003 09:53:00 2.7 C 5.36 g/m*3 2.7 C 0 km/h
654 03-12-2003 10:06:00 2.7 C 5.36 g/m*3 2.7 C 0 km/h
655 03-12-2003 10:18:01 2.9 C 5.43 g/m*3 2.9 C 0 km/h
656 03-12-2003 10:30:01 3 C 5.47 g/m*3 3 C 0 km/h
657 03-12-2003 10:41:01 2.9 C 5.43 g/m*3 2.9 C 0 km/h
658 03-12-2003 10:53:01 3 C 5.41 g/m*3 3 C 0 km/h
659 03-12-2003 11:05:00 3.3 C 5.52 g/m*3 3.3 C 0 km/h
660 03-12-2003 11:17:00 3.6 C 5.63 g/m*3 3.6 C 0 km/h
661 03-12-2003 11:29:00 3.9 C 5.75 g/m*3 3.9 C 0 km/h
662 03-12-2003 11:41:00 4.1 C 5.7 g/m*3 4.1 C 0 km/h
663 03-12-2003 11:53:00 4.2 C 5.73 g/m*3 4.2 C 0 km/h
664 03-12-2003 12:05:00 4.3 C 5.77 g/m*3 4.3 C 0 km/h
665 03-12-2003 12:17:00 4.6 C 5.82 g/m*3 4.6 C 0 km/h
666 03-12-2003 12:29:00 4.6 C 5.69 g/m*3 4.6 C 0 km/h
667 03-12-2003 12:41:00 4.7 C 5.66 g/m*3 4.7 C 0 km/h
668 03-12-2003 12:53:00 4.9 C 5.67 g/m*3 4.9 C 0 km/h
669 03-12-2003 13:06:01 5 C 5.64 g/m*3 5 C 0 km/h
670 03-12-2003 13:18:01 5.1 C 5.68 g/m*3 5.1 C 0 km/h
671 03-12-2003 13:30:01 5.2 C 5.65 g/m*3 5.2 C 0 km/h
672 03-12-2003 13:41:00 5.2 C 5.65 g/m*3 5.2 C 0 km/h
673 03-12-2003 13:53:01 5.1 C 5.61 g/m*3 5.1 C 0 km/h
674 03-12-2003 14:05:00 5.3 C 5.68 g/m*3 5.3 C 0 km/h
675 03-12-2003 14:17:00 5.4 C 5.79 g/m*3 5.4 C 0 km/h
Sensor: Nr:Datum:Temp:Abs-Feuchte:Windchill:Wind:
Aussen-T/F 676 03-12-2003 14:29:00 5.4 C 5.79 g/m*3 5.4 C 0 km/h
677 03-12-2003 14:41:01 5.4 C 5.79 g/m*3 5.4 C 0 km/h
678 03-12-2003 14:53:01 5.4 C 5.79 g/m*3 5.4 C 0 km/h
679 03-12-2003 15:05:00 5.2 C 5.71 g/m*3 5.2 C 0 km/h
680 03-12-2003 15:17:00 5.1 C 5.68 g/m*3 5.1 C 0 km/h
681 03-12-2003 15:29:00 5 C 5.64 g/m*3 5 C 0 km/h
682 03-12-2003 15:41:01 4.8 C 5.63 g/m*3 4.8 C 0 km/h
683 03-12-2003 15:53:01 4.6 C 5.62 g/m*3 4.6 C 0 km/h
684 03-12-2003 16:05:00 4.5 C 5.59 g/m*3 4.5 C 0 km/h
685 03-12-2003 16:17:00 4.4 C 5.55 g/m*3 4.4 C 0 km/h
686 03-12-2003 16:29:00 4.1 C 5.5 g/m*3 4.1 C 0 km/h
687 03-12-2003 16:41:00 3.9 C 5.49 g/m*3 3.9 C 0 km/h
688 03-12-2003 16:53:00 3.8 C 5.46 g/m*3 3.8 C 0 km/h
689 03-12-2003 17:06:01 3.6 C 5.39 g/m*3 3.6 C 0 km/h
690 03-12-2003 17:18:01 3.5 C 5.35 g/m*3 3.5 C 0 km/h
691 03-12-2003 17:30:01 3.5 C 5.41 g/m*3 3.5 C 0 km/h
692 03-12-2003 17:41:01 3.3 C 5.34 g/m*3 3.3 C 0 km/h
693 03-12-2003 17:53:01 3.4 C 5.37 g/m*3 3.4 C 0 km/h
694 03-12-2003 18:05:00 3.4 C 5.37 g/m*3 3.4 C 0 km/h
695 03-12-2003 18:17:00 3.3 C 5.4 g/m*3 3.3 C 0 km/h
696 03-12-2003 18:29:00 3.2 C 5.3 g/m*3 3.2 C 0 km/h
697 03-12-2003 18:41:00 3 C 5.23 g/m*3 3 C 0 km/h
698 03-12-2003 18:53:00 2.9 C 5.26 g/m*3 2.9 C 0 km/h
699 03-12-2003 19:06:01 3 C 5.29 g/m*3 3 C 0 km/h
700 03-12-2003 19:18:01 3.1 C 5.33 g/m*3 3.1 C 0 km/h
Sensor: Nr:Datum:Temp:Abs-Feuchte:Windchill:Wind:
Aussen-T/F 701 03-12-2003 19:30:01 3.2 C 5.36 g/m*3 3.2 C 0 km/h
702 03-12-2003 19:41:01 3.2 C 5.36 g/m*3 3.2 C 0 km/h
703 03-12-2003 19:53:01 3.2 C 5.36 g/m*3 3.2 C 0 km/h
704 03-12-2003 20:05:00 3.2 C 5.36 g/m*3 3.2 C 0 km/h
705 03-12-2003 20:17:00 3.3 C 5.46 g/m*3 3.3 C 0 km/h
706 03-12-2003 20:29:00 3.3 C 5.46 g/m*3 3.3 C 0 km/h
707 03-12-2003 20:41:00 3.2 C 5.42 g/m*3 3.2 C 0 km/h
708 03-12-2003 20:53:00 3.1 C 5.33 g/m*3 3.1 C 0 km/h
709 03-12-2003 21:06:01 3 C 5.29 g/m*3 3 C 0 km/h
710 03-12-2003 21:18:01 3.1 C 5.39 g/m*3 3.1 C 0 km/h
711 03-12-2003 21:30:01 3.2 C 5.42 g/m*3 3.2 C 0 km/h
712 03-12-2003 21:41:01 3.3 C 5.46 g/m*3 3.3 C 0 km/h
713 03-12-2003 21:53:01 3.3 C 5.46 g/m*3 3.3 C 0 km/h
714 03-12-2003 22:05:00 3.4 C 5.5 g/m*3 3.4 C 0 km/h
715 03-12-2003 22:17:00 3.5 C 5.53 g/m*3 3.5 C 0 km/h
716 03-12-2003 22:29:00 3.5 C 5.53 g/m*3 3.5 C 0 km/h
717 03-12-2003 22:41:00 3.5 C 5.53 g/m*3 3.5 C 0 km/h
718 03-12-2003 22:53:00 3.5 C 5.53 g/m*3 3.5 C 0 km/h
719 03-12-2003 23:06:01 3.7 C 5.67 g/m*3 3.7 C 0 km/h
720 03-12-2003 23:17:01 3.8 C 5.71 g/m*3 3.8 C 0 km/h
721 03-12-2003 23:18:01 3.8 C 5.71 g/m*3 3.8 C 0 km/h
722 03-12-2003 23:29:01 3.9 C 5.75 g/m*3 3.9 C 0 km/h
723 03-12-2003 23:41:01 3.9 C 5.75 g/m*3 3.9 C 0 km/h
724 03-12-2003 23:53:01 4 C 5.72 g/m*3 4 C 0 km/h
725 04-12-2003 00:05:00 4 C 5.72 g/m*3 4 C 0 km/h
Sensor: Nr:Datum:Temp:Abs-Feuchte:Windchill:Wind:
Aussen-T/F 726 04-12-2003 00:17:00 4.1 C 5.76 g/m*3 4.1 C 0 km/h
727 04-12-2003 00:29:00 4.2 C 5.8 g/m*3 4.2 C 0 km/h
728 04-12-2003 00:41:00 4.3 C 5.84 g/m*3 4.3 C 0 km/h
729 04-12-2003 00:53:00 4.2 C 5.8 g/m*3 4.2 C 0 km/h
730 04-12-2003 01:06:01 4.2 C 5.8 g/m*3 4.2 C 0 km/h
731 04-12-2003 01:18:01 4.2 C 5.8 g/m*3 4.2 C 0 km/h
732 04-12-2003 01:30:01 4.2 C 5.8 g/m*3 4.2 C 0 km/h
733 04-12-2003 01:41:01 4.3 C 5.84 g/m*3 4.3 C 0 km/h
734 04-12-2003 01:53:01 4.3 C 5.84 g/m*3 4.3 C 0 km/h
735 04-12-2003 02:05:00 4.3 C 5.84 g/m*3 4.3 C 0 km/h
736 04-12-2003 02:17:00 4.3 C 5.84 g/m*3 4.3 C 0 km/h
737 04-12-2003 02:29:00 4.3 C 5.84 g/m*3 4.3 C 0 km/h
738 04-12-2003 02:41:01 4.3 C 5.84 g/m*3 4.3 C 0 km/h
739 04-12-2003 02:53:01 4.3 C 5.84 g/m*3 4.3 C 0 km/h
740 04-12-2003 03:05:00 4.3 C 5.84 g/m*3 4.3 C 0 km/h
741 04-12-2003 03:17:00 4.3 C 5.84 g/m*3 4.3 C 0 km/h
742 04-12-2003 03:29:00 4.3 C 5.84 g/m*3 4.3 C 0 km/h
743 04-12-2003 03:41:00 4.3 C 5.77 g/m*3 4.3 C 0 km/h
744 04-12-2003 03:53:00 4.3 C 5.77 g/m*3 4.3 C 0 km/h
745 04-12-2003 04:06:00 4.3 C 5.77 g/m*3 4.3 C 0 km/h
746 04-12-2003 04:18:01 4.2 C 5.73 g/m*3 4.2 C 0 km/h
747 04-12-2003 04:30:01 4.3 C 5.71 g/m*3 4.3 C 0 km/h
748 04-12-2003 04:41:01 4.3 C 5.71 g/m*3 4.3 C 0 km/h
749 04-12-2003 04:53:01 4.2 C 5.61 g/m*3 4.2 C 0 km/h
750 04-12-2003 05:05:00 4.1 C 5.57 g/m*3 4.1 C 0 km/h
Sensor: Nr:Datum:Temp:Abs-Feuchte:Windchill:Wind:
Aussen-T/F 751 04-12-2003 05:17:00 4.1 C 5.57 g/m*3 4.1 C 0 km/h
752 04-12-2003 05:29:00 4 C 5.47 g/m*3 4 C 0 km/h
753 04-12-2003 05:41:00 4 C 5.47 g/m*3 4 C 0 km/h
754 04-12-2003 05:53:01 3.9 C 5.43 g/m*3 3.9 C 0 km/h
755 04-12-2003 06:05:00 3.9 C 5.37 g/m*3 3.9 C 0 km/h
756 04-12-2003 06:17:00 3.9 C 5.31 g/m*3 3.9 C 0 km/h
757 04-12-2003 06:29:00 3.9 C 5.31 g/m*3 3.9 C 0 km/h
758 04-12-2003 06:41:00 3.9 C 5.31 g/m*3 3.9 C 0 km/h
759 04-12-2003 06:53:00 4 C 5.28 g/m*3 4 C 0 km/h
760 04-12-2003 07:06:00 4 C 5.28 g/m*3 4 C 0 km/h
761 04-12-2003 07:18:01 3.9 C 5.24 g/m*3 3.9 C 0 km/h
762 04-12-2003 07:30:01 3.9 C 5.31 g/m*3 3.9 C 0 km/h
763 04-12-2003 07:41:01 3.9 C 5.24 g/m*3 3.9 C 0 km/h
764 04-12-2003 07:53:01 3.8 C 5.21 g/m*3 3.8 C 0 km/h
765 04-12-2003 08:05:00 3.9 C 5.31 g/m*3 3.9 C 0 km/h
766 04-12-2003 08:17:00 3.9 C 5.31 g/m*3 3.9 C 0 km/h
767 04-12-2003 08:29:00 3.9 C 5.31 g/m*3 3.9 C 0 km/h
768 04-12-2003 08:41:00 3.9 C 5.24 g/m*3 3.9 C 0 km/h
769 04-12-2003 08:53:00 4 C 5.28 g/m*3 4 C 0 km/h
770 04-12-2003 09:06:00 4.1 C 5.25 g/m*3 4.1 C 0 km/h
771 04-12-2003 09:17:01 4.1 C 5.25 g/m*3 4.1 C 0 km/h
772 04-12-2003 09:18:00 4.1 C 5.25 g/m*3 4.1 C 0 km/h
773 04-12-2003 09:29:01 4.1 C 5.18 g/m*3 4.1 C 0 km/h
774 04-12-2003 09:41:01 4.2 C 5.22 g/m*3 4.2 C 0 km/h
775 04-12-2003 09:53:01 4.2 C 5.22 g/m*3 4.2 C 0 km/h
Sensor: Nr:Datum:Temp:Abs-Feuchte:Windchill:Wind:
Aussen-T/F 776 04-12-2003 10:05:00 4.2 C 5.22 g/m*3 4.2 C 0 km/h
777 04-12-2003 10:17:00 4.3 C 5.19 g/m*3 4.3 C 0 km/h
778 04-12-2003 10:29:00 4.3 C 5.19 g/m*3 4.3 C 0 km/h
779 04-12-2003 10:41:00 4.4 C 5.22 g/m*3 4.4 C 0 km/h
780 04-12-2003 10:53:00 4.6 C 5.29 g/m*3 4.6 C 0 km/h
781 04-12-2003 10:54:01 4.6 C 5.29 g/m*3 4.6 C 0 km/h
782 04-12-2003 11:06:01 4.6 C 5.29 g/m*3 4.6 C 0 km/h
783 04-12-2003 11:18:01 4.7 C 5.26 g/m*3 4.7 C 0 km/h
784 04-12-2003 11:30:01 4.8 C 5.3 g/m*3 4.8 C 0 km/h
785 04-12-2003 11:41:00 5 C 5.3 g/m*3 5 C 0 km/h
786 04-12-2003 11:53:00 5.1 C 5.27 g/m*3 5.1 C 0 km/h
787 04-12-2003 12:05:00 5.3 C 5.34 g/m*3 5.3 C 0 km/h
788 04-12-2003 12:17:00 5.3 C 5.27 g/m*3 5.3 C 0 km/h
789 04-12-2003 12:29:00 5.3 C 5.27 g/m*3 5.3 C 0 km/h
790 04-12-2003 12:41:00 5.3 C 5.27 g/m*3 5.3 C 0 km/h
791 04-12-2003 12:53:00 5.4 C 5.37 g/m*3 5.4 C 0 km/h
792 04-12-2003 13:06:00 5.5 C 5.34 g/m*3 5.5 C 0 km/h
793 04-12-2003 13:18:00 5.6 C 5.37 g/m*3 5.6 C 0 km/h
794 04-12-2003 13:30:01 5.7 C 5.41 g/m*3 5.7 C 0 km/h
795 04-12-2003 13:41:00 5.7 C 5.34 g/m*3 5.7 C 0 km/h
796 04-12-2003 13:53:01 5.7 C 5.34 g/m*3 5.7 C 0 km/h
797 04-12-2003 14:05:00 5.7 C 5.34 g/m*3 5.7 C 0 km/h
798 04-12-2003 14:17:00 5.9 C 5.48 g/m*3 5.9 C 0 km/h
799 04-12-2003 14:29:00 5.9 C 5.41 g/m*3 5.9 C 0 km/h
800 04-12-2003 14:41:00 5.9 C 5.41 g/m*3 5.9 C 0 km/h
Sensor: Nr:Datum:Temp:Abs-Feuchte:Windchill:Wind:
Aussen-T/F 801 04-12-2003 14:53:00 5.9 C 5.41 g/m*3 5.9 C 0 km/h
802 04-12-2003 15:06:00 5.8 C 5.3 g/m*3 5.8 C 0 km/h
803 04-12-2003 15:18:01 5.9 C 5.34 g/m*3 5.9 C 0 km/h
804 04-12-2003 15:30:01 5.8 C 5.37 g/m*3 5.8 C 0 km/h
805 04-12-2003 15:41:00 5.8 C 5.37 g/m*3 5.8 C 0 km/h
806 04-12-2003 15:53:00 5.8 C 5.37 g/m*3 5.8 C 0 km/h
807 04-12-2003 16:05:00 5.7 C 5.27 g/m*3 5.7 C 0 km/h
808 04-12-2003 16:17:00 5.7 C 5.27 g/m*3 5.7 C 0 km/h
809 04-12-2003 16:29:00 5.7 C 5.34 g/m*3 5.7 C 0 km/h
810 04-12-2003 16:41:00 5.7 C 5.34 g/m*3 5.7 C 0 km/h
811 04-12-2003 16:53:00 5.7 C 5.34 g/m*3 5.7 C 0 km/h
812 04-12-2003 16:54:01 5.7 C 5.34 g/m*3 5.7 C 0 km/h
813 04-12-2003 17:06:01 5.7 C 5.34 g/m*3 5.7 C 0 km/h
814 04-12-2003 17:18:01 5.7 C 5.34 g/m*3 5.7 C 0 km/h
815 04-12-2003 17:30:01 5.7 C 5.34 g/m*3 5.7 C 0 km/h
816 04-12-2003 17:41:00 5.7 C 5.34 g/m*3 5.7 C 0 km/h
817 04-12-2003 17:53:01 5.7 C 5.34 g/m*3 5.7 C 0 km/h
818 04-12-2003 18:05:00 5.7 C 5.34 g/m*3 5.7 C 0 km/h
819 04-12-2003 18:17:00 5.7 C 5.34 g/m*3 5.7 C 0 km/h
820 04-12-2003 18:29:01 5.7 C 5.34 g/m*3 5.7 C 0 km/h
821 04-12-2003 18:41:00 5.8 C 5.37 g/m*3 5.8 C 0 km/h
822 04-12-2003 18:53:00 5.7 C 5.41 g/m*3 5.7 C 0 km/h
823 04-12-2003 19:05:01 5.7 C 5.41 g/m*3 5.7 C 0 km/h
824 04-12-2003 19:17:01 5.7 C 5.41 g/m*3 5.7 C 0 km/h
825 04-12-2003 19:29:01 5.7 C 5.41 g/m*3 5.7 C 0 km/h
Sensor: Nr:Datum:Temp:Abs-Feuchte:Windchill:Wind:
Aussen-T/F 826 04-12-2003 19:41:01 5.7 C 5.48 g/m*3 5.7 C 0 km/h
827 04-12-2003 19:53:01 5.7 C 5.34 g/m*3 5.7 C 0 km/h
828 04-12-2003 20:06:00 5.8 C 5.37 g/m*3 5.8 C 0 km/h
829 04-12-2003 20:18:00 5.8 C 5.37 g/m*3 5.8 C 0 km/h
830 04-12-2003 20:30:00 5.8 C 5.3 g/m*3 5.8 C 0 km/h
831 04-12-2003 20:41:00 5.8 C 5.37 g/m*3 5.8 C 0 km/h
832 04-12-2003 20:53:00 5.7 C 5.34 g/m*3 5.7 C 0 km/h
833 04-12-2003 21:05:01 5.7 C 5.41 g/m*3 5.7 C 0 km/h
834 04-12-2003 21:17:01 5.7 C 5.41 g/m*3 5.7 C 0 km/h
835 04-12-2003 21:29:01 5.6 C 5.44 g/m*3 5.6 C 0 km/h
836 04-12-2003 21:41:00 5.7 C 5.34 g/m*3 5.7 C 0 km/h
837 04-12-2003 21:53:00 5.7 C 5.27 g/m*3 5.7 C 0 km/h
838 04-12-2003 22:06:00 5.6 C 5.3 g/m*3 5.6 C 0 km/h
839 04-12-2003 22:18:00 5.5 C 5.34 g/m*3 5.5 C 0 km/h
840 04-12-2003 22:30:01 5.5 C 5.34 g/m*3 5.5 C 0 km/h
841 04-12-2003 22:41:01 5.4 C 5.16 g/m*3 5.4 C 0 km/h
842 04-12-2003 22:53:01 5.4 C 5.23 g/m*3 5.4 C 0 km/h
843 04-12-2003 23:05:00 5.4 C 5.3 g/m*3 5.4 C 0 km/h
844 04-12-2003 23:17:00 5.3 C 5.27 g/m*3 5.3 C 0 km/h
845 04-12-2003 23:17:01 5.3 C 5.27 g/m*3 5.3 C 0 km/h
846 04-12-2003 23:29:01 5.4 C 5.3 g/m*3 5.4 C 0 km/h
847 04-12-2003 23:41:01 5.4 C 5.16 g/m*3 5.4 C 0 km/h
848 04-12-2003 23:53:01 5.4 C 5.09 g/m*3 5.4 C 0 km/h
849 05-12-2003 00:05:01 5.4 C 5.09 g/m*3 5.4 C 0 km/h
850 05-12-2003 00:17:01 5.4 C 5.09 g/m*3 5.4 C 0 km/h
Sensor: Nr:Datum:Temp:Abs-Feuchte:Windchill:Wind:
Aussen-T/F 851 05-12-2003 00:29:01 5.4 C 5.09 g/m*3 5.4 C 0 km/h
852 05-12-2003 00:41:00 5.4 C 5.09 g/m*3 5.4 C 0 km/h
853 05-12-2003 00:53:01 5.4 C 5.09 g/m*3 5.4 C 0 km/h
854 05-12-2003 01:05:00 5.3 C 5.13 g/m*3 5.3 C 0 km/h
855 05-12-2003 01:17:00 5.3 C 5.2 g/m*3 5.3 C 0 km/h
856 05-12-2003 01:29:00 5.3 C 5.2 g/m*3 5.3 C 0 km/h
857 05-12-2003 01:41:01 5.3 C 5.2 g/m*3 5.3 C 0 km/h
858 05-12-2003 01:53:01 5.2 C 5.16 g/m*3 5.2 C 0 km/h
859 05-12-2003 02:05:00 5.2 C 5.16 g/m*3 5.2 C 0 km/h
860 05-12-2003 02:17:00 5.2 C 5.23 g/m*3 5.2 C 0 km/h
861 05-12-2003 02:29:00 5.2 C 5.16 g/m*3 5.2 C 0 km/h
862 05-12-2003 02:41:01 5.2 C 5.16 g/m*3 5.2 C 0 km/h
863 05-12-2003 02:53:01 5.2 C 5.16 g/m*3 5.2 C 0 km/h
864 05-12-2003 03:05:00 5.2 C 5.16 g/m*3 5.2 C 0 km/h
865 05-12-2003 03:17:00 5.2 C 5.16 g/m*3 5.2 C 0 km/h
866 05-12-2003 03:29:00 5.2 C 5.16 g/m*3 5.2 C 0 km/h
867 05-12-2003 03:41:00 5.2 C 5.23 g/m*3 5.2 C 0 km/h
868 05-12-2003 03:53:00 5.2 C 5.16 g/m*3 5.2 C 0 km/h
869 05-12-2003 04:06:01 5.2 C 5.16 g/m*3 5.2 C 0 km/h
870 05-12-2003 04:18:01 5.2 C 5.23 g/m*3 5.2 C 0 km/h
871 05-12-2003 04:30:01 5.2 C 5.23 g/m*3 5.2 C 0 km/h
872 05-12-2003 04:41:01 5.2 C 5.23 g/m*3 5.2 C 0 km/h
873 05-12-2003 04:53:01 5.2 C 5.23 g/m*3 5.2 C 0 km/h
874 05-12-2003 05:05:00 5.2 C 5.23 g/m*3 5.2 C 0 km/h
875 05-12-2003 05:17:00 5.2 C 5.23 g/m*3 5.2 C 0 km/h
Sensor: Nr:Datum:Temp:Abs-Feuchte:Windchill:Wind:
Aussen-T/F 876 05-12-2003 05:29:00 5.2 C 5.16 g/m*3 5.2 C 0 km/h
877 05-12-2003 05:41:00 5.2 C 5.16 g/m*3 5.2 C 0 km/h
878 05-12-2003 05:53:00 5.2 C 5.23 g/m*3 5.2 C 0 km/h
879 05-12-2003 06:06:01 5.2 C 5.23 g/m*3 5.2 C 0 km/h
880 05-12-2003 06:18:01 5.2 C 5.23 g/m*3 5.2 C 0 km/h
881 05-12-2003 06:30:01 5.2 C 5.23 g/m*3 5.2 C 0 km/h
882 05-12-2003 06:41:01 5.2 C 5.23 g/m*3 5.2 C 0 km/h
883 05-12-2003 06:53:01 5.2 C 5.16 g/m*3 5.2 C 0 km/h
884 05-12-2003 07:05:00 5.3 C 4.99 g/m*3 5.3 C 0 km/h
885 05-12-2003 07:17:00 5.3 C 4.92 g/m*3 5.3 C 0 km/h
886 05-12-2003 07:29:00 5.2 C 4.96 g/m*3 5.2 C 0 km/h
887 05-12-2003 07:41:00 5.2 C 5.03 g/m*3 5.2 C 0 km/h
888 05-12-2003 07:53:00 5.2 C 4.96 g/m*3 5.2 C 0 km/h
889 05-12-2003 08:06:00 5.2 C 5.03 g/m*3 5.2 C 0 km/h
890 05-12-2003 08:18:01 5.2 C 5.03 g/m*3 5.2 C 0 km/h
891 05-12-2003 08:30:01 5.2 C 5.03 g/m*3 5.2 C 0 km/h
892 05-12-2003 08:41:00 5.2 C 5.1 g/m*3 5.2 C 0 km/h
893 05-12-2003 08:53:00 5.2 C 5.1 g/m*3 5.2 C 0 km/h
894 05-12-2003 09:05:00 5.3 C 5.13 g/m*3 5.3 C 0 km/h
895 05-12-2003 09:17:00 5.4 C 5.09 g/m*3 5.4 C 0 km/h
896 05-12-2003 09:29:00 5.4 C 5.09 g/m*3 5.4 C 0 km/h
897 05-12-2003 09:41:00 5.5 C 5.06 g/m*3 5.5 C 0 km/h
898 05-12-2003 09:53:00 5.6 C 5.09 g/m*3 5.6 C 0 km/h
899 05-12-2003 10:06:00 5.6 C 5.02 g/m*3 5.6 C 0 km/h
900 05-12-2003 10:18:01 5.7 C 4.98 g/m*3 5.7 C 0 km/h
Sensor: Nr:Datum:Temp:Abs-Feuchte:Windchill:Wind:
Aussen-T/F 901 05-12-2003 10:30:01 5.7 C 4.98 g/m*3 5.7 C 0 km/h
902 05-12-2003 10:41:00 5.8 C 5.01 g/m*3 5.8 C 0 km/h
903 05-12-2003 10:53:01 6 C 4.94 g/m*3 6 C 0 km/h
904 05-12-2003 11:05:00 6.1 C 4.97 g/m*3 6.1 C 0 km/h
905 05-12-2003 11:17:00 6.2 C 4.93 g/m*3 6.2 C 0 km/h
906 05-12-2003 11:29:00 6.1 C 4.97 g/m*3 6.1 C 0 km/h
907 05-12-2003 11:41:00 6.1 C 4.89 g/m*3 6.1 C 0 km/h
908 05-12-2003 11:53:01 6.1 C 4.89 g/m*3 6.1 C 0 km/h
909 05-12-2003 12:05:00 6.2 C 4.93 g/m*3 6.2 C 0 km/h
910 05-12-2003 12:17:00 6.2 C 5 g/m*3 6.2 C 0 km/h
911 05-12-2003 12:29:00 6.2 C 5 g/m*3 6.2 C 0 km/h
912 05-12-2003 12:41:00 6.2 C 5 g/m*3 6.2 C 0 km/h
913 05-12-2003 12:53:00 6.2 C 5 g/m*3 6.2 C 0 km/h
914 05-12-2003 13:05:00 6.3 C 5.03 g/m*3 6.3 C 0 km/h
915 05-12-2003 13:17:00 6.2 C 5 g/m*3 6.2 C 0 km/h
916 05-12-2003 13:29:00 6.2 C 5 g/m*3 6.2 C 0 km/h
917 05-12-2003 13:41:00 6.1 C 4.97 g/m*3 6.1 C 0 km/h
918 05-12-2003 13:53:00 6.1 C 4.97 g/m*3 6.1 C 0 km/h
919 05-12-2003 14:05:00 6 C 4.94 g/m*3 6 C 0 km/h
920 05-12-2003 14:17:00 6 C 5.01 g/m*3 6 C 0 km/h
921 05-12-2003 14:29:00 6.1 C 5.04 g/m*3 6.1 C 0 km/h
922 05-12-2003 14:41:00 6 C 5.01 g/m*3 6 C 0 km/h
923 05-12-2003 14:53:00 6 C 5.01 g/m*3 6 C 0 km/h
924 05-12-2003 15:05:01 5.9 C 4.98 g/m*3 5.9 C 0 km/h
925 05-12-2003 15:17:01 5.9 C 5.05 g/m*3 5.9 C 0 km/h
Sensor: Nr:Datum:Temp:Abs-Feuchte:Windchill:Wind:
Aussen-T/F 926 05-12-2003 15:29:01 5.9 C 4.98 g/m*3 5.9 C 0 km/h
927 05-12-2003 15:41:00 6 C 5.01 g/m*3 6 C 0 km/h
928 05-12-2003 15:53:01 5.9 C 5.05 g/m*3 5.9 C 0 km/h
929 05-12-2003 16:05:00 5.8 C 5.01 g/m*3 5.8 C 0 km/h
930 05-12-2003 16:17:00 5.6 C 4.95 g/m*3 5.6 C 0 km/h
931 05-12-2003 16:29:00 5.6 C 4.95 g/m*3 5.6 C 0 km/h
932 05-12-2003 16:41:00 5.5 C 4.99 g/m*3 5.5 C 0 km/h
933 05-12-2003 16:41:01 5.5 C 4.99 g/m*3 5.5 C 0 km/h
934 05-12-2003 16:53:00 5.5 C 4.99 g/m*3 5.5 C 0 km/h
935 05-12-2003 17:05:00 5.5 C 4.99 g/m*3 5.5 C 0 km/h
936 05-12-2003 17:17:00 5.4 C 4.88 g/m*3 5.4 C 0 km/h
937 05-12-2003 17:29:01 5.4 C 4.95 g/m*3 5.4 C 0 km/h
938 05-12-2003 17:41:00 5.4 C 4.95 g/m*3 5.4 C 0 km/h
939 05-12-2003 17:53:00 5.4 C 4.88 g/m*3 5.4 C 0 km/h
940 05-12-2003 18:06:01 5.3 C 4.92 g/m*3 5.3 C 0 km/h
941 05-12-2003 18:18:01 5.3 C 4.92 g/m*3 5.3 C 0 km/h
942 05-12-2003 18:30:01 5.3 C 4.99 g/m*3 5.3 C 0 km/h
943 05-12-2003 18:41:01 5.2 C 4.89 g/m*3 5.2 C 0 km/h
944 05-12-2003 18:53:01 5.2 C 4.96 g/m*3 5.2 C 0 km/h
945 05-12-2003 19:05:00 5.2 C 4.96 g/m*3 5.2 C 0 km/h
946 05-12-2003 19:17:00 5.2 C 4.96 g/m*3 5.2 C 0 km/h
947 05-12-2003 19:29:00 5.1 C 4.92 g/m*3 5.1 C 0 km/h
948 05-12-2003 19:41:01 5.2 C 4.96 g/m*3 5.2 C 0 km/h
949 05-12-2003 19:53:01 5 C 4.89 g/m*3 5 C 0 km/h
950 05-12-2003 20:05:00 5.2 C 5.03 g/m*3 5.2 C 0 km/h
Sensor: Nr:Datum:Temp:Abs-Feuchte:Windchill:Wind:
Aussen-T/F 951 05-12-2003 20:17:00 5.2 C 5.03 g/m*3 5.2 C 0 km/h
952 05-12-2003 20:29:00 5 C 4.89 g/m*3 5 C 0 km/h
953 05-12-2003 20:41:00 5 C 4.96 g/m*3 5 C 0 km/h
954 05-12-2003 20:53:00 5 C 4.96 g/m*3 5 C 0 km/h
955 05-12-2003 21:06:01 5 C 4.96 g/m*3 5 C 0 km/h
956 05-12-2003 21:18:01 4.8 C 4.96 g/m*3 4.8 C 0 km/h
957 05-12-2003 21:30:01 4.8 C 4.96 g/m*3 4.8 C 0 km/h
958 05-12-2003 21:41:00 4.9 C 5 g/m*3 4.9 C 0 km/h
959 05-12-2003 21:53:00 4.8 C 4.96 g/m*3 4.8 C 0 km/h
960 05-12-2003 22:05:00 4.7 C 4.93 g/m*3 4.7 C 0 km/h
961 05-12-2003 22:05:01 4.7 C 4.93 g/m*3 4.7 C 0 km/h
962 05-12-2003 22:17:01 4.7 C 4.93 g/m*3 4.7 C 0 km/h
963 05-12-2003 22:29:01 4.6 C 4.9 g/m*3 4.6 C 0 km/h
964 05-12-2003 22:41:01 4.6 C 4.96 g/m*3 4.6 C 0 km/h
965 05-12-2003 22:53:01 4.5 C 4.93 g/m*3 4.5 C 0 km/h
966 05-12-2003 23:05:00 4.5 C 4.93 g/m*3 4.5 C 0 km/h
967 05-12-2003 23:17:00 4.4 C 4.9 g/m*3 4.4 C 0 km/h
968 05-12-2003 23:29:00 4.5 C 5 g/m*3 4.5 C 0 km/h
969 05-12-2003 23:41:00 4.5 C 5 g/m*3 4.5 C 0 km/h
970 05-12-2003 23:53:00 4.3 C 4.93 g/m*3 4.3 C 0 km/h
971 06-12-2003 00:06:01 4.3 C 4.93 g/m*3 4.3 C 0 km/h
972 06-12-2003 00:18:01 4.3 C 4.93 g/m*3 4.3 C 0 km/h
973 06-12-2003 00:30:01 4.3 C 4.93 g/m*3 4.3 C 0 km/h
974 06-12-2003 00:41:00 4.3 C 4.93 g/m*3 4.3 C 0 km/h
975 06-12-2003 00:53:00 4.2 C 4.9 g/m*3 4.2 C 0 km/h
Sensor: Nr:Datum:Temp:Abs-Feuchte:Windchill:Wind:
Aussen-T/F 976 06-12-2003 01:05:00 4.2 C 4.96 g/m*3 4.2 C 0 km/h
977 06-12-2003 01:17:00 4.2 C 4.96 g/m*3 4.2 C 0 km/h
978 06-12-2003 01:29:00 4.2 C 4.9 g/m*3 4.2 C 0 km/h
979 06-12-2003 01:41:01 4.1 C 4.86 g/m*3 4.1 C 0 km/h
980 06-12-2003 01:53:01 4.1 C 4.93 g/m*3 4.1 C 0 km/h
981 06-12-2003 02:05:00 4.1 C 4.93 g/m*3 4.1 C 0 km/h
982 06-12-2003 02:17:00 4.1 C 4.93 g/m*3 4.1 C 0 km/h
983 06-12-2003 02:29:00 4.1 C 4.99 g/m*3 4.1 C 0 km/h
984 06-12-2003 02:41:00 4 C 4.96 g/m*3 4 C 0 km/h
985 06-12-2003 02:53:00 4 C 4.96 g/m*3 4 C 0 km/h
986 06-12-2003 03:06:01 3.9 C 4.99 g/m*3 3.9 C 0 km/h
987 06-12-2003 03:18:01 3.9 C 4.99 g/m*3 3.9 C 0 km/h
988 06-12-2003 03:30:01 3.8 C 4.96 g/m*3 3.8 C 0 km/h
989 06-12-2003 03:41:01 3.6 C 5.01 g/m*3 3.6 C 0 km/h
990 06-12-2003 03:53:01 3.4 C 5.07 g/m*3 3.4 C 0 km/h
991 06-12-2003 04:05:00 3.4 C 5.13 g/m*3 3.4 C 0 km/h
992 06-12-2003 04:17:00 3.4 C 5.13 g/m*3 3.4 C 0 km/h
993 06-12-2003 04:29:00 3.4 C 5.13 g/m*3 3.4 C 0 km/h
994 06-12-2003 04:41:01 3.4 C 5.19 g/m*3 3.4 C 0 km/h
995 06-12-2003 04:53:01 3.4 C 5.13 g/m*3 3.4 C 0 km/h
996 06-12-2003 05:05:00 3.4 C 5.13 g/m*3 3.4 C 0 km/h
997 06-12-2003 05:17:00 3.5 C 5.1 g/m*3 3.5 C 0 km/h
998 06-12-2003 05:29:00 3.6 C 5.14 g/m*3 3.6 C 0 km/h
999 06-12-2003 05:41:00 3.5 C 5.1 g/m*3 3.5 C 0 km/h
1000 06-12-2003 05:53:00 3.4 C 5.07 g/m*3 3.4 C 0 km/h
Sensor: Nr:Datum:Temp:Abs-Feuchte:Windchill:Wind:
Aussen-T/F 1001 06-12-2003 06:06:01 3.4 C 5.13 g/m*3 3.4 C 0 km/h
1002 06-12-2003 06:18:01 3.4 C 5.13 g/m*3 3.4 C 0 km/h
1003 06-12-2003 06:30:01 3.4 C 5.19 g/m*3 3.4 C 0 km/h
1004 06-12-2003 06:41:01 3.4 C 5.19 g/m*3 3.4 C 0 km/h
1005 06-12-2003 06:53:01 3.4 C 5.25 g/m*3 3.4 C 0 km/h
1006 06-12-2003 07:05:00 3.4 C 5.25 g/m*3 3.4 C 0 km/h
1007 06-12-2003 07:17:00 3.5 C 5.35 g/m*3 3.5 C 0 km/h
1008 06-12-2003 07:29:00 3.4 C 5.31 g/m*3 3.4 C 0 km/h
1009 06-12-2003 07:41:00 3.4 C 5.31 g/m*3 3.4 C 0 km/h
1010 06-12-2003 07:53:00 3.5 C 5.41 g/m*3 3.5 C 0 km/h
1011 06-12-2003 08:06:01 3.5 C 5.41 g/m*3 3.5 C 0 km/h
1012 06-12-2003 08:18:01 3.5 C 5.47 g/m*3 3.5 C 0 km/h
1013 06-12-2003 08:30:01 3.6 C 5.51 g/m*3 3.6 C 0 km/h
1014 06-12-2003 08:41:00 3.6 C 5.51 g/m*3 3.6 C 0 km/h
1015 06-12-2003 08:53:01 3.6 C 5.51 g/m*3 3.6 C 0 km/h
1016 06-12-2003 09:05:00 3.7 C 5.55 g/m*3 3.7 C 0 km/h
1017 06-12-2003 09:17:00 3.7 C 5.55 g/m*3 3.7 C 0 km/h
1018 06-12-2003 09:29:00 3.8 C 5.58 g/m*3 3.8 C 0 km/h
1019 06-12-2003 09:41:00 3.9 C 5.68 g/m*3 3.9 C 0 km/h
1020 06-12-2003 09:53:00 4.1 C 5.7 g/m*3 4.1 C 0 km/h
1021 06-12-2003 10:06:00 4.2 C 5.73 g/m*3 4.2 C 0 km/h
1022 06-12-2003 10:18:00 4.4 C 5.81 g/m*3 4.4 C 0 km/h
1023 06-12-2003 10:30:01 4.5 C 5.92 g/m*3 4.5 C 0 km/h
1024 06-12-2003 10:41:01 4.9 C 6.08 g/m*3 4.9 C 0 km/h
1025 06-12-2003 10:53:01 5.1 C 6.09 g/m*3 5.1 C 0 km/h
Sensor: Nr:Datum:Temp:Abs-Feuchte:Windchill:Wind:
Aussen-T/F 1026 06-12-2003 11:05:00 5.2 C 6.13 g/m*3 5.2 C 0 km/h
1027 06-12-2003 11:17:00 5.4 C 6.14 g/m*3 5.4 C 0 km/h
1028 06-12-2003 11:29:00 5.7 C 6.12 g/m*3 5.7 C 0 km/h
1029 06-12-2003 11:41:00 5.9 C 5.84 g/m*3 5.9 C 0 km/h
1030 06-12-2003 11:53:01 5.9 C 5.77 g/m*3 5.9 C 0 km/h
1031 06-12-2003 12:05:00 6 C 5.66 g/m*3 6 C 0 km/h
1032 06-12-2003 12:17:00 6 C 5.59 g/m*3 6 C 0 km/h
1033 06-12-2003 12:29:00 6.3 C 5.48 g/m*3 6.3 C 0 km/h
1034 06-12-2003 12:41:01 6.2 C 5.22 g/m*3 6.2 C 0 km/h
1035 06-12-2003 12:53:01 6.1 C 5.19 g/m*3 6.1 C 0 km/h
1036 06-12-2003 13:05:00 6.2 C 5 g/m*3 6.2 C 0 km/h
1037 06-12-2003 13:06:00 6.2 C 5 g/m*3 6.2 C 0 km/h
1038 06-12-2003 13:17:01 6.1 C 4.89 g/m*3 6.1 C 0 km/h
1039 06-12-2003 13:29:01 6.1 C 4.82 g/m*3 6.1 C 0 km/h
1040 06-12-2003 13:41:01 6.1 C 4.82 g/m*3 6.1 C 0 km/h
1041 06-12-2003 13:53:01 6.1 C 4.82 g/m*3 6.1 C 0 km/h
1042 06-12-2003 14:05:00 5.1 C 4.65 g/m*3 5.1 C 0 km/h
1043 06-12-2003 14:17:01 5.4 C 4.88 g/m*3 5.4 C 0 km/h
1044 06-12-2003 14:29:01 5.9 C 4.69 g/m*3 5.9 C 0 km/h
1045 06-12-2003 14:41:00 6 C 4.57 g/m*3 6 C 0 km/h
1046 06-12-2003 14:53:00 5.9 C 4.54 g/m*3 5.9 C 0 km/h
1047 06-12-2003 15:06:01 5.7 C 4.41 g/m*3 5.7 C 0 km/h
1048 06-12-2003 15:18:01 5.2 C 3.99 g/m*3 5.2 C 0 km/h
1049 06-12-2003 15:30:01 5 C 3.87 g/m*3 5 C 0 km/h
1050 06-12-2003 15:41:00 4.9 C 3.71 g/m*3 4.9 C 0 km/h
Sensor: Nr:Datum:Temp:Abs-Feuchte:Windchill:Wind:
Aussen-T/F 1051 06-12-2003 15:53:00 4.7 C 3.46 g/m*3 4.7 C 0 km/h
1052 06-12-2003 16:05:01 4.4 C 3 g/m*3 4.4 C 0 km/h
1053 06-12-2003 16:17:01 4.1 C 3.01 g/m*3 4.1 C 0 km/h
1054 06-12-2003 16:29:01 3.8 C 2.95 g/m*3 3.8 C 0 km/h
1055 06-12-2003 16:41:00 3.4 C 2.99 g/m*3 3.4 C 0 km/h
1056 06-12-2003 16:53:00 3.1 C 2.81 g/m*3 3.1 C 0 km/h
1057 06-12-2003 17:06:01 2.7 C 2.68 g/m*3 2.7 C 0 km/h
1058 06-12-2003 17:18:01 2.4 C 2.57 g/m*3 2.4 C 0 km/h
1059 06-12-2003 17:30:01 2.2 C 2.48 g/m*3 2.2 C 0 km/h
1060 06-12-2003 17:41:01 2 C 2.5 g/m*3 2 C 0 km/h
1061 06-12-2003 17:53:01 1.8 C 2.52 g/m*3 1.8 C 0 km/h
1062 06-12-2003 18:05:00 1.6 C 2.54 g/m*3 1.6 C 0 km/h
1063 06-12-2003 18:17:00 1.2 C 2.63 g/m*3 1.2 C 0 km/h
1064 06-12-2003 18:29:00 1.1 C 2.61 g/m*3 1.1 C 0 km/h
1065 06-12-2003 18:41:01 1 C 2.6 g/m*3 1 C 0 km/h
1066 06-12-2003 18:53:01 0.8 C 2.61 g/m*3 0.8 C 0 km/h
1067 06-12-2003 19:05:00 0.5 C 2.61 g/m*3 0.5 C 0 km/h
1068 06-12-2003 19:17:00 0.3 C 2.67 g/m*3 0.3 C 0 km/h
1069 06-12-2003 19:29:00 0.2 C 2.8 g/m*3 0.2 C 0 km/h
1070 06-12-2003 19:41:00 0.2 C 2.7 g/m*3 0.2 C 0 km/h
1071 06-12-2003 19:53:00 0.2 C 2.65 g/m*3 0.2 C 0 km/h
1072 06-12-2003 20:06:01 0 C 2.66 g/m*3 0 C 0 km/h
1073 06-12-2003 20:18:01 -0.3 C 2.71 g/m*3 -0.3 C 0 km/h
1074 06-12-2003 20:30:01 -0.3 C 2.71 g/m*3 -0.3 C 0 km/h
1075 06-12-2003 20:41:21 -0.7 C 2.77 g/m*3 -0.7 C 0 km/h
Sensor: Nr:Datum:Temp:Abs-Feuchte:Windchill:Wind:
Aussen-T/F 1076 06-12-2003 20:53:21 -1 C 2.71 g/m*3 -1 C 0 km/h
1077 06-12-2003 21:05:00 -1.1 C 2.78 g/m*3 -1.1 C 0 km/h
1078 06-12-2003 21:17:00 -1.2 C 2.72 g/m*3 -1.2 C 0 km/h
1079 06-12-2003 21:29:00 -1.4 C 2.73 g/m*3 -1.4 C 0 km/h
1080 06-12-2003 21:41:00 -1.4 C 2.73 g/m*3 -1.4 C 0 km/h
1081 06-12-2003 21:53:00 -1.6 C 2.77 g/m*3 -1.6 C 0 km/h
1082 06-12-2003 22:05:00 -1.8 C 2.74 g/m*3 -1.8 C 0 km/h
1083 06-12-2003 22:17:00 -2 C 2.74 g/m*3 -2 C 0 km/h
1084 06-12-2003 22:29:00 -2.1 C 2.72 g/m*3 -2.1 C 0 km/h
1085 06-12-2003 22:41:01 -2.2 C 2.74 g/m*3 -2.2 C 0 km/h
1086 06-12-2003 22:53:01 -2.2 C 2.74 g/m*3 -2.2 C 0 km/h
1087 06-12-2003 23:05:00 -1.9 C 2.84 g/m*3 -1.9 C 0 km/h
1088 06-12-2003 23:17:00 -1.7 C 2.88 g/m*3 -1.7 C 0 km/h
1089 06-12-2003 23:29:00 -1.4 C 2.9 g/m*3 -1.4 C 0 km/h
1090 06-12-2003 23:41:00 -1.3 C 2.83 g/m*3 -1.3 C 0 km/h
1091 06-12-2003 23:53:00 -1.3 C 2.83 g/m*3 -1.3 C 0 km/h
1092 07-12-2003 00:06:01 -1.4 C 2.81 g/m*3 -1.4 C 0 km/h
1093 07-12-2003 00:17:01 -1.4 C 2.81 g/m*3 -1.4 C 0 km/h
1094 07-12-2003 00:18:01 -1.4 C 2.81 g/m*3 -1.4 C 0 km/h
1095 07-12-2003 00:29:01 -1.5 C 2.75 g/m*3 -1.5 C 0 km/h
1096 07-12-2003 00:41:01 -1.8 C 2.69 g/m*3 -1.8 C 0 km/h
1097 07-12-2003 00:53:01 -1.8 C 2.69 g/m*3 -1.8 C 0 km/h
1098 07-12-2003 01:05:00 -2 C 2.7 g/m*3 -2 C 0 km/h
1099 07-12-2003 01:17:00 -2.1 C 2.72 g/m*3 -2.1 C 0 km/h
1100 07-12-2003 01:29:00 -2.2 C 2.7 g/m*3 -2.2 C 0 km/h
Sensor: Nr:Datum:Temp:Abs-Feuchte:Windchill:Wind:
Aussen-T/F 1101 07-12-2003 01:41:00 -2.2 C 2.66 g/m*3 -2.2 C 0 km/h
1102 07-12-2003 01:53:00 -2.3 C 2.68 g/m*3 -2.3 C 0 km/h
1103 07-12-2003 02:06:01 -2.4 C 2.75 g/m*3 -2.4 C 0 km/h
1104 07-12-2003 02:18:01 -2.4 C 2.75 g/m*3 -2.4 C 0 km/h
1105 07-12-2003 02:30:01 -2.4 C 2.75 g/m*3 -2.4 C 0 km/h
1106 07-12-2003 02:41:01 -2.4 C 2.75 g/m*3 -2.4 C 0 km/h
1107 07-12-2003 02:53:01 -2.5 C 2.77 g/m*3 -2.5 C 0 km/h
1108 07-12-2003 03:05:00 -2.6 C 2.75 g/m*3 -2.6 C 0 km/h
1109 07-12-2003 03:17:00 -2.8 C 2.71 g/m*3 -2.8 C 0 km/h
1110 07-12-2003 03:29:00 -3 C 2.71 g/m*3 -3 C 0 km/h
1111 07-12-2003 03:41:01 -3 C 2.71 g/m*3 -3 C 0 km/h
1112 07-12-2003 03:53:01 -3.1 C 2.73 g/m*3 -3.1 C 0 km/h
1113 07-12-2003 04:05:00 -3.2 C 2.71 g/m*3 -3.2 C 0 km/h
1114 07-12-2003 04:17:00 -3.2 C 2.75 g/m*3 -3.2 C 0 km/h
1115 07-12-2003 04:29:00 -3.3 C 2.73 g/m*3 -3.3 C 0 km/h
1116 07-12-2003 04:41:00 -3.2 C 2.75 g/m*3 -3.2 C 0 km/h
1117 07-12-2003 04:53:00 -3.4 C 2.75 g/m*3 -3.4 C 0 km/h
1118 07-12-2003 05:06:00 -3.4 C 2.75 g/m*3 -3.4 C 0 km/h
1119 07-12-2003 05:18:00 -3.7 C 2.69 g/m*3 -3.7 C 0 km/h
1120 07-12-2003 05:30:01 -3.9 C 2.65 g/m*3 -3.9 C 0 km/h
1121 07-12-2003 05:41:01 -4 C 2.67 g/m*3 -4 C 0 km/h
1122 07-12-2003 05:53:01 -4.2 C 2.67 g/m*3 -4.2 C 0 km/h
1123 07-12-2003 06:05:00 -3.9 C 2.8 g/m*3 -3.9 C 0 km/h
1124 07-12-2003 06:17:00 -3.9 C 2.84 g/m*3 -3.9 C 0 km/h
1125 07-12-2003 06:29:00 -4.2 C 2.78 g/m*3 -4.2 C 0 km/h
Sensor: Nr:Datum:Temp:Abs-Feuchte:Windchill:Wind:
Aussen-T/F 1126 07-12-2003 06:41:01 -4.4 C 2.74 g/m*3 -4.4 C 0 km/h
1127 07-12-2003 06:53:00 -4.4 C 2.74 g/m*3 -4.4 C 0 km/h
1128 07-12-2003 06:53:01 -4.4 C 2.74 g/m*3 -4.4 C 0 km/h
1129 07-12-2003 07:05:00 -4.5 C 2.75 g/m*3 -4.5 C 0 km/h
1130 07-12-2003 07:17:00 -4.6 C 2.73 g/m*3 -4.6 C 0 km/h
1131 07-12-2003 07:29:00 -4.5 C 2.79 g/m*3 -4.5 C 0 km/h
1132 07-12-2003 07:41:00 -4.4 C 2.84 g/m*3 -4.4 C 0 km/h
1133 07-12-2003 07:53:00 -3.9 C 2.98 g/m*3 -3.9 C 0 km/h
1134 07-12-2003 08:06:00 -3.8 C 3.01 g/m*3 -3.8 C 0 km/h
1135 07-12-2003 08:18:01 -3.7 C 3.03 g/m*3 -3.7 C 0 km/h
1136 07-12-2003 08:30:01 -3.7 C 3.03 g/m*3 -3.7 C 0 km/h
1137 07-12-2003 08:41:01 -3.6 C 3.05 g/m*3 -3.6 C 0 km/h
1138 07-12-2003 08:53:01 -3.6 C 3.05 g/m*3 -3.6 C 0 km/h
1139 07-12-2003 09:05:00 -3.5 C 3.07 g/m*3 -3.5 C 0 km/h
1140 07-12-2003 09:17:00 -3.6 C 3.01 g/m*3 -3.6 C 0 km/h
1141 07-12-2003 09:29:00 -3.6 C 3.05 g/m*3 -3.6 C 0 km/h
1142 07-12-2003 09:41:00 -3.5 C 3.07 g/m*3 -3.5 C 0 km/h
1143 07-12-2003 09:53:00 -3.6 C 3.05 g/m*3 -3.6 C 0 km/h
1144 07-12-2003 10:06:00 -3.3 C 3.11 g/m*3 -3.3 C 0 km/h
1145 07-12-2003 10:18:01 -3 C 3.22 g/m*3 -3 C 0 km/h
1146 07-12-2003 10:30:01 -2.8 C 3.23 g/m*3 -2.8 C 0 km/h
1147 07-12-2003 10:41:01 -2.6 C 3.27 g/m*3 -2.6 C 0 km/h
1148 07-12-2003 10:53:01 -2.4 C 3.24 g/m*3 -2.4 C 0 km/h
1149 07-12-2003 11:05:00 -2.2 C 3.24 g/m*3 -2.2 C 0 km/h
1150 07-12-2003 11:17:00 -2.2 C 3.24 g/m*3 -2.2 C 0 km/h
Sensor: Nr:Datum:Temp:Abs-Feuchte:Windchill:Wind:
Aussen-T/F 1151 07-12-2003 11:29:00 -2.2 C 3.24 g/m*3 -2.2 C 0 km/h
1152 07-12-2003 11:41:01 -1.7 C 3.23 g/m*3 -1.7 C 0 km/h
1153 07-12-2003 11:53:01 -1.7 C 3.19 g/m*3 -1.7 C 0 km/h
1154 07-12-2003 12:06:00 -1.6 C 3.21 g/m*3 -1.6 C 0 km/h
1155 07-12-2003 12:18:01 -1.4 C 3.21 g/m*3 -1.4 C 0 km/h
1156 07-12-2003 12:30:01 -1.2 C 3.21 g/m*3 -1.2 C 0 km/h
1157 07-12-2003 12:41:00 -0.9 C 3.28 g/m*3 -0.9 C 0 km/h
1158 07-12-2003 12:53:00 -0.9 C 3.28 g/m*3 -0.9 C 0 km/h
1159 07-12-2003 13:05:36 -0.1 C 3.18 g/m*3 -0.1 C 0 km/h
1160 07-12-2003 13:17:36 -0.3 C 3.18 g/m*3 -0.3 C 0 km/h
1161 07-12-2003 13:29:36 -0.3 C 3.23 g/m*3 -0.3 C 0 km/h
1162 07-12-2003 13:41:00 -0.3 C 3.23 g/m*3 -0.3 C 0 km/h
1163 07-12-2003 13:53:00 0.1 C 3.22 g/m*3 0.1 C 0 km/h
1164 07-12-2003 14:06:00 0.1 C 3.17 g/m*3 0.1 C 0 km/h
1165 07-12-2003 14:18:00 0.1 C 3.17 g/m*3 0.1 C 0 km/h
1166 07-12-2003 14:30:01 0.1 C 3.17 g/m*3 0.1 C 0 km/h
1167 07-12-2003 14:41:00 0.1 C 3.17 g/m*3 0.1 C 0 km/h
1168 07-12-2003 14:53:01 0.2 C 3.09 g/m*3 0.2 C 0 km/h
1169 07-12-2003 15:05:00 0.4 C 2.99 g/m*3 0.4 C 0 km/h
1170 07-12-2003 15:17:00 0.4 C 2.99 g/m*3 0.4 C 0 km/h
1171 07-12-2003 15:29:00 0.7 C 2.85 g/m*3 0.7 C 0 km/h
1172 07-12-2003 15:41:00 0.1 C 2.93 g/m*3 0.1 C 0 km/h
1173 07-12-2003 15:53:00 -0.2 C 2.91 g/m*3 -0.2 C 0 km/h
1174 07-12-2003 16:05:38 -0.5 C 2.95 g/m*3 -0.5 C 0 km/h
1175 07-12-2003 16:17:38 -0.7 C 2.95 g/m*3 -0.7 C 0 km/h
Sensor: Nr:Datum:Temp:Abs-Feuchte:Windchill:Wind:
Aussen-T/F 1176 07-12-2003 16:30:00 -0.9 C 2.96 g/m*3 -0.9 C 0 km/h
1177 07-12-2003 16:41:00 -0.9 C 2.96 g/m*3 -0.9 C 0 km/h
1178 07-12-2003 16:53:00 -0.9 C 2.96 g/m*3 -0.9 C 0 km/h
1179 07-12-2003 17:05:00 -1.1 C 2.92 g/m*3 -1.1 C 0 km/h
1180 07-12-2003 17:17:00 -1.3 C 2.92 g/m*3 -1.3 C 0 km/h
1181 07-12-2003 17:29:00 -1.5 C 2.92 g/m*3 -1.5 C 0 km/h
1182 07-12-2003 17:41:00 -1.7 C 2.93 g/m*3 -1.7 C 0 km/h
1183 07-12-2003 17:53:00 -1.8 C 2.95 g/m*3 -1.8 C 0 km/h
1184 07-12-2003 18:06:01 -2 C 2.95 g/m*3 -2 C 0 km/h
1185 07-12-2003 18:18:01 -2 C 2.91 g/m*3 -2 C 0 km/h
1186 07-12-2003 18:30:01 -2 C 2.95 g/m*3 -2 C 0 km/h
1187 07-12-2003 18:41:01 -2.1 C 2.93 g/m*3 -2.1 C 0 km/h
1188 07-12-2003 18:53:01 -1.9 C 2.93 g/m*3 -1.9 C 0 km/h
1189 07-12-2003 19:05:00 -2.1 C 2.89 g/m*3 -2.1 C 0 km/h
1190 07-12-2003 19:17:00 -2.1 C 2.93 g/m*3 -2.1 C 0 km/h
1191 07-12-2003 19:29:00 -2.2 C 2.87 g/m*3 -2.2 C 0 km/h
1192 07-12-2003 19:41:01 -2.5 C 2.85 g/m*3 -2.5 C 0 km/h
1193 07-12-2003 19:53:01 -2.4 C 2.87 g/m*3 -2.4 C 0 km/h
1194 07-12-2003 20:05:00 -2.6 C 2.83 g/m*3 -2.6 C 0 km/h
1195 07-12-2003 20:17:00 -2.6 C 2.87 g/m*3 -2.6 C 0 km/h
1196 07-12-2003 20:29:00 -2.5 C 2.85 g/m*3 -2.5 C 0 km/h
1197 07-12-2003 20:41:01 -2.6 C 2.83 g/m*3 -2.6 C 0 km/h
1198 07-12-2003 20:53:01 -2.8 C 2.79 g/m*3 -2.8 C 0 km/h
1199 07-12-2003 21:05:01 -2.8 C 2.83 g/m*3 -2.8 C 0 km/h
1200 07-12-2003 21:17:01 -3 C 2.79 g/m*3 -3 C 0 km/h
Sensor: Nr:Datum:Temp:Abs-Feuchte:Windchill:Wind:
Aussen-T/F 1201 07-12-2003 21:29:01 -3 C 2.79 g/m*3 -3 C 0 km/h
1202 07-12-2003 21:41:01 -3.1 C 2.81 g/m*3 -3.1 C 0 km/h
1203 07-12-2003 21:53:01 -3.1 C 2.81 g/m*3 -3.1 C 0 km/h
1204 07-12-2003 22:05:00 -3.1 C 2.81 g/m*3 -3.1 C 0 km/h
1205 07-12-2003 22:17:00 -3.1 C 2.77 g/m*3 -3.1 C 0 km/h
1206 07-12-2003 22:29:00 -3.5 C 2.69 g/m*3 -3.5 C 0 km/h
1207 07-12-2003 22:41:00 -3.7 C 2.73 g/m*3 -3.7 C 0 km/h
1208 07-12-2003 22:53:00 -3.9 C 2.73 g/m*3 -3.9 C 0 km/h
1209 07-12-2003 23:06:00 -3.9 C 2.76 g/m*3 -3.9 C 0 km/h
1210 07-12-2003 23:18:01 -4.1 C 2.72 g/m*3 -4.1 C 0 km/h
1211 07-12-2003 23:30:01 -4.2 C 2.7 g/m*3 -4.2 C 0 km/h
1212 07-12-2003 23:41:01 -4.3 C 2.72 g/m*3 -4.3 C 0 km/h
1213 07-12-2003 23:53:01 -4.4 C 2.7 g/m*3 -4.4 C 0 km/h
1214 08-12-2003 00:05:00 -4.4 C 2.7 g/m*3 -4.4 C 0 km/h
1215 08-12-2003 00:17:00 -4.5 C 2.68 g/m*3 -4.5 C 0 km/h
1216 08-12-2003 00:29:00 -4.6 C 2.7 g/m*3 -4.6 C 0 km/h
1217 08-12-2003 00:41:00 -4.5 C 2.72 g/m*3 -4.5 C 0 km/h
1218 08-12-2003 00:53:00 -4.6 C 2.7 g/m*3 -4.6 C 0 km/h
1219 08-12-2003 01:06:00 -4.5 C 2.72 g/m*3 -4.5 C 0 km/h
1220 08-12-2003 01:18:01 -4.7 C 2.71 g/m*3 -4.7 C 0 km/h
1221 08-12-2003 01:30:01 -4.7 C 2.71 g/m*3 -4.7 C 0 km/h
1222 08-12-2003 01:41:01 -4.9 C 2.68 g/m*3 -4.9 C 0 km/h
1223 08-12-2003 01:53:01 -5 C 2.66 g/m*3 -5 C 0 km/h
1224 08-12-2003 02:05:00 -5 C 2.66 g/m*3 -5 C 0 km/h
1225 08-12-2003 02:17:00 -4.9 C 2.71 g/m*3 -4.9 C 0 km/h
Sensor: Nr:Datum:Temp:Abs-Feuchte:Windchill:Wind:
Aussen-T/F 1226 08-12-2003 02:29:00 -4.9 C 2.71 g/m*3 -4.9 C 0 km/h
1227 08-12-2003 02:41:00 -4.9 C 2.71 g/m*3 -4.9 C 0 km/h
1228 08-12-2003 02:53:00 -4.8 C 2.73 g/m*3 -4.8 C 0 km/h
1229 08-12-2003 03:06:01 -4.9 C 2.71 g/m*3 -4.9 C 0 km/h
1230 08-12-2003 03:18:01 -5.1 C 2.67 g/m*3 -5.1 C 0 km/h
1231 08-12-2003 03:30:01 -4.9 C 2.71 g/m*3 -4.9 C 0 km/h
1232 08-12-2003 03:41:01 -4.9 C 2.71 g/m*3 -4.9 C 0 km/h
1233 08-12-2003 03:53:01 -5.3 C 2.63 g/m*3 -5.3 C 0 km/h
1234 08-12-2003 04:05:00 -5.2 C 2.68 g/m*3 -5.2 C 0 km/h
1235 08-12-2003 04:17:00 -5.6 C 2.61 g/m*3 -5.6 C 0 km/h
1236 08-12-2003 04:29:00 -5.6 C 2.61 g/m*3 -5.6 C 0 km/h
1237 08-12-2003 04:41:01 -5.9 C 2.55 g/m*3 -5.9 C 0 km/h
1238 08-12-2003 04:53:01 -5.7 C 2.59 g/m*3 -5.7 C 0 km/h
1239 08-12-2003 05:05:00 -5.6 C 2.64 g/m*3 -5.6 C 0 km/h
1240 08-12-2003 05:17:00 -5.7 C 2.62 g/m*3 -5.7 C 0 km/h
1241 08-12-2003 05:29:00 -5.7 C 2.62 g/m*3 -5.7 C 0 km/h
1242 08-12-2003 05:41:00 -5.7 C 2.62 g/m*3 -5.7 C 0 km/h
1243 08-12-2003 05:53:00 -5.7 C 2.65 g/m*3 -5.7 C 0 km/h
1244 08-12-2003 06:06:01 -6.1 C 2.55 g/m*3 -6.1 C 0 km/h
1245 08-12-2003 06:18:01 -6.2 C 2.53 g/m*3 -6.2 C 0 km/h
1246 08-12-2003 06:30:01 -6.1 C 2.55 g/m*3 -6.1 C 0 km/h
1247 08-12-2003 06:41:01 -6 C 2.6 g/m*3 -6 C 0 km/h
1248 08-12-2003 06:53:01 -6.2 C 2.56 g/m*3 -6.2 C 0 km/h
1249 08-12-2003 07:05:00 -5.9 C 2.62 g/m*3 -5.9 C 0 km/h
1250 08-12-2003 07:17:00 -6 C 2.6 g/m*3 -6 C 0 km/h
Sensor: Nr:Datum:Temp:Abs-Feuchte:Windchill:Wind:
Aussen-T/F 1251 08-12-2003 07:29:00 -6.3 C 2.54 g/m*3 -6.3 C 0 km/h
1252 08-12-2003 07:41:00 -6.2 C 2.56 g/m*3 -6.2 C 0 km/h
1253 08-12-2003 07:53:01 -6.2 C 2.56 g/m*3 -6.2 C 0 km/h
1254 08-12-2003 08:05:00 -6.2 C 2.56 g/m*3 -6.2 C 0 km/h
1255 08-12-2003 08:17:00 -6.4 C 2.52 g/m*3 -6.4 C 0 km/h
1256 08-12-2003 08:29:00 -6.4 C 2.52 g/m*3 -6.4 C 0 km/h
1257 08-12-2003 08:41:00 -6.5 C 2.5 g/m*3 -6.5 C 0 km/h
1258 08-12-2003 08:53:00 -6.4 C 2.49 g/m*3 -6.4 C 0 km/h
1259 08-12-2003 09:06:00 -6.4 C 2.52 g/m*3 -6.4 C 0 km/h
1260 08-12-2003 09:18:00 -6.5 C 2.5 g/m*3 -6.5 C 0 km/h
1261 08-12-2003 09:30:01 -6.4 C 2.52 g/m*3 -6.4 C 0 km/h
1262 08-12-2003 09:41:00 -6.3 C 2.54 g/m*3 -6.3 C 0 km/h
1263 08-12-2003 09:53:00 -6 C 2.63 g/m*3 -6 C 0 km/h
1264 08-12-2003 10:05:00 -6.1 C 2.58 g/m*3 -6.1 C 0 km/h
1265 08-12-2003 10:17:00 -5.7 C 2.69 g/m*3 -5.7 C 0 km/h
1266 08-12-2003 10:29:00 -5.3 C 2.77 g/m*3 -5.3 C 0 km/h
1267 08-12-2003 10:41:00 -5.3 C 2.77 g/m*3 -5.3 C 0 km/h
1268 08-12-2003 10:53:01 -4.9 C 2.88 g/m*3 -4.9 C 0 km/h
1269 08-12-2003 11:05:00 -4.8 C 2.9 g/m*3 -4.8 C 0 km/h
1270 08-12-2003 11:17:00 -4.8 C 2.9 g/m*3 -4.8 C 0 km/h
1271 08-12-2003 11:29:00 -4.5 C 2.96 g/m*3 -4.5 C 0 km/h
1272 08-12-2003 11:41:00 -4.2 C 3.03 g/m*3 -4.2 C 0 km/h
1273 08-12-2003 11:53:00 -4 C 3.07 g/m*3 -4 C 0 km/h
1274 08-12-2003 12:06:01 -3.9 C 3.06 g/m*3 -3.9 C 0 km/h
1275 08-12-2003 12:18:01 -3.6 C 3.12 g/m*3 -3.6 C 0 km/h
Sensor: Nr:Datum:Temp:Abs-Feuchte:Windchill:Wind:
Aussen-T/F 1276 08-12-2003 12:30:01 -3.3 C 3.19 g/m*3 -3.3 C 0 km/h
1277 08-12-2003 12:41:00 -2.8 C 3.31 g/m*3 -2.8 C 0 km/h
1278 08-12-2003 12:53:01 -2.6 C 3.31 g/m*3 -2.6 C 0 km/h
1279 08-12-2003 13:05:00 -2.6 C 3.23 g/m*3 -2.6 C 0 km/h
1280 08-12-2003 13:17:00 -2.7 C 3.17 g/m*3 -2.7 C 0 km/h
1281 08-12-2003 13:29:00 -2.5 C 3.21 g/m*3 -2.5 C 0 km/h
1282 08-12-2003 13:41:00 -2.5 C 3.21 g/m*3 -2.5 C 0 km/h
1283 08-12-2003 13:53:00 -2.4 C 3.24 g/m*3 -2.4 C 0 km/h
1284 08-12-2003 14:06:00 -2.4 C 3.2 g/m*3 -2.4 C 0 km/h
1285 08-12-2003 14:18:00 -1.5 C 3.27 g/m*3 -1.5 C 0 km/h
1286 08-12-2003 14:30:01 -1.3 C 3.23 g/m*3 -1.3 C 0 km/h
1287 08-12-2003 14:41:01 -1.3 C 3.19 g/m*3 -1.3 C 0 km/h
1288 08-12-2003 14:53:01 -1.3 C 3.19 g/m*3 -1.3 C 0 km/h
1289 08-12-2003 15:05:00 -1.3 C 3.19 g/m*3 -1.3 C 0 km/h
1290 08-12-2003 15:17:00 -1.5 C 3.14 g/m*3 -1.5 C 0 km/h
1291 08-12-2003 15:29:00 -1.6 C 3.21 g/m*3 -1.6 C 0 km/h
1292 08-12-2003 15:41:00 -1.7 C 3.23 g/m*3 -1.7 C 0 km/h
1293 08-12-2003 15:53:00 -1.8 C 3.25 g/m*3 -1.8 C 0 km/h
1294 08-12-2003 16:06:01 -1.7 C 3.27 g/m*3 -1.7 C 0 km/h
1295 08-12-2003 16:18:01 -1.8 C 3.25 g/m*3 -1.8 C 0 km/h
1296 08-12-2003 16:30:01 -2 C 3.2 g/m*3 -2 C 0 km/h
1297 08-12-2003 16:41:01 -2 C 3.16 g/m*3 -2 C 0 km/h
1298 08-12-2003 16:53:01 -2.2 C 3.08 g/m*3 -2.2 C 0 km/h
1299 08-12-2003 17:05:01 -2.2 C 3.08 g/m*3 -2.2 C 0 km/h
1300 08-12-2003 17:17:01 -2.3 C 3.05 g/m*3 -2.3 C 0 km/h
Sensor: Nr:Datum:Temp:Abs-Feuchte:Windchill:Wind:
Aussen-T/F 1301 08-12-2003 17:29:01 -2.6 C 2.99 g/m*3 -2.6 C 0 km/h
1302 08-12-2003 17:41:00 -2.6 C 2.99 g/m*3 -2.6 C 0 km/h
1303 08-12-2003 17:53:00 -2.6 C 2.99 g/m*3 -2.6 C 0 km/h
1304 08-12-2003 18:05:01 -2.6 C 2.99 g/m*3 -2.6 C 0 km/h
1305 08-12-2003 18:17:01 -2.6 C 2.99 g/m*3 -2.6 C 0 km/h
1306 08-12-2003 18:29:01 -2.6 C 2.99 g/m*3 -2.6 C 0 km/h
1307 08-12-2003 18:41:00 -2.6 C 2.99 g/m*3 -2.6 C 0 km/h
1308 08-12-2003 18:53:00 -2.6 C 2.99 g/m*3 -2.6 C 0 km/h
1309 08-12-2003 19:06:01 -2.6 C 2.99 g/m*3 -2.6 C 0 km/h
1310 08-12-2003 19:18:01 -2.6 C 2.99 g/m*3 -2.6 C 0 km/h
1311 08-12-2003 19:30:01 -2.6 C 2.99 g/m*3 -2.6 C 0 km/h
1312 08-12-2003 19:41:01 -3.8 C 2.89 g/m*3 -3.8 C 0 km/h
1313 08-12-2003 19:53:01 -3.8 C 2.89 g/m*3 -3.8 C 0 km/h
1314 08-12-2003 20:05:00 -3.8 C 2.89 g/m*3 -3.8 C 0 km/h
1315 08-12-2003 20:17:01 -3.8 C 2.89 g/m*3 -3.8 C 0 km/h
1316 08-12-2003 20:29:01 -3.8 C 2.89 g/m*3 -3.8 C 0 km/h
1317 08-12-2003 20:41:00 -3.8 C 2.89 g/m*3 -3.8 C 0 km/h
1318 08-12-2003 20:53:00 -3.8 C 2.89 g/m*3 -3.8 C 0 km/h
1319 08-12-2003 21:06:00 -3.8 C 2.89 g/m*3 -3.8 C 0 km/h
1320 08-12-2003 21:18:01 -3.8 C 2.89 g/m*3 -3.8 C 0 km/h
1321 08-12-2003 21:30:01 -3.8 C 2.89 g/m*3 -3.8 C 0 km/h
1322 08-12-2003 21:41:01 -3.8 C 2.89 g/m*3 -3.8 C 0 km/h
1323 08-12-2003 21:53:01 -4.5 C 2.75 g/m*3 -4.5 C 0 km/h
1324 08-12-2003 22:05:00 -4.8 C 2.69 g/m*3 -4.8 C 0 km/h
1325 08-12-2003 22:17:00 -5.2 C 2.62 g/m*3 -5.2 C 0 km/h
Sensor: Nr:Datum:Temp:Abs-Feuchte:Windchill:Wind:
Aussen-T/F 1326 08-12-2003 22:29:00 -5.4 C 2.58 g/m*3 -5.4 C 0 km/h
1327 08-12-2003 22:41:01 -5.4 C 2.58 g/m*3 -5.4 C 0 km/h
1328 08-12-2003 22:53:01 -5.4 C 2.58 g/m*3 -5.4 C 0 km/h
1329 08-12-2003 23:05:00 -5.4 C 2.58 g/m*3 -5.4 C 0 km/h
1330 08-12-2003 23:17:00 -5.4 C 2.58 g/m*3 -5.4 C 0 km/h
1331 08-12-2003 23:29:00 -5.4 C 2.58 g/m*3 -5.4 C 0 km/h
1332 08-12-2003 23:41:01 -5.4 C 2.58 g/m*3 -5.4 C 0 km/h
1333 08-12-2003 23:53:01 -5.4 C 2.58 g/m*3 -5.4 C 0 km/h
1334 09-12-2003 00:05:01 -5.4 C 2.58 g/m*3 -5.4 C 0 km/h
1335 09-12-2003 00:17:01 -5.4 C 2.58 g/m*3 -5.4 C 0 km/h
1336 09-12-2003 00:29:01 -5.4 C 2.58 g/m*3 -5.4 C 0 km/h
1337 09-12-2003 00:41:00 -5.4 C 2.58 g/m*3 -5.4 C 0 km/h
1338 09-12-2003 00:53:01 -5.4 C 2.58 g/m*3 -5.4 C 0 km/h
1339 09-12-2003 01:05:00 -5.4 C 2.58 g/m*3 -5.4 C 0 km/h
1340 09-12-2003 01:17:00 -5.4 C 2.58 g/m*3 -5.4 C 0 km/h
1341 09-12-2003 01:29:00 -5.4 C 2.58 g/m*3 -5.4 C 0 km/h
1342 09-12-2003 01:41:01 -5.4 C 2.58 g/m*3 -5.4 C 0 km/h
1343 09-12-2003 01:53:01 -5.4 C 2.58 g/m*3 -5.4 C 0 km/h
1344 09-12-2003 02:05:00 -5.4 C 2.58 g/m*3 -5.4 C 0 km/h
1345 09-12-2003 02:17:00 -5.4 C 2.58 g/m*3 -5.4 C 0 km/h
1346 09-12-2003 02:29:00 -5.4 C 2.58 g/m*3 -5.4 C 0 km/h
1347 09-12-2003 02:41:00 -5.4 C 2.58 g/m*3 -5.4 C 0 km/h
1348 09-12-2003 02:53:00 -5.4 C 2.58 g/m*3 -5.4 C 0 km/h
1349 09-12-2003 03:06:01 -5.4 C 2.58 g/m*3 -5.4 C 0 km/h
1350 09-12-2003 03:18:01 -5.4 C 2.58 g/m*3 -5.4 C 0 km/h
Sensor: Nr:Datum:Temp:Abs-Feuchte:Windchill:Wind:
Aussen-T/F 1351 09-12-2003 03:30:01 -5.4 C 2.58 g/m*3 -5.4 C 0 km/h
1352 09-12-2003 03:41:01 -5.4 C 2.58 g/m*3 -5.4 C 0 km/h
1353 09-12-2003 03:53:01 -6.6 C 2.52 g/m*3 -6.6 C 0 km/h
1354 09-12-2003 04:05:00 -6.7 C 2.5 g/m*3 -6.7 C 0 km/h
1355 09-12-2003 04:17:00 -6.7 C 2.5 g/m*3 -6.7 C 0 km/h
1356 09-12-2003 04:29:00 -6.7 C 2.5 g/m*3 -6.7 C 0 km/h
1357 09-12-2003 04:41:01 -7 C 2.44 g/m*3 -7 C 0 km/h
1358 09-12-2003 04:53:01 -7 C 2.44 g/m*3 -7 C 0 km/h
1359 09-12-2003 05:05:00 -7 C 2.44 g/m*3 -7 C 0 km/h
1360 09-12-2003 05:17:00 -7 C 2.44 g/m*3 -7 C 0 km/h
1361 09-12-2003 05:29:00 -7 C 2.44 g/m*3 -7 C 0 km/h
1362 09-12-2003 05:41:00 -7 C 2.44 g/m*3 -7 C 0 km/h
1363 09-12-2003 05:53:00 -7 C 2.44 g/m*3 -7 C 0 km/h
1364 09-12-2003 06:06:01 -7 C 2.44 g/m*3 -7 C 0 km/h
1365 09-12-2003 06:18:01 -7 C 2.44 g/m*3 -7 C 0 km/h
1366 09-12-2003 06:30:01 -7 C 2.44 g/m*3 -7 C 0 km/h
1367 09-12-2003 06:41:00 -7 C 2.44 g/m*3 -7 C 0 km/h
1368 09-12-2003 06:53:01 -7 C 2.44 g/m*3 -7 C 0 km/h
1369 09-12-2003 07:05:00 -7 C 2.44 g/m*3 -7 C 0 km/h
1370 09-12-2003 07:17:00 -7 C 2.44 g/m*3 -7 C 0 km/h
1371 09-12-2003 07:29:00 -7 C 2.44 g/m*3 -7 C 0 km/h
1372 09-12-2003 07:41:01 -7 C 2.44 g/m*3 -7 C 0 km/h
1373 09-12-2003 07:53:01 -7 C 2.44 g/m*3 -7 C 0 km/h
1374 09-12-2003 08:05:00 -7 C 2.44 g/m*3 -7 C 0 km/h
1375 09-12-2003 08:17:00 -7.5 C 2.33 g/m*3 -7.5 C 0 km/h
Sensor: Nr:Datum:Temp:Abs-Feuchte:Windchill:Wind:
Aussen-T/F 1376 09-12-2003 08:29:00 -7.5 C 2.33 g/m*3 -7.5 C 0 km/h
1377 09-12-2003 08:41:00 -7.5 C 2.33 g/m*3 -7.5 C 0 km/h
1378 09-12-2003 08:53:00 -7.3 C 2.36 g/m*3 -7.3 C 0 km/h
1379 09-12-2003 09:06:00 -7.2 C 2.38 g/m*3 -7.2 C 0 km/h
1380 09-12-2003 09:18:01 -7.2 C 2.38 g/m*3 -7.2 C 0 km/h
1381 09-12-2003 09:30:01 -7.2 C 2.38 g/m*3 -7.2 C 0 km/h
1382 09-12-2003 09:41:01 -6.9 C 2.46 g/m*3 -6.9 C 0 km/h
1383 09-12-2003 09:53:01 -6.9 C 2.46 g/m*3 -6.9 C 0 km/h
1384 09-12-2003 10:05:00 -6.8 C 2.48 g/m*3 -6.8 C 0 km/h
1385 09-12-2003 10:17:00 -6.6 C 2.52 g/m*3 -6.6 C 0 km/h
1386 09-12-2003 10:29:00 -6.3 C 2.57 g/m*3 -6.3 C 0 km/h
1387 09-12-2003 10:41:00 -6.2 C 2.59 g/m*3 -6.2 C 0 km/h
1388 09-12-2003 10:53:00 -5.8 C 2.67 g/m*3 -5.8 C 0 km/h
1389 09-12-2003 11:06:01 -5.7 C 2.69 g/m*3 -5.7 C 0 km/h
1390 09-12-2003 11:18:01 -5.4 C 2.75 g/m*3 -5.4 C 0 km/h
1391 09-12-2003 11:30:01 -5.2 C 2.79 g/m*3 -5.2 C 0 km/h
1392 09-12-2003 11:41:00 -5.2 C 2.79 g/m*3 -5.2 C 0 km/h
1393 09-12-2003 11:53:01 -5.2 C 2.79 g/m*3 -5.2 C 0 km/h
1394 09-12-2003 12:05:00 -4.1 C 2.98 g/m*3 -4.1 C 0 km/h
1395 09-12-2003 12:17:00 -3.8 C 3.04 g/m*3 -3.8 C 0 km/h
1396 09-12-2003 12:29:00 -3.6 C 3.05 g/m*3 -3.6 C 0 km/h
1397 09-12-2003 12:41:00 -3.3 C 3.11 g/m*3 -3.3 C 0 km/h
1398 09-12-2003 12:53:00 -3.2 C 3.02 g/m*3 -3.2 C 0 km/h
1399 09-12-2003 13:06:00 -3.2 C 2.9 g/m*3 -3.2 C 0 km/h
1400 09-12-2003 13:18:00 -3 C 2.91 g/m*3 -3 C 0 km/h
Sensor: Nr:Datum:Temp:Abs-Feuchte:Windchill:Wind:
Aussen-T/F 1401 09-12-2003 13:30:00 -2.8 C 2.87 g/m*3 -2.8 C 0 km/h
1402 09-12-2003 13:41:00 -2.6 C 2.91 g/m*3 -2.6 C 0 km/h
1403 09-12-2003 13:53:01 -2.4 C 2.91 g/m*3 -2.4 C 0 km/h
1404 09-12-2003 14:05:00 -2.4 C 2.91 g/m*3 -2.4 C 0 km/h
1405 09-12-2003 14:17:00 -2.4 C 2.91 g/m*3 -2.4 C 0 km/h
1406 09-12-2003 14:29:00 -2.4 C 2.91 g/m*3 -2.4 C 0 km/h
1407 09-12-2003 14:41:01 -2.4 C 2.91 g/m*3 -2.4 C 0 km/h
1408 09-12-2003 14:53:01 -2.4 C 2.91 g/m*3 -2.4 C 0 km/h
1409 09-12-2003 15:05:00 -2.4 C 2.91 g/m*3 -2.4 C 0 km/h
1410 09-12-2003 15:17:00 -2.4 C 2.91 g/m*3 -2.4 C 0 km/h
1411 09-12-2003 15:29:00 -2.4 C 2.91 g/m*3 -2.4 C 0 km/h
1412 09-12-2003 15:41:00 -2.4 C 2.91 g/m*3 -2.4 C 0 km/h
1413 09-12-2003 15:53:00 -2.4 C 2.91 g/m*3 -2.4 C 0 km/h
1414 09-12-2003 16:06:00 -2.4 C 2.91 g/m*3 -2.4 C 0 km/h
1415 09-12-2003 16:18:00 -2.4 C 2.91 g/m*3 -2.4 C 0 km/h
1416 09-12-2003 16:30:00 -2.4 C 2.91 g/m*3 -2.4 C 0 km/h
1417 09-12-2003 16:41:01 -2.4 C 2.91 g/m*3 -2.4 C 0 km/h
1418 09-12-2003 16:53:01 -2.4 C 2.91 g/m*3 -2.4 C 0 km/h
1419 09-12-2003 17:05:00 -2.2 C 2.91 g/m*3 -2.2 C 0 km/h
1420 09-12-2003 17:17:00 -2.3 C 2.89 g/m*3 -2.3 C 0 km/h
1421 09-12-2003 17:29:00 -2.6 C 2.87 g/m*3 -2.6 C 0 km/h
1422 09-12-2003 17:41:00 -2.5 C 2.89 g/m*3 -2.5 C 0 km/h
1423 09-12-2003 17:53:00 -2.8 C 2.83 g/m*3 -2.8 C 0 km/h
1424 09-12-2003 18:06:01 -3 C 2.83 g/m*3 -3 C 0 km/h
1425 09-12-2003 18:18:01 -3.1 C 2.77 g/m*3 -3.1 C 0 km/h
Sensor: Nr:Datum:Temp:Abs-Feuchte:Windchill:Wind:
Aussen-T/F 1426 09-12-2003 18:30:01 -3.1 C 2.77 g/m*3 -3.1 C 0 km/h
1427 09-12-2003 18:41:00 -3 C 2.75 g/m*3 -3 C 0 km/h
1428 09-12-2003 18:53:00 -3.3 C 2.69 g/m*3 -3.3 C 0 km/h
1429 09-12-2003 19:05:00 -3.5 C 2.69 g/m*3 -3.5 C 0 km/h
1430 09-12-2003 19:17:00 -3.5 C 2.69 g/m*3 -3.5 C 0 km/h
1431 09-12-2003 19:29:00 -3.3 C 2.69 g/m*3 -3.3 C 0 km/h
1432 09-12-2003 19:41:00 -3.4 C 2.67 g/m*3 -3.4 C 0 km/h
1433 09-12-2003 19:53:01 -3.5 C 2.65 g/m*3 -3.5 C 0 km/h
1434 09-12-2003 20:05:00 -3.7 C 2.62 g/m*3 -3.7 C 0 km/h
1435 09-12-2003 20:17:00 -3.9 C 2.58 g/m*3 -3.9 C 0 km/h
1436 09-12-2003 20:29:00 -4.2 C 2.52 g/m*3 -4.2 C 0 km/h
1437 09-12-2003 20:41:00 -4.3 C 2.51 g/m*3 -4.3 C 0 km/h
1438 09-12-2003 20:53:00 -4.1 C 2.51 g/m*3 -4.1 C 0 km/h
1439 09-12-2003 21:06:01 -3.8 C 2.56 g/m*3 -3.8 C 0 km/h
1440 09-12-2003 21:18:01 -3.8 C 2.56 g/m*3 -3.8 C 0 km/h
1441 09-12-2003 21:30:01 -4.1 C 2.54 g/m*3 -4.1 C 0 km/h
1442 09-12-2003 21:41:00 -4.2 C 2.52 g/m*3 -4.2 C 0 km/h
1443 09-12-2003 21:53:01 -4.2 C 2.56 g/m*3 -4.2 C 0 km/h
1444 09-12-2003 22:05:00 -4.5 C 2.54 g/m*3 -4.5 C 0 km/h
1445 09-12-2003 22:17:00 -4.5 C 2.54 g/m*3 -4.5 C 0 km/h
1446 09-12-2003 22:29:00 -4.5 C 2.54 g/m*3 -4.5 C 0 km/h
1447 09-12-2003 22:41:00 -4.5 C 2.54 g/m*3 -4.5 C 0 km/h
1448 09-12-2003 22:53:00 -4.5 C 2.54 g/m*3 -4.5 C 0 km/h
1449 09-12-2003 23:06:01 -4.5 C 2.54 g/m*3 -4.5 C 0 km/h
1450 09-12-2003 23:18:01 -4.5 C 2.54 g/m*3 -4.5 C 0 km/h
Sensor: Nr:Datum:Temp:Abs-Feuchte:Windchill:Wind:
Aussen-T/F 1451 09-12-2003 23:30:01 -4.5 C 2.54 g/m*3 -4.5 C 0 km/h
1452 09-12-2003 23:41:01 -4.5 C 2.54 g/m*3 -4.5 C 0 km/h
1453 09-12-2003 23:53:01 -4.5 C 2.54 g/m*3 -4.5 C 0 km/h
1454 10-12-2003 00:05:00 -4.5 C 2.54 g/m*3 -4.5 C 0 km/h
1455 10-12-2003 00:17:00 -4.5 C 2.54 g/m*3 -4.5 C 0 km/h
1456 10-12-2003 00:29:00 -4.5 C 2.54 g/m*3 -4.5 C 0 km/h
1457 10-12-2003 00:41:00 -4.5 C 2.54 g/m*3 -4.5 C 0 km/h
1458 10-12-2003 00:53:00 -4.5 C 2.54 g/m*3 -4.5 C 0 km/h
1459 10-12-2003 01:06:01 -4.5 C 2.54 g/m*3 -4.5 C 0 km/h
1460 10-12-2003 01:18:01 -4.5 C 2.54 g/m*3 -4.5 C 0 km/h
1461 10-12-2003 01:30:01 -4.5 C 2.54 g/m*3 -4.5 C 0 km/h
1462 10-12-2003 01:41:01 -4.5 C 2.54 g/m*3 -4.5 C 0 km/h
1463 10-12-2003 01:53:01 -4.5 C 2.54 g/m*3 -4.5 C 0 km/h
1464 10-12-2003 02:05:00 -4.5 C 2.54 g/m*3 -4.5 C 0 km/h
1465 10-12-2003 02:17:00 -4.5 C 2.54 g/m*3 -4.5 C 0 km/h
1466 10-12-2003 02:29:00 -4.5 C 2.54 g/m*3 -4.5 C 0 km/h
1467 10-12-2003 02:41:00 -4.5 C 2.54 g/m*3 -4.5 C 0 km/h
1468 10-12-2003 02:53:01 -4.5 C 2.54 g/m*3 -4.5 C 0 km/h
1469 10-12-2003 03:05:00 -4.5 C 2.54 g/m*3 -4.5 C 0 km/h
1470 10-12-2003 03:17:00 -4.5 C 2.54 g/m*3 -4.5 C 0 km/h
1471 10-12-2003 03:29:00 -4.5 C 2.54 g/m*3 -4.5 C 0 km/h
1472 10-12-2003 03:41:00 -4.5 C 2.54 g/m*3 -4.5 C 0 km/h
1473 10-12-2003 03:53:00 -4.5 C 2.54 g/m*3 -4.5 C 0 km/h
1474 10-12-2003 04:06:00 -4.5 C 2.54 g/m*3 -4.5 C 0 km/h
1475 10-12-2003 04:18:01 -4.5 C 2.54 g/m*3 -4.5 C 0 km/h
Sensor: Nr:Datum:Temp:Abs-Feuchte:Windchill:Wind:
Aussen-T/F 1476 10-12-2003 04:30:01 -4.5 C 2.54 g/m*3 -4.5 C 0 km/h
1477 10-12-2003 04:41:01 -4.5 C 2.54 g/m*3 -4.5 C 0 km/h
1478 10-12-2003 04:53:01 -4.5 C 2.54 g/m*3 -4.5 C 0 km/h
1479 10-12-2003 05:05:00 -4.5 C 2.54 g/m*3 -4.5 C 0 km/h
1480 10-12-2003 05:17:00 -4.5 C 2.54 g/m*3 -4.5 C 0 km/h
1481 10-12-2003 05:29:00 -4.5 C 2.54 g/m*3 -4.5 C 0 km/h
1482 10-12-2003 05:41:01 -4.5 C 2.54 g/m*3 -4.5 C 0 km/h
1483 10-12-2003 05:53:01 -4.5 C 2.54 g/m*3 -4.5 C 0 km/h
1484 10-12-2003 06:05:00 -4.5 C 2.54 g/m*3 -4.5 C 0 km/h
1485 10-12-2003 06:17:00 -4.5 C 2.54 g/m*3 -4.5 C 0 km/h
1486 10-12-2003 06:29:00 -4.5 C 2.54 g/m*3 -4.5 C 0 km/h
1487 10-12-2003 06:41:00 -4.5 C 2.54 g/m*3 -4.5 C 0 km/h
1488 10-12-2003 06:53:00 -4.5 C 2.54 g/m*3 -4.5 C 0 km/h
1489 10-12-2003 07:06:00 -4.5 C 2.54 g/m*3 -4.5 C 0 km/h
1490 10-12-2003 07:18:00 -7.2 C 2.38 g/m*3 -7.2 C 0 km/h
1491 10-12-2003 07:30:01 -7.2 C 2.38 g/m*3 -7.2 C 0 km/h
1492 10-12-2003 07:41:00 -7.2 C 2.38 g/m*3 -7.2 C 0 km/h
1493 10-12-2003 07:53:01 -7.2 C 2.38 g/m*3 -7.2 C 0 km/h
1494 10-12-2003 08:05:00 -7.2 C 2.38 g/m*3 -7.2 C 0 km/h
1495 10-12-2003 08:17:00 -7.2 C 2.38 g/m*3 -7.2 C 0 km/h
1496 10-12-2003 08:29:00 -7.2 C 2.38 g/m*3 -7.2 C 0 km/h
1497 10-12-2003 08:41:01 -7.2 C 2.38 g/m*3 -7.2 C 0 km/h
1498 10-12-2003 08:53:01 -7.2 C 2.38 g/m*3 -7.2 C 0 km/h
1499 10-12-2003 09:05:00 -7.2 C 2.38 g/m*3 -7.2 C 0 km/h
1500 10-12-2003 09:17:00 -7.2 C 2.38 g/m*3 -7.2 C 0 km/h
Sensor: Nr:Datum:Temp:Abs-Feuchte:Windchill:Wind:
Aussen-T/F 1501 10-12-2003 09:29:00 -7.2 C 2.38 g/m*3 -7.2 C 0 km/h
1502 10-12-2003 09:41:00 -7.2 C 2.38 g/m*3 -7.2 C 0 km/h
1503 10-12-2003 09:53:00 -7.2 C 2.38 g/m*3 -7.2 C 0 km/h
1504 10-12-2003 10:06:00 -7.2 C 2.38 g/m*3 -7.2 C 0 km/h
1505 10-12-2003 10:18:00 -7.2 C 2.38 g/m*3 -7.2 C 0 km/h
1506 10-12-2003 10:30:00 -7.2 C 2.38 g/m*3 -7.2 C 0 km/h
1507 10-12-2003 10:41:00 -7.2 C 2.38 g/m*3 -7.2 C 0 km/h
1508 10-12-2003 10:53:00 -7.2 C 2.38 g/m*3 -7.2 C 0 km/h
1509 10-12-2003 11:05:00 -7.2 C 2.38 g/m*3 -7.2 C 0 km/h
1510 10-12-2003 11:17:00 -7.2 C 2.38 g/m*3 -7.2 C 0 km/h
1511 10-12-2003 11:29:00 -5.4 C 2.75 g/m*3 -5.4 C 0 km/h
1512 10-12-2003 11:41:00 -5 C 2.83 g/m*3 -5 C 0 km/h
1513 10-12-2003 11:53:01 -4.8 C 2.87 g/m*3 -4.8 C 0 km/h
1514 10-12-2003 12:05:00 -4.8 C 2.87 g/m*3 -4.8 C 0 km/h
1515 10-12-2003 12:17:00 -4.5 C 2.93 g/m*3 -4.5 C 0 km/h
1516 10-12-2003 12:29:00 -4.2 C 2.99 g/m*3 -4.2 C 0 km/h
1517 10-12-2003 12:41:00 -4 C 3.07 g/m*3 -4 C 0 km/h
1518 10-12-2003 12:53:00 -4 C 3.07 g/m*3 -4 C 0 km/h
1519 10-12-2003 13:06:00 -4 C 3.07 g/m*3 -4 C 0 km/h
1520 10-12-2003 13:18:00 -4 C 3.07 g/m*3 -4 C 0 km/h
1521 10-12-2003 13:30:00 -4 C 3.07 g/m*3 -4 C 0 km/h
1522 10-12-2003 13:41:01 -4 C 3.07 g/m*3 -4 C 0 km/h
1523 10-12-2003 13:53:01 -2.7 C 3.25 g/m*3 -2.7 C 0 km/h
1524 10-12-2003 14:05:00 -2.6 C 3.27 g/m*3 -2.6 C 0 km/h
1525 10-12-2003 14:17:00 -2.6 C 3.27 g/m*3 -2.6 C 0 km/h
Sensor: Nr:Datum:Temp:Abs-Feuchte:Windchill:Wind:
Aussen-T/F 1526 10-12-2003 14:29:00 -2.6 C 3.27 g/m*3 -2.6 C 0 km/h
1527 10-12-2003 14:41:00 -2.6 C 3.27 g/m*3 -2.6 C 0 km/h
1528 10-12-2003 14:53:00 -2.6 C 3.27 g/m*3 -2.6 C 0 km/h
1529 10-12-2003 15:06:00 -2.6 C 3.27 g/m*3 -2.6 C 0 km/h
1530 10-12-2003 15:18:01 -2.6 C 3.27 g/m*3 -2.6 C 0 km/h
1531 10-12-2003 15:30:01 -2.6 C 3.27 g/m*3 -2.6 C 0 km/h
1532 10-12-2003 15:41:01 -2.6 C 3.27 g/m*3 -2.6 C 0 km/h
1533 10-12-2003 15:53:01 -2.6 C 3.27 g/m*3 -2.6 C 0 km/h
1534 10-12-2003 16:05:00 -2.6 C 3.27 g/m*3 -2.6 C 0 km/h
1535 10-12-2003 16:17:00 -2.6 C 3.27 g/m*3 -2.6 C 0 km/h
1536 10-12-2003 16:29:00 -2.6 C 3.27 g/m*3 -2.6 C 0 km/h
1537 10-12-2003 16:41:00 -2.6 C 3.27 g/m*3 -2.6 C 0 km/h
1538 10-12-2003 16:53:00 -2.6 C 3.27 g/m*3 -2.6 C 0 km/h
1539 10-12-2003 17:06:00 -2.6 C 3.27 g/m*3 -2.6 C 0 km/h
1540 10-12-2003 17:18:00 -1.5 C 3.32 g/m*3 -1.5 C 0 km/h
1541 10-12-2003 17:30:01 -1.5 C 3.32 g/m*3 -1.5 C 0 km/h
1542 10-12-2003 17:41:01 -1.5 C 3.32 g/m*3 -1.5 C 0 km/h
1543 10-12-2003 17:53:01 -1.5 C 3.32 g/m*3 -1.5 C 0 km/h
1544 10-12-2003 18:05:00 -1.5 C 3.32 g/m*3 -1.5 C 0 km/h
1545 10-12-2003 18:17:00 -1.5 C 3.32 g/m*3 -1.5 C 0 km/h
1546 10-12-2003 18:29:00 -1.5 C 3.32 g/m*3 -1.5 C 0 km/h
1547 10-12-2003 18:41:00 -1.5 C 3.32 g/m*3 -1.5 C 0 km/h
1548 10-12-2003 18:53:00 -3 C 3.18 g/m*3 -3 C 0 km/h
1549 10-12-2003 19:05:00 -3 C 3.22 g/m*3 -3 C 0 km/h
1550 10-12-2003 19:17:00 -3.2 C 3.18 g/m*3 -3.2 C 0 km/h
Sensor: Nr:Datum:Temp:Abs-Feuchte:Windchill:Wind:
Aussen-T/F 1551 10-12-2003 19:29:00 -3.3 C 3.15 g/m*3 -3.3 C 0 km/h
1552 10-12-2003 19:41:00 -3.4 C 3.17 g/m*3 -3.4 C 0 km/h
1553 10-12-2003 19:53:00 -3.3 C 3.19 g/m*3 -3.3 C 0 km/h
1554 10-12-2003 20:06:01 -3.3 C 3.19 g/m*3 -3.3 C 0 km/h
1555 10-12-2003 20:18:01 -3.4 C 3.17 g/m*3 -3.4 C 0 km/h
1556 10-12-2003 20:30:01 -2.5 C 3.42 g/m*3 -2.5 C 0 km/h
1557 10-12-2003 20:41:00 -2 C 3.46 g/m*3 -2 C 0 km/h
1558 10-12-2003 20:53:01 -2 C 3.46 g/m*3 -2 C 0 km/h
1559 10-12-2003 21:05:01 -2 C 3.46 g/m*3 -2 C 0 km/h
1560 10-12-2003 21:17:01 -1.1 C 3.32 g/m*3 -1.1 C 0 km/h
1561 10-12-2003 21:29:01 -1.1 C 3.28 g/m*3 -1.1 C 0 km/h
1562 10-12-2003 21:41:00 -1.4 C 3.21 g/m*3 -1.4 C 0 km/h
1563 10-12-2003 21:53:00 -1.3 C 3.28 g/m*3 -1.3 C 0 km/h
1564 10-12-2003 22:06:01 -1.2 C 3.25 g/m*3 -1.2 C 0 km/h
1565 10-12-2003 22:18:01 -1.1 C 3.28 g/m*3 -1.1 C 0 km/h
1566 10-12-2003 22:30:01 -1.2 C 3.25 g/m*3 -1.2 C 0 km/h
1567 10-12-2003 22:41:00 -1.4 C 3.21 g/m*3 -1.4 C 0 km/h
1568 10-12-2003 22:53:01 -1.7 C 3.19 g/m*3 -1.7 C 0 km/h
1569 10-12-2003 23:05:00 -1.6 C 3.21 g/m*3 -1.6 C 0 km/h
1570 10-12-2003 23:17:00 -1.5 C 3.27 g/m*3 -1.5 C 0 km/h
1571 10-12-2003 23:29:00 -1.4 C 3.3 g/m*3 -1.4 C 0 km/h
1572 10-12-2003 23:41:00 -1.2 C 3.34 g/m*3 -1.2 C 0 km/h
1573 10-12-2003 23:53:00 -0.9 C 3.37 g/m*3 -0.9 C 0 km/h
1574 11-12-2003 00:06:01 -0.7 C 3.46 g/m*3 -0.7 C 0 km/h
1575 11-12-2003 00:18:01 -0.2 C 3.58 g/m*3 -0.2 C 0 km/h
Sensor: Nr:Datum:Temp:Abs-Feuchte:Windchill:Wind:
Aussen-T/F 1576 11-12-2003 00:30:01 0.1 C 3.61 g/m*3 0.1 C 0 km/h
1577 11-12-2003 00:41:01 0.1 C 3.61 g/m*3 0.1 C 0 km/h
1578 11-12-2003 00:53:01 0.5 C 3.81 g/m*3 0.5 C 0 km/h
1579 11-12-2003 01:05:00 0.8 C 3.89 g/m*3 0.8 C 0 km/h
1580 11-12-2003 01:17:00 1 C 3.84 g/m*3 1 C 0 km/h
1581 11-12-2003 01:29:00 1 C 3.84 g/m*3 1 C 0 km/h
1582 11-12-2003 01:41:00 1 C 3.84 g/m*3 1 C 0 km/h
1583 11-12-2003 01:53:00 0.9 C 3.92 g/m*3 0.9 C 0 km/h
1584 11-12-2003 02:05:00 0.8 C 3.89 g/m*3 0.8 C 0 km/h
1585 11-12-2003 02:17:00 0.8 C 3.89 g/m*3 0.8 C 0 km/h
1586 11-12-2003 02:29:00 0.8 C 3.89 g/m*3 0.8 C 0 km/h
1587 11-12-2003 02:41:00 0.8 C 3.84 g/m*3 0.8 C 0 km/h
1588 11-12-2003 02:53:00 0.9 C 3.87 g/m*3 0.9 C 0 km/h
1589 11-12-2003 03:06:01 0.7 C 3.81 g/m*3 0.7 C 0 km/h
1590 11-12-2003 03:18:01 0.7 C 3.81 g/m*3 0.7 C 0 km/h
1591 11-12-2003 03:30:01 0.6 C 3.79 g/m*3 0.6 C 0 km/h
1592 11-12-2003 03:41:01 0.5 C 3.76 g/m*3 0.5 C 0 km/h
1593 11-12-2003 03:53:01 0.5 C 3.71 g/m*3 0.5 C 0 km/h
1594 11-12-2003 04:05:00 0.4 C 3.74 g/m*3 0.4 C 0 km/h
1595 11-12-2003 04:17:00 0.3 C 3.71 g/m*3 0.3 C 0 km/h
1596 11-12-2003 04:29:00 0.2 C 3.64 g/m*3 0.2 C 0 km/h
1597 11-12-2003 04:41:01 0.1 C 3.61 g/m*3 0.1 C 0 km/h
1598 11-12-2003 04:53:01 0.1 C 3.61 g/m*3 0.1 C 0 km/h
1599 11-12-2003 05:05:00 0 C 3.59 g/m*3 0 C 0 km/h
1600 11-12-2003 05:17:00 0 C 3.59 g/m*3 0 C 0 km/h
Sensor: Nr:Datum:Temp:Abs-Feuchte:Windchill:Wind:
Aussen-T/F 1601 11-12-2003 05:29:00 -0.1 C 3.56 g/m*3 -0.1 C 0 km/h
1602 11-12-2003 05:41:00 -0.1 C 3.56 g/m*3 -0.1 C 0 km/h
1603 11-12-2003 05:53:00 -0.2 C 3.54 g/m*3 -0.2 C 0 km/h
1604 11-12-2003 06:06:00 -0.1 C 3.56 g/m*3 -0.1 C 0 km/h
1605 11-12-2003 06:18:01 -0.1 C 3.51 g/m*3 -0.1 C 0 km/h
1606 11-12-2003 06:30:01 -0.1 C 3.46 g/m*3 -0.1 C 0 km/h
1607 11-12-2003 06:41:00 -0.2 C 3.44 g/m*3 -0.2 C 0 km/h
1608 11-12-2003 06:53:00 -0.1 C 3.46 g/m*3 -0.1 C 0 km/h
1609 11-12-2003 07:05:00 -0.2 C 3.44 g/m*3 -0.2 C 0 km/h
1610 11-12-2003 07:17:00 -0.2 C 3.44 g/m*3 -0.2 C 0 km/h
1611 11-12-2003 07:29:00 -0.2 C 3.44 g/m*3 -0.2 C 0 km/h
1612 11-12-2003 07:41:00 -0.2 C 3.44 g/m*3 -0.2 C 0 km/h
1613 11-12-2003 07:53:00 -0.2 C 3.44 g/m*3 -0.2 C 0 km/h
1614 11-12-2003 08:06:00 -0.2 C 3.44 g/m*3 -0.2 C 0 km/h
1615 11-12-2003 08:18:01 -0.2 C 3.39 g/m*3 -0.2 C 0 km/h
1616 11-12-2003 08:30:01 -0.2 C 3.44 g/m*3 -0.2 C 0 km/h
1617 11-12-2003 08:41:01 -0.2 C 3.44 g/m*3 -0.2 C 0 km/h
1618 11-12-2003 08:53:01 -0.2 C 3.39 g/m*3 -0.2 C 0 km/h
1619 11-12-2003 09:05:00 -0.2 C 3.39 g/m*3 -0.2 C 0 km/h
1620 11-12-2003 09:17:00 -0.2 C 3.44 g/m*3 -0.2 C 0 km/h
1621 11-12-2003 09:29:00 0 C 3.44 g/m*3 0 C 0 km/h
1622 11-12-2003 09:41:01 0 C 3.44 g/m*3 0 C 0 km/h
1623 11-12-2003 09:53:01 0 C 3.44 g/m*3 0 C 0 km/h
1624 11-12-2003 10:06:00 0 C 3.44 g/m*3 0 C 0 km/h
1625 11-12-2003 10:18:00 0.1 C 3.46 g/m*3 0.1 C 0 km/h
Sensor: Nr:Datum:Temp:Abs-Feuchte:Windchill:Wind:
Aussen-T/F 1626 11-12-2003 10:30:00 0.1 C 3.46 g/m*3 0.1 C 0 km/h
1627 11-12-2003 10:41:01 0.2 C 3.44 g/m*3 0.2 C 0 km/h
1628 11-12-2003 10:53:01 0.3 C 3.46 g/m*3 0.3 C 0 km/h
1629 11-12-2003 11:05:00 0.4 C 3.49 g/m*3 0.4 C 0 km/h
1630 11-12-2003 11:17:00 0.4 C 3.54 g/m*3 0.4 C 0 km/h
1631 11-12-2003 11:29:00 0.5 C 3.56 g/m*3 0.5 C 0 km/h
1632 11-12-2003 11:41:01 0.6 C 3.59 g/m*3 0.6 C 0 km/h
1633 11-12-2003 11:53:01 0.6 C 3.59 g/m*3 0.6 C 0 km/h
1634 11-12-2003 12:06:01 0.6 C 3.59 g/m*3 0.6 C 0 km/h
1635 11-12-2003 12:18:01 0.7 C 3.61 g/m*3 0.7 C 0 km/h
1636 11-12-2003 12:30:01 0.9 C 3.61 g/m*3 0.9 C 0 km/h
1637 11-12-2003 12:41:00 1.1 C 3.61 g/m*3 1.1 C 0 km/h
1638 11-12-2003 12:53:00 1.3 C 3.6 g/m*3 1.3 C 0 km/h
1639 11-12-2003 13:05:00 1.6 C 3.68 g/m*3 1.6 C 0 km/h
1640 11-12-2003 13:17:00 1.9 C 3.7 g/m*3 1.9 C 0 km/h
1641 11-12-2003 13:29:00 1.8 C 3.67 g/m*3 1.8 C 0 km/h
1642 11-12-2003 13:41:01 1.8 C 3.67 g/m*3 1.8 C 0 km/h
1643 11-12-2003 13:53:01 1.9 C 3.7 g/m*3 1.9 C 0 km/h
1644 11-12-2003 14:05:00 1.9 C 3.7 g/m*3 1.9 C 0 km/h
1645 11-12-2003 14:17:00 1.9 C 3.7 g/m*3 1.9 C 0 km/h
1646 11-12-2003 14:29:00 1.9 C 3.7 g/m*3 1.9 C 0 km/h
1647 11-12-2003 14:41:00 1.8 C 3.73 g/m*3 1.8 C 0 km/h
1648 11-12-2003 14:53:00 1.9 C 3.7 g/m*3 1.9 C 0 km/h
1649 11-12-2003 15:06:00 1.9 C 3.7 g/m*3 1.9 C 0 km/h
1650 11-12-2003 15:18:01 1.9 C 3.7 g/m*3 1.9 C 0 km/h
Sensor: Nr:Datum:Temp:Abs-Feuchte:Windchill:Wind:
Aussen-T/F 1651 11-12-2003 15:30:01 1.8 C 3.73 g/m*3 1.8 C 0 km/h
1652 11-12-2003 15:41:01 1.9 C 3.75 g/m*3 1.9 C 0 km/h
1653 11-12-2003 15:53:01 1.9 C 3.75 g/m*3 1.9 C 0 km/h
1654 11-12-2003 16:05:00 1.9 C 3.81 g/m*3 1.9 C 0 km/h
1655 11-12-2003 16:17:00 1.7 C 3.76 g/m*3 1.7 C 0 km/h
1656 11-12-2003 16:29:00 1.7 C 3.76 g/m*3 1.7 C 0 km/h
1657 11-12-2003 16:41:00 1.5 C 3.76 g/m*3 1.5 C 0 km/h
1658 11-12-2003 16:53:00 1.4 C 3.79 g/m*3 1.4 C 0 km/h
1659 11-12-2003 17:05:00 1.4 C 3.79 g/m*3 1.4 C 0 km/h
1660 11-12-2003 17:17:00 1.4 C 3.79 g/m*3 1.4 C 0 km/h
1661 11-12-2003 17:29:00 1.4 C 3.79 g/m*3 1.4 C 0 km/h
1662 11-12-2003 17:41:01 1.4 C 3.79 g/m*3 1.4 C 0 km/h
1663 11-12-2003 17:53:01 1.6 C 3.84 g/m*3 1.6 C 0 km/h
1664 11-12-2003 18:06:00 1.6 C 3.84 g/m*3 1.6 C 0 km/h
1665 11-12-2003 18:18:00 1.5 C 3.87 g/m*3 1.5 C 0 km/h
1666 11-12-2003 18:30:01 1.5 C 3.87 g/m*3 1.5 C 0 km/h
1667 11-12-2003 18:41:01 1.6 C 3.89 g/m*3 1.6 C 0 km/h
1668 11-12-2003 18:53:01 1.5 C 3.87 g/m*3 1.5 C 0 km/h
1669 11-12-2003 19:05:00 1.4 C 3.89 g/m*3 1.4 C 0 km/h
1670 11-12-2003 19:17:00 0.8 C 4.04 g/m*3 0.8 C 0 km/h
1671 11-12-2003 19:29:00 0.9 C 4.23 g/m*3 0.9 C 0 km/h
1672 11-12-2003 19:41:03 1 C 4.31 g/m*3 1 C 0 km/h
1673 11-12-2003 19:53:03 1.2 C 4.47 g/m*3 1.2 C 0 km/h
1674 11-12-2003 20:05:00 1.5 C 4.62 g/m*3 1.5 C 0 km/h
1675 11-12-2003 20:17:00 1.7 C 4.74 g/m*3 1.7 C 0 km/h
Sensor: Nr:Datum:Temp:Abs-Feuchte:Windchill:Wind:
Aussen-T/F 1676 11-12-2003 20:29:01 1.9 C 4.8 g/m*3 1.9 C 0 km/h
1677 11-12-2003 20:40:01 1.9 C 4.86 g/m*3 1.9 C 0 km/h
1678 11-12-2003 20:52:01 1.9 C 4.86 g/m*3 1.9 C 0 km/h
1679 11-12-2003 21:04:00 1.9 C 4.86 g/m*3 1.9 C 0 km/h
1680 11-12-2003 21:16:00 2.2 C 4.96 g/m*3 2.2 C 0 km/h
1681 11-12-2003 21:28:00 2.3 C 5.05 g/m*3 2.3 C 0 km/h
1682 11-12-2003 21:40:04 2.8 C 5.22 g/m*3 2.8 C 0 km/h
1683 11-12-2003 21:52:04 3.2 C 5.3 g/m*3 3.2 C 0 km/h
1684 11-12-2003 22:04:00 3.5 C 5.35 g/m*3 3.5 C 0 km/h
1685 11-12-2003 22:16:00 4 C 5.47 g/m*3 4 C 0 km/h
1686 11-12-2003 22:28:00 4.2 C 5.41 g/m*3 4.2 C 0 km/h
1687 11-12-2003 22:40:05 4.3 C 5.38 g/m*3 4.3 C 0 km/h
1688 11-12-2003 22:52:05 4.5 C 5.39 g/m*3 4.5 C 0 km/h
1689 11-12-2003 23:05:00 4.6 C 5.36 g/m*3 4.6 C 0 km/h
1690 11-12-2003 23:17:00 4.6 C 5.36 g/m*3 4.6 C 0 km/h
1691 11-12-2003 23:29:00 4.7 C 5.4 g/m*3 4.7 C 0 km/h
1692 11-12-2003 23:42:01 4.6 C 5.36 g/m*3 4.6 C 0 km/h
1693 11-12-2003 23:54:01 4.5 C 5.32 g/m*3 4.5 C 0 km/h
1694 12-12-2003 00:06:01 4.4 C 5.35 g/m*3 4.4 C 0 km/h
1695 12-12-2003 00:18:01 4.4 C 5.42 g/m*3 4.4 C 0 km/h
1696 12-12-2003 00:30:01 4.5 C 5.46 g/m*3 4.5 C 0 km/h
1697 12-12-2003 00:41:56 4.5 C 5.46 g/m*3 4.5 C 0 km/h
1698 12-12-2003 00:53:56 4.6 C 5.43 g/m*3 4.6 C 0 km/h
1699 12-12-2003 01:06:00 4.6 C 5.43 g/m*3 4.6 C 0 km/h
1700 12-12-2003 01:18:01 4.7 C 5.46 g/m*3 4.7 C 0 km/h
Sensor: Nr:Datum:Temp:Abs-Feuchte:Windchill:Wind:
Aussen-T/F 1701 12-12-2003 01:30:01 4.6 C 5.43 g/m*3 4.6 C 0 km/h
1702 12-12-2003 01:41:55 4.6 C 5.43 g/m*3 4.6 C 0 km/h
1703 12-12-2003 01:53:55 4.8 C 5.43 g/m*3 4.8 C 0 km/h
1704 12-12-2003 02:06:01 4.9 C 5.47 g/m*3 4.9 C 0 km/h
1705 12-12-2003 02:18:01 5.1 C 5.47 g/m*3 5.1 C 0 km/h
1706 12-12-2003 02:30:01 5.2 C 5.51 g/m*3 5.2 C 0 km/h
1707 12-12-2003 02:41:56 5.3 C 5.54 g/m*3 5.3 C 0 km/h
1708 12-12-2003 02:53:56 5.4 C 5.58 g/m*3 5.4 C 0 km/h
1709 12-12-2003 03:06:01 5.8 C 5.66 g/m*3 5.8 C 0 km/h
1710 12-12-2003 03:18:01 5.9 C 5.7 g/m*3 5.9 C 0 km/h
1711 12-12-2003 03:30:01 5.8 C 5.66 g/m*3 5.8 C 0 km/h
1712 12-12-2003 03:41:55 5.7 C 5.62 g/m*3 5.7 C 0 km/h
1713 12-12-2003 03:53:55 5.6 C 5.66 g/m*3 5.6 C 0 km/h
1714 12-12-2003 04:05:00 5.4 C 5.65 g/m*3 5.4 C 0 km/h
1715 12-12-2003 04:17:00 5.5 C 5.69 g/m*3 5.5 C 0 km/h
1716 12-12-2003 04:29:00 6.2 C 5.96 g/m*3 6.2 C 0 km/h
1717 12-12-2003 04:41:00 6.2 C 5.88 g/m*3 6.2 C 0 km/h
1718 12-12-2003 04:53:00 6.3 C 5.77 g/m*3 6.3 C 0 km/h
1719 12-12-2003 05:06:01 6.3 C 5.77 g/m*3 6.3 C 0 km/h
1720 12-12-2003 05:18:01 6.2 C 5.74 g/m*3 6.2 C 0 km/h
1721 12-12-2003 05:30:01 6 C 5.66 g/m*3 6 C 0 km/h
1722 12-12-2003 05:41:01 5.7 C 5.62 g/m*3 5.7 C 0 km/h
1723 12-12-2003 05:53:01 5.6 C 5.66 g/m*3 5.6 C 0 km/h
1724 12-12-2003 06:05:00 5.6 C 5.59 g/m*3 5.6 C 0 km/h
1725 12-12-2003 06:17:00 5.6 C 5.59 g/m*3 5.6 C 0 km/h
Sensor: Nr:Datum:Temp:Abs-Feuchte:Windchill:Wind:
Aussen-T/F 1726 12-12-2003 06:29:00 5.6 C 5.51 g/m*3 5.6 C 0 km/h
1727 12-12-2003 06:41:01 5.5 C 5.48 g/m*3 5.5 C 0 km/h
1728 12-12-2003 06:53:01 5.1 C 5.4 g/m*3 5.1 C 0 km/h
1729 12-12-2003 07:05:00 4.6 C 5.36 g/m*3 4.6 C 0 km/h
1730 12-12-2003 07:17:00 4.8 C 5.5 g/m*3 4.8 C 0 km/h
1731 12-12-2003 07:29:00 4.8 C 5.5 g/m*3 4.8 C 0 km/h
1732 12-12-2003 07:41:00 4.7 C 5.4 g/m*3 4.7 C 0 km/h
1733 12-12-2003 07:53:00 4.6 C 5.43 g/m*3 4.6 C 0 km/h
1734 12-12-2003 08:06:01 4.2 C 5.22 g/m*3 4.2 C 0 km/h
1735 12-12-2003 08:17:01 4.2 C 5.28 g/m*3 4.2 C 0 km/h
1736 12-12-2003 08:18:01 4.2 C 5.28 g/m*3 4.2 C 0 km/h
1737 12-12-2003 08:29:01 4.1 C 5.25 g/m*3 4.1 C 0 km/h
1738 12-12-2003 08:41:01 3.9 C 5.31 g/m*3 3.9 C 0 km/h
1739 12-12-2003 08:53:01 3.7 C 5.17 g/m*3 3.7 C 0 km/h
1740 12-12-2003 09:05:00 3.9 C 5.31 g/m*3 3.9 C 0 km/h
1741 12-12-2003 09:17:00 4 C 5.28 g/m*3 4 C 0 km/h
1742 12-12-2003 09:29:00 4.1 C 5.38 g/m*3 4.1 C 0 km/h
1743 12-12-2003 09:41:00 4.2 C 5.41 g/m*3 4.2 C 0 km/h
1744 12-12-2003 09:53:00 3.9 C 5.31 g/m*3 3.9 C 0 km/h
1745 12-12-2003 10:06:01 3.7 C 5.23 g/m*3 3.7 C 0 km/h
1746 12-12-2003 10:18:01 3.5 C 5.16 g/m*3 3.5 C 0 km/h
1747 12-12-2003 10:30:01 3.4 C 5.19 g/m*3 3.4 C 0 km/h
1748 12-12-2003 10:41:01 3.4 C 5.19 g/m*3 3.4 C 0 km/h
1749 12-12-2003 10:53:01 3.4 C 5.19 g/m*3 3.4 C 0 km/h
1750 12-12-2003 11:05:00 3.5 C 5.23 g/m*3 3.5 C 0 km/h
Sensor: Nr:Datum:Temp:Abs-Feuchte:Windchill:Wind:
Aussen-T/F 1751 12-12-2003 11:17:00 3.5 C 5.29 g/m*3 3.5 C 0 km/h
1752 12-12-2003 11:29:00 3.7 C 5.36 g/m*3 3.7 C 0 km/h
1753 12-12-2003 11:41:00 3.9 C 5.43 g/m*3 3.9 C 0 km/h
1754 12-12-2003 11:53:00 4.1 C 5.38 g/m*3 4.1 C 0 km/h
1755 12-12-2003 12:06:01 4.5 C 5.59 g/m*3 4.5 C 0 km/h
1756 12-12-2003 12:17:00 5.3 C 5.89 g/m*3 5.3 C 0 km/h
1757 12-12-2003 12:18:01 5.3 C 5.89 g/m*3 5.3 C 0 km/h
1758 12-12-2003 12:29:00 5.7 C 5.91 g/m*3 5.7 C 0 km/h
1759 12-12-2003 12:41:00 6 C 5.88 g/m*3 6 C 0 km/h
1760 12-12-2003 12:53:00 6.3 C 6 g/m*3 6.3 C 0 km/h
1761 12-12-2003 13:05:00 6.5 C 6 g/m*3 6.5 C 0 km/h
1762 12-12-2003 13:17:00 6.8 C 6.04 g/m*3 6.8 C 0 km/h
1763 12-12-2003 13:29:00 6.9 C 5.85 g/m*3 6.9 C 0 km/h
1764 12-12-2003 13:41:01 7.1 C 5.54 g/m*3 7.1 C 0 km/h
1765 12-12-2003 13:53:01 7.3 C 5.37 g/m*3 7.3 C 0 km/h
1766 12-12-2003 14:05:00 7.3 C 5.45 g/m*3 7.3 C 0 km/h
1767 12-12-2003 14:17:00 7.1 C 5.3 g/m*3 7.1 C 0 km/h
1768 12-12-2003 14:29:00 7.1 C 5.15 g/m*3 7.1 C 0 km/h
1769 12-12-2003 14:41:00 7 C 5.27 g/m*3 7 C 0 km/h
1770 12-12-2003 14:53:00 6.6 C 5.28 g/m*3 6.6 C 0 km/h
1771 12-12-2003 15:05:33 6.3 C 5.11 g/m*3 6.3 C 0 km/h
1772 12-12-2003 15:17:33 6 C 5.08 g/m*3 6 C 0 km/h
1773 12-12-2003 15:30:00 5.8 C 5.09 g/m*3 5.8 C 0 km/h
1774 12-12-2003 15:41:00 5.7 C 5.05 g/m*3 5.7 C 0 km/h
1775 12-12-2003 15:53:01 5.5 C 5.06 g/m*3 5.5 C 0 km/h
Sensor: Nr:Datum:Temp:Abs-Feuchte:Windchill:Wind:
Aussen-T/F 1776 12-12-2003 16:05:00 5.2 C 4.96 g/m*3 5.2 C 0 km/h
1777 12-12-2003 16:17:00 5.1 C 4.92 g/m*3 5.1 C 0 km/h
1778 12-12-2003 16:29:00 4.8 C 4.9 g/m*3 4.8 C 0 km/h
1779 12-12-2003 16:41:00 4.7 C 4.86 g/m*3 4.7 C 0 km/h
1780 12-12-2003 16:53:00 4.7 C 4.86 g/m*3 4.7 C 0 km/h
1781 12-12-2003 17:06:01 4.6 C 4.9 g/m*3 4.6 C 0 km/h
1782 12-12-2003 17:18:01 4.5 C 4.86 g/m*3 4.5 C 0 km/h
1783 12-12-2003 17:30:01 4.4 C 4.9 g/m*3 4.4 C 0 km/h
1784 12-12-2003 17:41:01 4.3 C 4.86 g/m*3 4.3 C 0 km/h
1785 12-12-2003 17:53:01 4.3 C 4.93 g/m*3 4.3 C 0 km/h
1786 12-12-2003 18:05:00 4.3 C 4.93 g/m*3 4.3 C 0 km/h
1787 12-12-2003 18:17:00 4.3 C 4.93 g/m*3 4.3 C 0 km/h
1788 12-12-2003 18:29:00 4.2 C 4.96 g/m*3 4.2 C 0 km/h
1789 12-12-2003 18:41:01 4.2 C 5.03 g/m*3 4.2 C 0 km/h
1790 12-12-2003 18:53:01 4.1 C 4.99 g/m*3 4.1 C 0 km/h
1791 12-12-2003 19:05:00 4.1 C 4.99 g/m*3 4.1 C 0 km/h
1792 12-12-2003 19:17:00 4 C 4.96 g/m*3 4 C 0 km/h
1793 12-12-2003 19:29:00 3.9 C 4.99 g/m*3 3.9 C 0 km/h
1794 12-12-2003 19:41:16 3.9 C 5.05 g/m*3 3.9 C 0 km/h
1795 12-12-2003 19:53:50 4 C 5.02 g/m*3 4 C 0 km/h
1796 12-12-2003 20:05:30 4 C 5.09 g/m*3 4 C 0 km/h
1797 12-12-2003 20:17:00 4.1 C 5.06 g/m*3 4.1 C 0 km/h
1798 12-12-2003 20:29:00 4.2 C 5.09 g/m*3 4.2 C 0 km/h
1799 12-12-2003 20:41:00 4.2 C 5.09 g/m*3 4.2 C 0 km/h
1800 12-12-2003 20:53:00 4.3 C 5.19 g/m*3 4.3 C 0 km/h
Sensor: Nr:Datum:Temp:Abs-Feuchte:Windchill:Wind:
Aussen-T/F 1801 12-12-2003 21:05:01 4.7 C 5.33 g/m*3 4.7 C 0 km/h
1802 12-12-2003 21:06:01 4.7 C 5.33 g/m*3 4.7 C 0 km/h
1803 12-12-2003 21:17:00 4.7 C 5.26 g/m*3 4.7 C 0 km/h
1804 12-12-2003 21:17:01 4.7 C 5.26 g/m*3 4.7 C 0 km/h
1805 12-12-2003 21:29:00 4.7 C 5.26 g/m*3 4.7 C 0 km/h
1806 12-12-2003 21:41:00 4.7 C 5.26 g/m*3 4.7 C 0 km/h
1807 12-12-2003 21:53:00 4.7 C 5.26 g/m*3 4.7 C 0 km/h
1808 12-12-2003 22:05:00 4.8 C 5.36 g/m*3 4.8 C 0 km/h
1809 12-12-2003 22:17:00 4.7 C 5.26 g/m*3 4.7 C 0 km/h
1810 12-12-2003 22:29:01 4.8 C 5.3 g/m*3 4.8 C 0 km/h
1811 12-12-2003 22:41:00 4.8 C 5.36 g/m*3 4.8 C 0 km/h
1812 12-12-2003 22:53:00 4.9 C 5.47 g/m*3 4.9 C 0 km/h
1813 12-12-2003 23:06:01 5 C 5.37 g/m*3 5 C 0 km/h
1814 12-12-2003 23:18:01 5 C 5.44 g/m*3 5 C 0 km/h
1815 12-12-2003 23:30:01 5 C 5.5 g/m*3 5 C 0 km/h
1816 12-12-2003 23:41:01 5 C 5.57 g/m*3 5 C 0 km/h
1817 12-12-2003 23:53:01 4.9 C 5.74 g/m*3 4.9 C 0 km/h
1818 13-12-2003 00:05:01 4.9 C 5.81 g/m*3 4.9 C 0 km/h
1819 13-12-2003 00:17:01 4.8 C 5.77 g/m*3 4.8 C 0 km/h
1820 13-12-2003 00:29:01 4.9 C 5.87 g/m*3 4.9 C 0 km/h
1821 13-12-2003 00:41:01 5.1 C 5.88 g/m*3 5.1 C 0 km/h
1822 13-12-2003 00:53:01 5.1 C 5.88 g/m*3 5.1 C 0 km/h
1823 13-12-2003 01:06:00 5 C 5.91 g/m*3 5 C 0 km/h
1824 13-12-2003 01:18:00 5.1 C 5.95 g/m*3 5.1 C 0 km/h
1825 13-12-2003 01:30:00 5.5 C 6.18 g/m*3 5.5 C 0 km/h
Sensor: Nr:Datum:Temp:Abs-Feuchte:Windchill:Wind:
Aussen-T/F 1826 13-12-2003 01:41:00 5.6 C 6.29 g/m*3 5.6 C 0 km/h
1827 13-12-2003 01:53:01 6.2 C 6.55 g/m*3 6.2 C 0 km/h
1828 13-12-2003 02:05:00 6.3 C 6.51 g/m*3 6.3 C 0 km/h
1829 13-12-2003 02:17:00 6.4 C 6.56 g/m*3 6.4 C 0 km/h
1830 13-12-2003 02:29:00 6.4 C 6.56 g/m*3 6.4 C 0 km/h
1831 13-12-2003 02:41:00 6 C 6.39 g/m*3 6 C 0 km/h
1832 13-12-2003 02:53:00 5.9 C 6.35 g/m*3 5.9 C 0 km/h
1833 13-12-2003 03:06:00 6 C 6.39 g/m*3 6 C 0 km/h
1834 13-12-2003 03:18:01 6.2 C 6.47 g/m*3 6.2 C 0 km/h
1835 13-12-2003 03:30:01 6.2 C 6.47 g/m*3 6.2 C 0 km/h
1836 13-12-2003 03:41:01 6.2 C 6.47 g/m*3 6.2 C 0 km/h
1837 13-12-2003 03:53:01 6.3 C 6.51 g/m*3 6.3 C 0 km/h
1838 13-12-2003 04:05:00 6.5 C 6.67 g/m*3 6.5 C 0 km/h
1839 13-12-2003 04:17:00 7 C 6.82 g/m*3 7 C 0 km/h
1840 13-12-2003 04:29:00 7.3 C 7.03 g/m*3 7.3 C 0 km/h
1841 13-12-2003 04:41:00 7.5 C 7.2 g/m*3 7.5 C 0 km/h
1842 13-12-2003 04:53:00 7.6 C 7.25 g/m*3 7.6 C 0 km/h
1843 13-12-2003 05:06:01 7.8 C 7.35 g/m*3 7.8 C 0 km/h
1844 13-12-2003 05:18:01 7.9 C 7.39 g/m*3 7.9 C 0 km/h
1845 13-12-2003 05:30:01 9 C 7.93 g/m*3 9 C 0 km/h
1846 13-12-2003 05:41:01 9.7 C 8.2 g/m*3 9.7 C 0 km/h
1847 13-12-2003 05:53:01 9.9 C 8.12 g/m*3 9.9 C 0 km/h
1848 13-12-2003 06:05:00 10 C 7.99 g/m*3 10 C 0 km/h
1849 13-12-2003 06:17:00 10.2 C 7.99 g/m*3 10.2 C 0 km/h
1850 13-12-2003 06:29:00 10.5 C 8.05 g/m*3 10.5 C 0 km/h
Sensor: Nr:Datum:Temp:Abs-Feuchte:Windchill:Wind:
Aussen-T/F 1851 13-12-2003 06:41:00 10.6 C 8 g/m*3 10.6 C 0 km/h
1852 13-12-2003 06:53:00 10.7 C 8.05 g/m*3 10.7 C 0 km/h
1853 13-12-2003 07:06:00 10.7 C 8.05 g/m*3 10.7 C 0 km/h
1854 13-12-2003 07:18:01 10.7 C 7.96 g/m*3 10.7 C 0 km/h
1855 13-12-2003 07:30:01 10.9 C 7.96 g/m*3 10.9 C 0 km/h
1856 13-12-2003 07:41:01 11 C 7.91 g/m*3 11 C 0 km/h
1857 13-12-2003 07:53:01 11 C 7.81 g/m*3 11 C 0 km/h
1858 13-12-2003 08:05:00 11 C 7.91 g/m*3 11 C 0 km/h
1859 13-12-2003 08:17:00 11.1 C 7.86 g/m*3 11.1 C 0 km/h
1860 13-12-2003 08:29:00 11.2 C 7.8 g/m*3 11.2 C 0 km/h
1861 13-12-2003 08:41:00 11.4 C 7.9 g/m*3 11.4 C 0 km/h
1862 13-12-2003 08:53:00 11.5 C 7.85 g/m*3 11.5 C 0 km/h
1863 13-12-2003 09:06:01 11.6 C 7.8 g/m*3 11.6 C 0 km/h
1864 13-12-2003 09:18:01 11.6 C 7.8 g/m*3 11.6 C 0 km/h
1865 13-12-2003 09:30:01 11.6 C 7.8 g/m*3 11.6 C 0 km/h
1866 13-12-2003 09:41:00 11.6 C 7.8 g/m*3 11.6 C 0 km/h
1867 13-12-2003 09:53:00 11.5 C 7.75 g/m*3 11.5 C 0 km/h
1868 13-12-2003 10:05:00 11.7 C 7.74 g/m*3 11.7 C 0 km/h
1869 13-12-2003 10:17:00 11.6 C 7.69 g/m*3 11.6 C 0 km/h
1870 13-12-2003 10:29:00 11.3 C 7.75 g/m*3 11.3 C 0 km/h
1871 13-12-2003 10:41:00 11.2 C 7.8 g/m*3 11.2 C 0 km/h
1872 13-12-2003 10:53:00 11.4 C 7.8 g/m*3 11.4 C 0 km/h
1873 13-12-2003 11:06:01 11.6 C 7.8 g/m*3 11.6 C 0 km/h
1874 13-12-2003 11:17:00 11.6 C 7.69 g/m*3 11.6 C 0 km/h
1875 13-12-2003 11:18:01 11.6 C 7.69 g/m*3 11.6 C 0 km/h
Sensor: Nr:Datum:Temp:Abs-Feuchte:Windchill:Wind:
Aussen-T/F 1876 13-12-2003 11:29:00 11.7 C 7.74 g/m*3 11.7 C 0 km/h
1877 13-12-2003 11:41:01 11.6 C 7.69 g/m*3 11.6 C 0 km/h
1878 13-12-2003 11:53:01 11.7 C 7.74 g/m*3 11.7 C 0 km/h
1879 13-12-2003 12:05:01 11.7 C 7.74 g/m*3 11.7 C 0 km/h
1880 13-12-2003 12:17:01 11.7 C 7.74 g/m*3 11.7 C 0 km/h
1881 13-12-2003 12:29:01 11.8 C 7.79 g/m*3 11.8 C 0 km/h
1882 13-12-2003 12:41:01 12 C 7.67 g/m*3 12 C 0 km/h
1883 13-12-2003 12:53:01 12 C 7.67 g/m*3 12 C 0 km/h
1884 13-12-2003 13:06:00 12 C 7.67 g/m*3 12 C 0 km/h
1885 13-12-2003 13:18:00 12 C 7.78 g/m*3 12 C 0 km/h
1886 13-12-2003 13:30:00 11.9 C 7.84 g/m*3 11.9 C 0 km/h
1887 13-12-2003 13:41:00 11.7 C 7.84 g/m*3 11.7 C 0 km/h
1888 13-12-2003 13:41:01 11.7 C 7.84 g/m*3 11.7 C 0 km/h
1889 13-12-2003 13:53:00 11.8 C 7.89 g/m*3 11.8 C 0 km/h
1890 13-12-2003 14:05:00 11.8 C 7.89 g/m*3 11.8 C 0 km/h
1891 13-12-2003 14:17:00 12.4 C 8.09 g/m*3 12.4 C 0 km/h
1892 13-12-2003 14:29:00 12 C 7.89 g/m*3 12 C 0 km/h
1893 13-12-2003 14:41:00 12.1 C 7.83 g/m*3 12.1 C 0 km/h
1894 13-12-2003 14:53:00 12.2 C 7.77 g/m*3 12.2 C 0 km/h
1895 13-12-2003 15:06:01 12.2 C 7.77 g/m*3 12.2 C 0 km/h
1896 13-12-2003 15:18:01 12.2 C 7.88 g/m*3 12.2 C 0 km/h
1897 13-12-2003 15:30:01 12.2 C 7.88 g/m*3 12.2 C 0 km/h
1898 13-12-2003 15:41:01 12.2 C 7.88 g/m*3 12.2 C 0 km/h
1899 13-12-2003 15:53:01 12.1 C 7.94 g/m*3 12.1 C 0 km/h
1900 13-12-2003 16:05:00 12 C 7.99 g/m*3 12 C 0 km/h
Sensor: Nr:Datum:Temp:Abs-Feuchte:Windchill:Wind:
Aussen-T/F 1901 13-12-2003 16:17:00 12 C 7.99 g/m*3 12 C 0 km/h
1902 13-12-2003 16:29:00 11.8 C 8.1 g/m*3 11.8 C 0 km/h
1903 13-12-2003 16:41:00 11.6 C 8.11 g/m*3 11.6 C 0 km/h
1904 13-12-2003 16:53:00 11.5 C 8.16 g/m*3 11.5 C 0 km/h
1905 13-12-2003 17:06:01 11.6 C 8.11 g/m*3 11.6 C 0 km/h
1906 13-12-2003 17:18:01 11.7 C 8.05 g/m*3 11.7 C 0 km/h
1907 13-12-2003 17:30:01 11.9 C 7.84 g/m*3 11.9 C 0 km/h
1908 13-12-2003 17:41:01 12 C 7.78 g/m*3 12 C 0 km/h
1909 13-12-2003 17:53:01 12.2 C 7.66 g/m*3 12.2 C 0 km/h
1910 13-12-2003 18:05:01 12.2 C 7.55 g/m*3 12.2 C 0 km/h
1911 13-12-2003 18:17:01 12.2 C 7.55 g/m*3 12.2 C 0 km/h
1912 13-12-2003 18:29:01 12.2 C 7.55 g/m*3 12.2 C 0 km/h
1913 13-12-2003 18:41:00 12.1 C 7.51 g/m*3 12.1 C 0 km/h
1914 13-12-2003 18:53:00 12.1 C 7.61 g/m*3 12.1 C 0 km/h
1915 13-12-2003 19:05:01 12 C 7.57 g/m*3 12 C 0 km/h
1916 13-12-2003 19:17:01 12 C 7.57 g/m*3 12 C 0 km/h
1917 13-12-2003 19:29:01 12.4 C 7.87 g/m*3 12.4 C 0 km/h
1918 13-12-2003 19:41:01 11.7 C 7.84 g/m*3 11.7 C 0 km/h
1919 13-12-2003 19:53:01 11.4 C 7.9 g/m*3 11.4 C 0 km/h
1920 13-12-2003 20:05:01 11.5 C 7.85 g/m*3 11.5 C 0 km/h
1921 13-12-2003 20:17:01 11.8 C 7.79 g/m*3 11.8 C 0 km/h
1922 13-12-2003 20:29:01 11.8 C 7.79 g/m*3 11.8 C 0 km/h
1923 13-12-2003 20:41:00 11.9 C 7.73 g/m*3 11.9 C 0 km/h
1924 13-12-2003 20:53:00 12 C 7.57 g/m*3 12 C 0 km/h
1925 13-12-2003 21:05:00 12 C 7.57 g/m*3 12 C 0 km/h
Sensor: Nr:Datum:Temp:Abs-Feuchte:Windchill:Wind:
Aussen-T/F 1926 13-12-2003 21:17:00 12.1 C 7.51 g/m*3 12.1 C 0 km/h
1927 13-12-2003 21:29:00 12.3 C 7.49 g/m*3 12.3 C 0 km/h
1928 13-12-2003 21:41:00 12.1 C 7.51 g/m*3 12.1 C 0 km/h
1929 13-12-2003 21:53:00 12.2 C 7.55 g/m*3 12.2 C 0 km/h
1930 13-12-2003 22:06:01 12.2 C 7.55 g/m*3 12.2 C 0 km/h
1931 13-12-2003 22:18:01 11.6 C 7.8 g/m*3 11.6 C 0 km/h
1932 13-12-2003 22:30:01 11.1 C 7.86 g/m*3 11.1 C 0 km/h
1933 13-12-2003 22:41:01 10.9 C 8.06 g/m*3 10.9 C 0 km/h
1934 13-12-2003 22:53:01 10.9 C 8.06 g/m*3 10.9 C 0 km/h
1935 13-12-2003 23:05:00 10.7 C 8.05 g/m*3 10.7 C 0 km/h
1936 13-12-2003 23:17:00 10.7 C 8.05 g/m*3 10.7 C 0 km/h
1937 13-12-2003 23:29:00 10.8 C 8.11 g/m*3 10.8 C 0 km/h
1938 13-12-2003 23:41:01 11 C 8.01 g/m*3 11 C 0 km/h
1939 13-12-2003 23:53:01 11.1 C 7.96 g/m*3 11.1 C 0 km/h
1940 14-12-2003 00:05:01 10.9 C 7.96 g/m*3 10.9 C 0 km/h
1941 14-12-2003 00:17:01 11 C 8.01 g/m*3 11 C 0 km/h
1942 14-12-2003 00:29:01 10.8 C 8.01 g/m*3 10.8 C 0 km/h
1943 14-12-2003 00:41:00 10.8 C 8.01 g/m*3 10.8 C 0 km/h
1944 14-12-2003 00:53:00 11 C 7.91 g/m*3 11 C 0 km/h
1945 14-12-2003 01:05:00 11 C 7.81 g/m*3 11 C 0 km/h
1946 14-12-2003 01:17:00 11.2 C 7.5 g/m*3 11.2 C 0 km/h
1947 14-12-2003 01:29:00 11.1 C 7.35 g/m*3 11.1 C 0 km/h
1948 14-12-2003 01:41:00 11.1 C 7.25 g/m*3 11.1 C 0 km/h
1949 14-12-2003 01:53:00 11.2 C 7.2 g/m*3 11.2 C 0 km/h
1950 14-12-2003 02:06:01 11 C 7.21 g/m*3 11 C 0 km/h
Sensor: Nr:Datum:Temp:Abs-Feuchte:Windchill:Wind:
Aussen-T/F 1951 14-12-2003 02:18:01 11 C 7.21 g/m*3 11 C 0 km/h
1952 14-12-2003 02:30:01 10.8 C 7.31 g/m*3 10.8 C 0 km/h
1953 14-12-2003 02:41:01 10.6 C 7.42 g/m*3 10.6 C 0 km/h
1954 14-12-2003 02:53:01 10.4 C 7.42 g/m*3 10.4 C 0 km/h
1955 14-12-2003 03:05:00 10 C 7.33 g/m*3 10 C 0 km/h
1956 14-12-2003 03:17:00 9.9 C 7.38 g/m*3 9.9 C 0 km/h
1957 14-12-2003 03:29:00 10 C 7.33 g/m*3 10 C 0 km/h
1958 14-12-2003 03:41:00 10.5 C 7.08 g/m*3 10.5 C 0 km/h
1959 14-12-2003 03:53:00 10.6 C 6.83 g/m*3 10.6 C 0 km/h
1960 14-12-2003 04:06:01 10.6 C 6.34 g/m*3 10.6 C 0 km/h
1961 14-12-2003 04:18:01 10.2 C 6.28 g/m*3 10.2 C 0 km/h
1962 14-12-2003 04:30:01 10.1 C 5.96 g/m*3 10.1 C 0 km/h
1963 14-12-2003 04:41:00 9.8 C 5.94 g/m*3 9.8 C 0 km/h
1964 14-12-2003 04:41:01 9.8 C 5.94 g/m*3 9.8 C 0 km/h
1965 14-12-2003 04:53:00 9.6 C 5.86 g/m*3 9.6 C 0 km/h
1966 14-12-2003 05:05:00 9.3 C 5.84 g/m*3 9.3 C 0 km/h
1967 14-12-2003 05:17:00 9.3 C 6.02 g/m*3 9.3 C 0 km/h
1968 14-12-2003 05:29:01 9.4 C 6.06 g/m*3 9.4 C 0 km/h
1969 14-12-2003 05:41:00 9.3 C 6.11 g/m*3 9.3 C 0 km/h
1970 14-12-2003 05:53:01 8.7 C 6.31 g/m*3 8.7 C 0 km/h
1971 14-12-2003 06:05:00 8.4 C 6.45 g/m*3 8.4 C 0 km/h
1972 14-12-2003 06:17:00 8 C 6.12 g/m*3 8 C 0 km/h
1973 14-12-2003 06:29:00 7.8 C 5.79 g/m*3 7.8 C 0 km/h
1974 14-12-2003 06:41:00 7.8 C 5.55 g/m*3 7.8 C 0 km/h
1975 14-12-2003 06:53:00 7.7 C 5.51 g/m*3 7.7 C 0 km/h
Sensor: Nr:Datum:Temp:Abs-Feuchte:Windchill:Wind:
Aussen-T/F 1976 14-12-2003 07:06:01 7.7 C 5.35 g/m*3 7.7 C 0 km/h
1977 14-12-2003 07:18:01 7.8 C 5.39 g/m*3 7.8 C 0 km/h
1978 14-12-2003 07:30:01 7.7 C 5.35 g/m*3 7.7 C 0 km/h
1979 14-12-2003 07:41:01 7.5 C 5.2 g/m*3 7.5 C 0 km/h
1980 14-12-2003 07:53:01 7.4 C 5.25 g/m*3 7.4 C 0 km/h
1981 14-12-2003 08:05:00 6.7 C 5.24 g/m*3 6.7 C 0 km/h
1982 14-12-2003 08:17:00 6.7 C 5.32 g/m*3 6.7 C 0 km/h
1983 14-12-2003 08:29:00 6.4 C 5.07 g/m*3 6.4 C 0 km/h
1984 14-12-2003 08:41:00 6.5 C 5.17 g/m*3 6.5 C 0 km/h
1985 14-12-2003 08:41:01 6.5 C 5.17 g/m*3 6.5 C 0 km/h
1986 14-12-2003 08:53:00 6.6 C 5.13 g/m*3 6.6 C 0 km/h
1987 14-12-2003 09:05:00 6.8 C 5.12 g/m*3 6.8 C 0 km/h
1988 14-12-2003 09:17:00 6.9 C 5.16 g/m*3 6.9 C 0 km/h
1989 14-12-2003 09:29:00 7 C 5.04 g/m*3 7 C 0 km/h
1990 14-12-2003 09:41:00 7 C 4.96 g/m*3 7 C 0 km/h
1991 14-12-2003 09:53:00 7.1 C 4.84 g/m*3 7.1 C 0 km/h
1992 14-12-2003 10:06:00 7.1 C 4.76 g/m*3 7.1 C 0 km/h
1993 14-12-2003 10:18:01 7.3 C 4.74 g/m*3 7.3 C 0 km/h
1994 14-12-2003 10:30:01 7.5 C 4.72 g/m*3 7.5 C 0 km/h
1995 14-12-2003 10:41:00 7.5 C 4.8 g/m*3 7.5 C 0 km/h
1996 14-12-2003 10:53:00 7.3 C 4.82 g/m*3 7.3 C 0 km/h
1997 14-12-2003 11:05:00 6.9 C 5.08 g/m*3 6.9 C 0 km/h
1998 14-12-2003 11:17:00 6.9 C 5.08 g/m*3 6.9 C 0 km/h
1999 14-12-2003 11:29:00 7.1 C 4.99 g/m*3 7.1 C 0 km/h
2000 14-12-2003 11:41:00 7 C 4.88 g/m*3 7 C 0 km/h
Sensor: Nr:Datum:Temp:Abs-Feuchte:Windchill:Wind:
Aussen-T/F 2001 14-12-2003 11:53:00 6.8 C 5.05 g/m*3 6.8 C 0 km/h
2002 14-12-2003 12:05:01 7.1 C 5.07 g/m*3 7.1 C 0 km/h
2003 14-12-2003 12:17:01 7.4 C 4.93 g/m*3 7.4 C 0 km/h
2004 14-12-2003 12:29:01 7.3 C 4.82 g/m*3 7.3 C 0 km/h
2005 14-12-2003 12:41:00 7.4 C 4.85 g/m*3 7.4 C 0 km/h
2006 14-12-2003 12:53:00 7.4 C 4.85 g/m*3 7.4 C 0 km/h
2007 14-12-2003 13:06:00 7.5 C 4.8 g/m*3 7.5 C 0 km/h
2008 14-12-2003 13:18:01 7.6 C 4.83 g/m*3 7.6 C 0 km/h
2009 14-12-2003 13:30:01 7.6 C 4.75 g/m*3 7.6 C 0 km/h
2010 14-12-2003 13:41:00 7.8 C 4.65 g/m*3 7.8 C 0 km/h
2011 14-12-2003 13:53:00 7.8 C 4.57 g/m*3 7.8 C 0 km/h
2012 14-12-2003 14:05:00 7.7 C 4.54 g/m*3 7.7 C 0 km/h
2013 14-12-2003 14:17:00 7.8 C 4.57 g/m*3 7.8 C 0 km/h
2014 14-12-2003 14:29:00 7.8 C 4.65 g/m*3 7.8 C 0 km/h
2015 14-12-2003 14:41:01 7.8 C 4.65 g/m*3 7.8 C 0 km/h
2016 14-12-2003 14:53:00 7.8 C 4.57 g/m*3 7.8 C 0 km/h
2017 14-12-2003 14:53:01 7.8 C 4.57 g/m*3 7.8 C 0 km/h
2018 14-12-2003 15:05:00 7.8 C 4.57 g/m*3 7.8 C 0 km/h
2019 14-12-2003 15:17:00 7.7 C 4.62 g/m*3 7.7 C 0 km/h
2020 14-12-2003 15:29:00 7.6 C 4.59 g/m*3 7.6 C 0 km/h
2021 14-12-2003 15:41:00 7.6 C 4.67 g/m*3 7.6 C 0 km/h
2022 14-12-2003 15:53:00 7.4 C 4.61 g/m*3 7.4 C 0 km/h
2023 14-12-2003 16:06:00 7.1 C 4.52 g/m*3 7.1 C 0 km/h
2024 14-12-2003 16:18:01 7.3 C 4.58 g/m*3 7.3 C 0 km/h
2025 14-12-2003 16:30:01 6.9 C 4.54 g/m*3 6.9 C 0 km/h
Sensor: Nr:Datum:Temp:Abs-Feuchte:Windchill:Wind:
Aussen-T/F 2026 14-12-2003 16:41:01 6.7 C 4.64 g/m*3 6.7 C 0 km/h
2027 14-12-2003 16:53:01 6.6 C 4.6 g/m*3 6.6 C 0 km/h
2028 14-12-2003 17:05:00 6.3 C 4.59 g/m*3 6.3 C 0 km/h
2029 14-12-2003 17:17:00 6.2 C 4.63 g/m*3 6.2 C 0 km/h
2030 14-12-2003 17:29:00 6 C 4.57 g/m*3 6 C 0 km/h
2031 14-12-2003 17:41:00 6 C 4.57 g/m*3 6 C 0 km/h
2032 14-12-2003 17:53:00 6 C 4.5 g/m*3 6 C 0 km/h
2033 14-12-2003 18:06:01 5.9 C 4.69 g/m*3 5.9 C 0 km/h
2034 14-12-2003 18:18:01 5.9 C 4.76 g/m*3 5.9 C 0 km/h
2035 14-12-2003 18:30:01 5.9 C 4.76 g/m*3 5.9 C 0 km/h
2036 14-12-2003 18:41:00 6.2 C 4.71 g/m*3 6.2 C 0 km/h
2037 14-12-2003 18:53:00 5.9 C 4.76 g/m*3 5.9 C 0 km/h
2038 14-12-2003 19:05:01 5.9 C 4.83 g/m*3 5.9 C 0 km/h
2039 14-12-2003 19:17:01 6 C 4.79 g/m*3 6 C 0 km/h
2040 14-12-2003 19:29:01 6.1 C 4.89 g/m*3 6.1 C 0 km/h
2041 14-12-2003 19:41:00 6.1 C 4.89 g/m*3 6.1 C 0 km/h
2042 14-12-2003 19:53:00 6.1 C 4.89 g/m*3 6.1 C 0 km/h
2043 14-12-2003 20:06:01 6.3 C 4.81 g/m*3 6.3 C 0 km/h
2044 14-12-2003 20:17:00 6.5 C 4.8 g/m*3 6.5 C 0 km/h
2045 14-12-2003 20:18:01 6.5 C 4.8 g/m*3 6.5 C 0 km/h
2046 14-12-2003 20:29:00 6.8 C 4.82 g/m*3 6.8 C 0 km/h
2047 14-12-2003 20:41:01 6.7 C 4.86 g/m*3 6.7 C 0 km/h
2048 14-12-2003 20:53:01 6.8 C 4.82 g/m*3 6.8 C 0 km/h
2049 14-12-2003 21:05:00 6.7 C 4.86 g/m*3 6.7 C 0 km/h
2050 14-12-2003 21:17:00 6.6 C 4.76 g/m*3 6.6 C 0 km/h
Sensor: Nr:Datum:Temp:Abs-Feuchte:Windchill:Wind:
Aussen-T/F 2051 14-12-2003 21:29:00 6.3 C 4.74 g/m*3 6.3 C 0 km/h
2052 14-12-2003 21:41:01 6.2 C 4.78 g/m*3 6.2 C 0 km/h
2053 14-12-2003 21:53:01 5.9 C 4.9 g/m*3 5.9 C 0 km/h
2054 14-12-2003 22:05:00 5.8 C 4.87 g/m*3 5.8 C 0 km/h
2055 14-12-2003 22:17:00 5.6 C 4.81 g/m*3 5.6 C 0 km/h
2056 14-12-2003 22:29:00 5.6 C 4.81 g/m*3 5.6 C 0 km/h
2057 14-12-2003 22:41:00 5.6 C 4.81 g/m*3 5.6 C 0 km/h
2058 14-12-2003 22:53:00 5.6 C 4.81 g/m*3 5.6 C 0 km/h
2059 14-12-2003 23:06:01 6.3 C 4.74 g/m*3 6.3 C 0 km/h
2060 14-12-2003 23:18:01 6.4 C 4.69 g/m*3 6.4 C 0 km/h
2061 14-12-2003 23:30:01 6.3 C 4.66 g/m*3 6.3 C 0 km/h
2062 14-12-2003 23:41:01 6.3 C 4.66 g/m*3 6.3 C 0 km/h
2063 14-12-2003 23:53:01 6.7 C 4.71 g/m*3 6.7 C 0 km/h
2064 15-12-2003 00:05:00 6.6 C 4.68 g/m*3 6.6 C 0 km/h
2065 15-12-2003 00:17:01 5.8 C 5.09 g/m*3 5.8 C 0 km/h
2066 15-12-2003 00:29:01 5.5 C 5.27 g/m*3 5.5 C 0 km/h
2067 15-12-2003 00:41:00 5.1 C 5.27 g/m*3 5.1 C 0 km/h
2068 15-12-2003 00:53:01 4.9 C 5.27 g/m*3 4.9 C 0 km/h
2069 15-12-2003 01:05:00 4.9 C 5.13 g/m*3 4.9 C 0 km/h
2070 15-12-2003 01:17:00 5 C 5.1 g/m*3 5 C 0 km/h
2071 15-12-2003 01:17:01 5 C 5.1 g/m*3 5 C 0 km/h
2072 15-12-2003 01:29:01 5 C 5.03 g/m*3 5 C 0 km/h
2073 15-12-2003 01:41:01 4.8 C 5.03 g/m*3 4.8 C 0 km/h
2074 15-12-2003 01:53:01 2.9 C 4.67 g/m*3 2.9 C 0 km/h
2075 15-12-2003 02:05:00 2.8 C 4.81 g/m*3 2.8 C 0 km/h
Sensor: Nr:Datum:Temp:Abs-Feuchte:Windchill:Wind:
Aussen-T/F 2076 15-12-2003 02:17:00 2.9 C 4.9 g/m*3 2.9 C 0 km/h
2077 15-12-2003 02:29:00 3.2 C 4.94 g/m*3 3.2 C 0 km/h
2078 15-12-2003 02:41:00 3.3 C 4.91 g/m*3 3.3 C 0 km/h
2079 15-12-2003 02:53:00 3.2 C 4.82 g/m*3 3.2 C 0 km/h
2080 15-12-2003 03:06:01 3.1 C 4.73 g/m*3 3.1 C 0 km/h
2081 15-12-2003 03:18:01 2.8 C 4.75 g/m*3 2.8 C 0 km/h
2082 15-12-2003 03:30:01 2.6 C 4.69 g/m*3 2.6 C 0 km/h
2083 15-12-2003 03:41:01 2.4 C 4.62 g/m*3 2.4 C 0 km/h
2084 15-12-2003 03:53:01 2.1 C 4.42 g/m*3 2.1 C 0 km/h
2085 15-12-2003 04:05:00 1.6 C 4.49 g/m*3 1.6 C 0 km/h
2086 15-12-2003 04:17:00 1.2 C 4.21 g/m*3 1.2 C 0 km/h
2087 15-12-2003 04:29:00 1.1 C 4.23 g/m*3 1.1 C 0 km/h
2088 15-12-2003 04:41:01 1.5 C 4.3 g/m*3 1.5 C 0 km/h
2089 15-12-2003 04:53:01 2 C 4.28 g/m*3 2 C 0 km/h
2090 15-12-2003 05:05:00 1.8 C 4.28 g/m*3 1.8 C 0 km/h
2091 15-12-2003 05:17:00 2.1 C 4.31 g/m*3 2.1 C 0 km/h
2092 15-12-2003 05:29:00 2.3 C 4.2 g/m*3 2.3 C 0 km/h
2093 15-12-2003 05:41:00 2.2 C 4.06 g/m*3 2.2 C 0 km/h
2094 15-12-2003 05:53:00 2.2 C 4 g/m*3 2.2 C 0 km/h
2095 15-12-2003 06:06:01 2 C 3.83 g/m*3 2 C 0 km/h
2096 15-12-2003 06:18:01 1.9 C 3.86 g/m*3 1.9 C 0 km/h
2097 15-12-2003 06:30:01 1.8 C 3.89 g/m*3 1.8 C 0 km/h
2098 15-12-2003 06:41:01 2.1 C 3.92 g/m*3 2.1 C 0 km/h
2099 15-12-2003 06:53:01 2.4 C 3.88 g/m*3 2.4 C 0 km/h
2100 15-12-2003 07:05:00 2.4 C 3.88 g/m*3 2.4 C 0 km/h
Sensor: Nr:Datum:Temp:Abs-Feuchte:Windchill:Wind:
Aussen-T/F 2101 15-12-2003 07:17:00 2.4 C 3.77 g/m*3 2.4 C 0 km/h
2102 15-12-2003 07:29:00 2.2 C 3.66 g/m*3 2.2 C 0 km/h
2103 15-12-2003 07:41:00 2.1 C 3.64 g/m*3 2.1 C 0 km/h
2104 15-12-2003 07:53:00 2 C 3.61 g/m*3 2 C 0 km/h
2105 15-12-2003 08:06:01 2.1 C 3.64 g/m*3 2.1 C 0 km/h
2106 15-12-2003 08:18:01 2.2 C 3.6 g/m*3 2.2 C 0 km/h
2107 15-12-2003 08:30:01 2.2 C 3.6 g/m*3 2.2 C 0 km/h
2108 15-12-2003 08:41:00 2.1 C 3.58 g/m*3 2.1 C 0 km/h
2109 15-12-2003 08:53:01 2.1 C 3.64 g/m*3 2.1 C 0 km/h
2110 15-12-2003 09:05:00 2.4 C 3.71 g/m*3 2.4 C 0 km/h
2111 15-12-2003 09:17:00 2.6 C 3.7 g/m*3 2.6 C 0 km/h
2112 15-12-2003 09:29:00 2.4 C 3.71 g/m*3 2.4 C 0 km/h
2113 15-12-2003 09:41:00 2.2 C 3.72 g/m*3 2.2 C 0 km/h
2114 15-12-2003 09:53:00 2.6 C 3.7 g/m*3 2.6 C 0 km/h
2115 15-12-2003 10:06:01 2.8 C 3.7 g/m*3 2.8 C 0 km/h
2116 15-12-2003 10:18:01 2.9 C 3.66 g/m*3 2.9 C 0 km/h
2117 15-12-2003 10:30:01 3 C 3.63 g/m*3 3 C 0 km/h
2118 15-12-2003 10:41:01 2.9 C 3.66 g/m*3 2.9 C 0 km/h
2119 15-12-2003 10:53:01 3.1 C 3.59 g/m*3 3.1 C 0 km/h
2120 15-12-2003 11:05:00 3.1 C 3.53 g/m*3 3.1 C 0 km/h
2121 15-12-2003 11:17:00 3.2 C 3.56 g/m*3 3.2 C 0 km/h
2122 15-12-2003 11:29:00 3.4 C 3.54 g/m*3 3.4 C 0 km/h
2123 15-12-2003 11:41:00 3.6 C 3.59 g/m*3 3.6 C 0 km/h
2124 15-12-2003 11:53:00 3.7 C 3.61 g/m*3 3.7 C 0 km/h
2125 15-12-2003 12:06:00 4.2 C 3.61 g/m*3 4.2 C 0 km/h
Sensor: Nr:Datum:Temp:Abs-Feuchte:Windchill:Wind:
Aussen-T/F 2126 15-12-2003 12:18:00 4.3 C 3.5 g/m*3 4.3 C 0 km/h
2127 15-12-2003 12:30:00 4.4 C 3.53 g/m*3 4.4 C 0 km/h
2128 15-12-2003 12:41:00 4.4 C 3.46 g/m*3 4.4 C 0 km/h
2129 15-12-2003 12:53:01 4.5 C 3.55 g/m*3 4.5 C 0 km/h
2130 15-12-2003 13:05:00 4.6 C 3.64 g/m*3 4.6 C 0 km/h
2131 15-12-2003 13:17:00 4.7 C 3.66 g/m*3 4.7 C 0 km/h
2132 15-12-2003 13:29:00 4.7 C 3.6 g/m*3 4.7 C 0 km/h
2133 15-12-2003 13:41:01 4.8 C 3.62 g/m*3 4.8 C 0 km/h
2134 15-12-2003 13:53:01 4.9 C 3.58 g/m*3 4.9 C 0 km/h
2135 15-12-2003 14:05:00 5 C 3.47 g/m*3 5 C 0 km/h
2136 15-12-2003 14:17:00 4.9 C 3.51 g/m*3 4.9 C 0 km/h
2137 15-12-2003 14:29:00 4.9 C 3.51 g/m*3 4.9 C 0 km/h
2138 15-12-2003 14:41:00 4.9 C 3.44 g/m*3 4.9 C 0 km/h
2139 15-12-2003 14:53:00 4.8 C 3.49 g/m*3 4.8 C 0 km/h
2140 15-12-2003 15:06:00 4.7 C 3.46 g/m*3 4.7 C 0 km/h
2141 15-12-2003 15:18:01 4.7 C 3.4 g/m*3 4.7 C 0 km/h
2142 15-12-2003 15:30:01 4.3 C 3.37 g/m*3 4.3 C 0 km/h
2143 15-12-2003 15:41:01 3.4 C 3.91 g/m*3 3.4 C 0 km/h
2144 15-12-2003 15:53:01 2.9 C 4.25 g/m*3 2.9 C 0 km/h
2145 15-12-2003 16:05:00 2.6 C 4.4 g/m*3 2.6 C 0 km/h
2146 15-12-2003 16:17:00 2.3 C 4.37 g/m*3 2.3 C 0 km/h
2147 15-12-2003 16:29:00 2.1 C 4.53 g/m*3 2.1 C 0 km/h
2148 15-12-2003 16:41:00 2.1 C 4.59 g/m*3 2.1 C 0 km/h
2149 15-12-2003 16:53:00 2.5 C 4.54 g/m*3 2.5 C 0 km/h
2150 15-12-2003 17:06:00 2.8 C 4.4 g/m*3 2.8 C 0 km/h
Sensor: Nr:Datum:Temp:Abs-Feuchte:Windchill:Wind:
Aussen-T/F 2151 15-12-2003 17:18:01 3.2 C 4.34 g/m*3 3.2 C 0 km/h
2152 15-12-2003 17:30:01 3 C 4.4 g/m*3 3 C 0 km/h
2153 15-12-2003 17:41:00 2.7 C 4.43 g/m*3 2.7 C 0 km/h
2154 15-12-2003 17:53:01 2.6 C 4.4 g/m*3 2.6 C 0 km/h
2155 15-12-2003 18:05:00 2.2 C 4.34 g/m*3 2.2 C 0 km/h
2156 15-12-2003 18:17:00 2.5 C 4.37 g/m*3 2.5 C 0 km/h
2157 15-12-2003 18:29:00 2.4 C 4.28 g/m*3 2.4 C 0 km/h
2158 15-12-2003 18:41:01 2.5 C 4.25 g/m*3 2.5 C 0 km/h
2159 15-12-2003 18:53:01 2.6 C 4.28 g/m*3 2.6 C 0 km/h
2160 15-12-2003 19:05:00 2.5 C 4.2 g/m*3 2.5 C 0 km/h
2161 15-12-2003 19:17:00 2.6 C 4.22 g/m*3 2.6 C 0 km/h
2162 15-12-2003 19:29:01 2.5 C 4.2 g/m*3 2.5 C 0 km/h
2163 15-12-2003 19:41:00 2.7 C 4.14 g/m*3 2.7 C 0 km/h
2164 15-12-2003 19:53:00 2.8 C 4.05 g/m*3 2.8 C 0 km/h
2165 15-12-2003 20:06:01 2.7 C 4.08 g/m*3 2.7 C 0 km/h
2166 15-12-2003 20:18:01 2.3 C 4.03 g/m*3 2.3 C 0 km/h
2167 15-12-2003 20:30:01 2.7 C 4.14 g/m*3 2.7 C 0 km/h
2168 15-12-2003 20:41:01 2.5 C 4.08 g/m*3 2.5 C 0 km/h
2169 15-12-2003 20:53:01 2.7 C 4.14 g/m*3 2.7 C 0 km/h
2170 15-12-2003 21:05:00 2.7 C 4.08 g/m*3 2.7 C 0 km/h
2171 15-12-2003 21:17:00 2.6 C 4.05 g/m*3 2.6 C 0 km/h
2172 15-12-2003 21:29:00 2.7 C 4.08 g/m*3 2.7 C 0 km/h
2173 15-12-2003 21:41:01 2.5 C 4.08 g/m*3 2.5 C 0 km/h
2174 15-12-2003 21:53:01 2.4 C 4.17 g/m*3 2.4 C 0 km/h
2175 15-12-2003 22:05:01 2.5 C 4.08 g/m*3 2.5 C 0 km/h
Sensor: Nr:Datum:Temp:Abs-Feuchte:Windchill:Wind:
Aussen-T/F 2176 15-12-2003 22:17:01 2.4 C 4.05 g/m*3 2.4 C 0 km/h
2177 15-12-2003 22:29:01 2.4 C 4.05 g/m*3 2.4 C 0 km/h
2178 15-12-2003 22:41:00 2.2 C 4.06 g/m*3 2.2 C 0 km/h
2179 15-12-2003 22:53:00 2.1 C 4.03 g/m*3 2.1 C 0 km/h
2180 15-12-2003 23:05:00 2 C 4 g/m*3 2 C 0 km/h
2181 15-12-2003 23:17:00 1.9 C 4.08 g/m*3 1.9 C 0 km/h
2182 15-12-2003 23:29:00 2.3 C 4.08 g/m*3 2.3 C 0 km/h
2183 15-12-2003 23:41:01 2.2 C 4 g/m*3 2.2 C 0 km/h
2184 15-12-2003 23:53:01 2 C 4 g/m*3 2 C 0 km/h
2185 16-12-2003 00:05:00 2 C 4.06 g/m*3 2 C 0 km/h
2186 16-12-2003 00:17:00 2 C 4.11 g/m*3 2 C 0 km/h
2187 16-12-2003 00:29:01 1.8 C 4.06 g/m*3 1.8 C 0 km/h
2188 16-12-2003 00:41:00 1.4 C 4 g/m*3 1.4 C 0 km/h
2189 16-12-2003 00:53:00 1.5 C 4.08 g/m*3 1.5 C 0 km/h
2190 16-12-2003 01:06:00 1.6 C 4.06 g/m*3 1.6 C 0 km/h
2191 16-12-2003 01:18:01 1.8 C 4.06 g/m*3 1.8 C 0 km/h
2192 16-12-2003 01:30:01 1.8 C 4.11 g/m*3 1.8 C 0 km/h
2193 16-12-2003 01:41:01 2 C 4.06 g/m*3 2 C 0 km/h
2194 16-12-2003 01:53:01 2.4 C 4.05 g/m*3 2.4 C 0 km/h
2195 16-12-2003 02:05:00 2.2 C 4.06 g/m*3 2.2 C 0 km/h
2196 16-12-2003 02:17:00 2.1 C 4.08 g/m*3 2.1 C 0 km/h
2197 16-12-2003 02:29:00 2 C 4.06 g/m*3 2 C 0 km/h
2198 16-12-2003 02:41:01 2.2 C 4.06 g/m*3 2.2 C 0 km/h
2199 16-12-2003 02:53:01 2.4 C 4.05 g/m*3 2.4 C 0 km/h
2200 16-12-2003 03:05:00 1.9 C 3.97 g/m*3 1.9 C 0 km/h
Sensor: Nr:Datum:Temp:Abs-Feuchte:Windchill:Wind:
Aussen-T/F 2201 16-12-2003 03:17:00 2.1 C 4.03 g/m*3 2.1 C 0 km/h
2202 16-12-2003 03:29:00 2.4 C 4.11 g/m*3 2.4 C 0 km/h
2203 16-12-2003 03:41:00 2.8 C 4.11 g/m*3 2.8 C 0 km/h
2204 16-12-2003 03:53:00 3 C 4.04 g/m*3 3 C 0 km/h
2205 16-12-2003 04:06:01 3 C 4.04 g/m*3 3 C 0 km/h
2206 16-12-2003 04:18:01 2.9 C 4.13 g/m*3 2.9 C 0 km/h
2207 16-12-2003 04:30:01 3.1 C 4.13 g/m*3 3.1 C 0 km/h
2208 16-12-2003 04:41:01 3 C 4.16 g/m*3 3 C 0 km/h
2209 16-12-2003 04:53:01 2.7 C 4.14 g/m*3 2.7 C 0 km/h
2210 16-12-2003 05:05:00 2.6 C 4.17 g/m*3 2.6 C 0 km/h
2211 16-12-2003 05:17:00 2.8 C 4.16 g/m*3 2.8 C 0 km/h
2212 16-12-2003 05:29:00 2.7 C 4.2 g/m*3 2.7 C 0 km/h
2213 16-12-2003 05:41:00 2.7 C 4.2 g/m*3 2.7 C 0 km/h
2214 16-12-2003 05:53:00 3.1 C 4.19 g/m*3 3.1 C 0 km/h
2215 16-12-2003 06:06:00 3 C 4.22 g/m*3 3 C 0 km/h
2216 16-12-2003 06:18:00 2.6 C 4.17 g/m*3 2.6 C 0 km/h
2217 16-12-2003 06:30:01 2.6 C 4.22 g/m*3 2.6 C 0 km/h
2218 16-12-2003 06:41:01 3.1 C 4.25 g/m*3 3.1 C 0 km/h
2219 16-12-2003 06:53:01 3.1 C 4.25 g/m*3 3.1 C 0 km/h
2220 16-12-2003 07:05:00 2.9 C 4.25 g/m*3 2.9 C 0 km/h
2221 16-12-2003 07:17:00 2.8 C 4.28 g/m*3 2.8 C 0 km/h
2222 16-12-2003 07:29:00 2.9 C 4.31 g/m*3 2.9 C 0 km/h
2223 16-12-2003 07:41:01 3.1 C 4.31 g/m*3 3.1 C 0 km/h
2224 16-12-2003 07:53:01 3.2 C 4.28 g/m*3 3.2 C 0 km/h
2225 16-12-2003 08:05:00 3.2 C 4.34 g/m*3 3.2 C 0 km/h
Sensor: Nr:Datum:Temp:Abs-Feuchte:Windchill:Wind:
Aussen-T/F 2226 16-12-2003 08:17:00 3.2 C 4.34 g/m*3 3.2 C 0 km/h
2227 16-12-2003 08:29:00 3.2 C 4.28 g/m*3 3.2 C 0 km/h
2228 16-12-2003 08:41:00 3.3 C 4.37 g/m*3 3.3 C 0 km/h
2229 16-12-2003 08:53:00 3.2 C 4.28 g/m*3 3.2 C 0 km/h
2230 16-12-2003 09:06:01 3.1 C 4.31 g/m*3 3.1 C 0 km/h
2231 16-12-2003 09:18:01 3.6 C 4.39 g/m*3 3.6 C 0 km/h
2232 16-12-2003 09:30:01 3.7 C 4.36 g/m*3 3.7 C 0 km/h
2233 16-12-2003 09:41:01 3.8 C 4.39 g/m*3 3.8 C 0 km/h
2234 16-12-2003 09:53:01 4 C 4.32 g/m*3 4 C 0 km/h
2235 16-12-2003 10:05:00 4.2 C 4.38 g/m*3 4.2 C 0 km/h
2236 16-12-2003 10:17:00 4.3 C 4.41 g/m*3 4.3 C 0 km/h
2237 16-12-2003 10:29:00 4.5 C 4.54 g/m*3 4.5 C 0 km/h
2238 16-12-2003 10:41:00 4.6 C 4.5 g/m*3 4.6 C 0 km/h
2239 16-12-2003 10:53:00 4.7 C 4.53 g/m*3 4.7 C 0 km/h
2240 16-12-2003 11:06:00 4.9 C 4.66 g/m*3 4.9 C 0 km/h
2241 16-12-2003 11:18:01 5.1 C 4.58 g/m*3 5.1 C 0 km/h
2242 16-12-2003 11:30:01 5.1 C 4.51 g/m*3 5.1 C 0 km/h
2243 16-12-2003 11:41:00 5.3 C 4.57 g/m*3 5.3 C 0 km/h
2244 16-12-2003 11:53:01 5.4 C 4.54 g/m*3 5.4 C 0 km/h
2245 16-12-2003 12:05:00 5.4 C 4.54 g/m*3 5.4 C 0 km/h
2246 16-12-2003 12:17:00 5.5 C 4.57 g/m*3 5.5 C 0 km/h
2247 16-12-2003 12:29:00 5.5 C 4.64 g/m*3 5.5 C 0 km/h
2248 16-12-2003 12:41:00 5.6 C 4.67 g/m*3 5.6 C 0 km/h
2249 16-12-2003 12:53:00 5.8 C 4.66 g/m*3 5.8 C 0 km/h
2250 16-12-2003 13:06:00 5.8 C 4.58 g/m*3 5.8 C 0 km/h
Sensor: Nr:Datum:Temp:Abs-Feuchte:Windchill:Wind:
Aussen-T/F 2251 16-12-2003 13:18:00 5.7 C 4.55 g/m*3 5.7 C 0 km/h
2252 16-12-2003 13:30:01 5.8 C 4.51 g/m*3 5.8 C 0 km/h
2253 16-12-2003 13:41:00 5.7 C 4.48 g/m*3 5.7 C 0 km/h
2254 16-12-2003 13:53:01 5.7 C 4.55 g/m*3 5.7 C 0 km/h
2255 16-12-2003 14:05:00 5.7 C 4.55 g/m*3 5.7 C 0 km/h
2256 16-12-2003 14:17:00 5.8 C 4.51 g/m*3 5.8 C 0 km/h
2257 16-12-2003 14:29:00 5.8 C 4.51 g/m*3 5.8 C 0 km/h
2258 16-12-2003 14:41:00 5.9 C 4.47 g/m*3 5.9 C 0 km/h
2259 16-12-2003 14:53:00 5.8 C 4.44 g/m*3 5.8 C 0 km/h
2260 16-12-2003 15:06:01 5.7 C 4.48 g/m*3 5.7 C 0 km/h
2261 16-12-2003 15:18:01 5.4 C 4.54 g/m*3 5.4 C 0 km/h
2262 16-12-2003 15:30:01 5.2 C 4.61 g/m*3 5.2 C 0 km/h
2263 16-12-2003 15:41:01 5.1 C 4.72 g/m*3 5.1 C 0 km/h
2264 16-12-2003 15:53:01 5 C 4.76 g/m*3 5 C 0 km/h
2265 16-12-2003 16:05:00 4.8 C 4.9 g/m*3 4.8 C 0 km/h
2266 16-12-2003 16:17:00 4.8 C 4.83 g/m*3 4.8 C 0 km/h
2267 16-12-2003 16:29:00 4.6 C 4.9 g/m*3 4.6 C 0 km/h
2268 16-12-2003 16:41:00 4.6 C 4.96 g/m*3 4.6 C 0 km/h
2269 16-12-2003 16:53:00 4.6 C 4.83 g/m*3 4.6 C 0 km/h
2270 16-12-2003 17:06:01 4.5 C 4.93 g/m*3 4.5 C 0 km/h
2271 16-12-2003 17:18:01 4.4 C 4.9 g/m*3 4.4 C 0 km/h
2272 16-12-2003 17:30:01 4.4 C 4.9 g/m*3 4.4 C 0 km/h
2273 16-12-2003 17:41:01 4.4 C 4.9 g/m*3 4.4 C 0 km/h
2274 16-12-2003 17:53:01 4.5 C 4.93 g/m*3 4.5 C 0 km/h
2275 16-12-2003 18:05:00 4.5 C 4.93 g/m*3 4.5 C 0 km/h
Sensor: Nr:Datum:Temp:Abs-Feuchte:Windchill:Wind:
Aussen-T/F 2276 16-12-2003 18:17:00 4.5 C 4.86 g/m*3 4.5 C 0 km/h
2277 16-12-2003 18:29:00 4.4 C 4.83 g/m*3 4.4 C 0 km/h
2278 16-12-2003 18:41:01 4.2 C 4.83 g/m*3 4.2 C 0 km/h
2279 16-12-2003 18:53:01 3.9 C 4.74 g/m*3 3.9 C 0 km/h
2280 16-12-2003 19:05:00 3.6 C 4.7 g/m*3 3.6 C 0 km/h
2281 16-12-2003 19:17:00 3.3 C 4.73 g/m*3 3.3 C 0 km/h
2282 16-12-2003 19:29:00 3.3 C 4.79 g/m*3 3.3 C 0 km/h
2283 16-12-2003 19:41:00 3.5 C 4.86 g/m*3 3.5 C 0 km/h
2284 16-12-2003 19:53:00 3.6 C 4.77 g/m*3 3.6 C 0 km/h
2285 16-12-2003 20:06:01 3.7 C 4.8 g/m*3 3.7 C 0 km/h
2286 16-12-2003 20:18:01 3.9 C 4.8 g/m*3 3.9 C 0 km/h
2287 16-12-2003 20:30:01 3.9 C 4.8 g/m*3 3.9 C 0 km/h
2288 16-12-2003 20:41:00 3.8 C 4.77 g/m*3 3.8 C 0 km/h
2289 16-12-2003 20:53:00 4.1 C 4.74 g/m*3 4.1 C 0 km/h
2290 16-12-2003 21:05:00 4.2 C 4.7 g/m*3 4.2 C 0 km/h
2291 16-12-2003 21:17:00 4.1 C 4.67 g/m*3 4.1 C 0 km/h
2292 16-12-2003 21:29:00 4.1 C 4.67 g/m*3 4.1 C 0 km/h
2293 16-12-2003 21:42:02 4.2 C 4.7 g/m*3 4.2 C 0 km/h
2294 16-12-2003 21:54:02 4.2 C 4.64 g/m*3 4.2 C 0 km/h
2295 16-12-2003 22:06:02 4.1 C 4.61 g/m*3 4.1 C 0 km/h
2296 16-12-2003 22:18:02 4.2 C 4.64 g/m*3 4.2 C 0 km/h
2297 16-12-2003 22:30:02 4.2 C 4.64 g/m*3 4.2 C 0 km/h
2298 16-12-2003 22:42:02 4.1 C 4.61 g/m*3 4.1 C 0 km/h
2299 16-12-2003 22:54:02 4.2 C 4.64 g/m*3 4.2 C 0 km/h
2300 16-12-2003 23:06:02 4.3 C 4.61 g/m*3 4.3 C 0 km/h
Sensor: Nr:Datum:Temp:Abs-Feuchte:Windchill:Wind:
Aussen-T/F 2301 16-12-2003 23:18:02 4.3 C 4.61 g/m*3 4.3 C 0 km/h
2302 16-12-2003 23:30:02 4.2 C 4.57 g/m*3 4.2 C 0 km/h
2303 16-12-2003 23:42:02 4.1 C 4.61 g/m*3 4.1 C 0 km/h
2304 16-12-2003 23:54:02 4.1 C 4.61 g/m*3 4.1 C 0 km/h
2305 17-12-2003 00:06:02 4.1 C 4.61 g/m*3 4.1 C 0 km/h
2306 17-12-2003 00:18:02 4.1 C 4.61 g/m*3 4.1 C 0 km/h
2307 17-12-2003 00:30:02 4 C 4.58 g/m*3 4 C 0 km/h
2308 17-12-2003 00:42:02 4.1 C 4.61 g/m*3 4.1 C 0 km/h
2309 17-12-2003 00:54:02 4 C 4.64 g/m*3 4 C 0 km/h
2310 17-12-2003 01:06:02 3.8 C 4.64 g/m*3 3.8 C 0 km/h
2311 17-12-2003 01:18:02 3.7 C 4.61 g/m*3 3.7 C 0 km/h
2312 17-12-2003 01:30:02 3.6 C 4.64 g/m*3 3.6 C 0 km/h
2313 17-12-2003 01:42:02 3.6 C 4.64 g/m*3 3.6 C 0 km/h
2314 17-12-2003 01:54:02 3.4 C 4.64 g/m*3 3.4 C 0 km/h
2315 17-12-2003 02:06:02 3.2 C 4.64 g/m*3 3.2 C 0 km/h
2316 17-12-2003 02:18:02 3.2 C 4.64 g/m*3 3.2 C 0 km/h
2317 17-12-2003 02:30:02 3.2 C 4.64 g/m*3 3.2 C 0 km/h
2318 17-12-2003 02:42:02 3.1 C 4.61 g/m*3 3.1 C 0 km/h
2319 17-12-2003 02:54:02 3.1 C 4.67 g/m*3 3.1 C 0 km/h
2320 17-12-2003 03:06:02 3.1 C 4.67 g/m*3 3.1 C 0 km/h
2321 17-12-2003 03:18:02 3.1 C 4.67 g/m*3 3.1 C 0 km/h
2322 17-12-2003 03:30:02 3.1 C 4.67 g/m*3 3.1 C 0 km/h
2323 17-12-2003 03:42:02 3.1 C 4.61 g/m*3 3.1 C 0 km/h
2324 17-12-2003 03:54:02 3.1 C 4.61 g/m*3 3.1 C 0 km/h
2325 17-12-2003 04:06:02 3 C 4.58 g/m*3 3 C 0 km/h
Sensor: Nr:Datum:Temp:Abs-Feuchte:Windchill:Wind:
Aussen-T/F 2326 17-12-2003 04:18:02 3 C 4.64 g/m*3 3 C 0 km/h
2327 17-12-2003 04:30:02 3 C 4.64 g/m*3 3 C 0 km/h
2328 17-12-2003 04:42:02 3 C 4.64 g/m*3 3 C 0 km/h
2329 17-12-2003 04:54:02 3.1 C 4.67 g/m*3 3.1 C 0 km/h
2330 17-12-2003 05:06:02 3 C 4.64 g/m*3 3 C 0 km/h
2331 17-12-2003 05:18:02 2.8 C 4.63 g/m*3 2.8 C 0 km/h
2332 17-12-2003 05:30:02 2.7 C 4.6 g/m*3 2.7 C 0 km/h
2333 17-12-2003 05:42:02 2.6 C 4.57 g/m*3 2.6 C 0 km/h
2334 17-12-2003 05:54:02 2.6 C 4.63 g/m*3 2.6 C 0 km/h
2335 17-12-2003 06:06:02 2.5 C 4.6 g/m*3 2.5 C 0 km/h
2336 17-12-2003 06:18:02 2.5 C 4.66 g/m*3 2.5 C 0 km/h
2337 17-12-2003 06:30:02 2.5 C 4.66 g/m*3 2.5 C 0 km/h
2338 17-12-2003 06:42:02 2.6 C 4.69 g/m*3 2.6 C 0 km/h
2339 17-12-2003 06:54:02 2.6 C 4.69 g/m*3 2.6 C 0 km/h
2340 17-12-2003 07:06:02 2.6 C 4.69 g/m*3 2.6 C 0 km/h
2341 17-12-2003 07:18:02 2.6 C 4.69 g/m*3 2.6 C 0 km/h
2342 17-12-2003 07:30:02 2.6 C 4.69 g/m*3 2.6 C 0 km/h
2343 17-12-2003 07:42:00 2.6 C 4.69 g/m*3 2.6 C 0 km/h
2344 17-12-2003 07:54:00 2.5 C 4.66 g/m*3 2.5 C 0 km/h
2345 17-12-2003 08:06:58 2.5 C 4.66 g/m*3 2.5 C 0 km/h
2346 17-12-2003 08:18:58 2.4 C 4.62 g/m*3 2.4 C 0 km/h
2347 17-12-2003 08:30:58 2.5 C 4.66 g/m*3 2.5 C 0 km/h
2348 17-12-2003 08:42:01 2.4 C 4.62 g/m*3 2.4 C 0 km/h
2349 17-12-2003 08:54:01 2.5 C 4.66 g/m*3 2.5 C 0 km/h
2350 17-12-2003 09:06:01 2.5 C 4.66 g/m*3 2.5 C 0 km/h
Sensor: Nr:Datum:Temp:Abs-Feuchte:Windchill:Wind:
Aussen-T/F 2351 17-12-2003 09:18:01 2.6 C 4.69 g/m*3 2.6 C 0 km/h
2352 17-12-2003 09:30:01 2.7 C 4.72 g/m*3 2.7 C 0 km/h
2353 17-12-2003 09:42:00 2.7 C 4.72 g/m*3 2.7 C 0 km/h
2354 17-12-2003 09:54:00 2.9 C 4.78 g/m*3 2.9 C 0 km/h
2355 17-12-2003 10:06:58 3.1 C 4.79 g/m*3 3.1 C 0 km/h
2356 17-12-2003 10:18:58 3.2 C 4.76 g/m*3 3.2 C 0 km/h
2357 17-12-2003 10:30:58 3.5 C 4.86 g/m*3 3.5 C 0 km/h
2358 17-12-2003 10:42:01 3.7 C 4.92 g/m*3 3.7 C 0 km/h
2359 17-12-2003 10:54:01 4 C 4.9 g/m*3 4 C 0 km/h
2360 17-12-2003 11:06:01 4.1 C 4.8 g/m*3 4.1 C 0 km/h
2361 17-12-2003 11:18:01 4.3 C 4.8 g/m*3 4.3 C 0 km/h
2362 17-12-2003 11:30:01 4.5 C 4.8 g/m*3 4.5 C 0 km/h
2363 17-12-2003 11:42:00 4.6 C 4.76 g/m*3 4.6 C 0 km/h
2364 17-12-2003 11:54:00 4.4 C 4.77 g/m*3 4.4 C 0 km/h
2365 17-12-2003 12:06:59 4.4 C 4.83 g/m*3 4.4 C 0 km/h
2366 17-12-2003 12:18:59 4.6 C 4.9 g/m*3 4.6 C 0 km/h
2367 17-12-2003 12:30:59 4.9 C 4.93 g/m*3 4.9 C 0 km/h
2368 17-12-2003 12:42:00 5.5 C 4.99 g/m*3 5.5 C 0 km/h
2369 17-12-2003 12:54:00 6.1 C 5.04 g/m*3 6.1 C 0 km/h
2370 17-12-2003 13:06:00 6.5 C 5.1 g/m*3 6.5 C 0 km/h
2371 17-12-2003 13:18:00 6.6 C 5.13 g/m*3 6.6 C 0 km/h
2372 17-12-2003 13:30:00 6.5 C 5.02 g/m*3 6.5 C 0 km/h
2373 17-12-2003 13:42:01 6.5 C 5.02 g/m*3 6.5 C 0 km/h
2374 17-12-2003 13:54:01 6.6 C 5.06 g/m*3 6.6 C 0 km/h
2375 17-12-2003 14:06:01 6.4 C 4.84 g/m*3 6.4 C 0 km/h
Sensor: Nr:Datum:Temp:Abs-Feuchte:Windchill:Wind:
Aussen-T/F 2376 17-12-2003 14:18:01 6.4 C 4.92 g/m*3 6.4 C 0 km/h
2377 17-12-2003 14:30:01 6.4 C 4.92 g/m*3 6.4 C 0 km/h
2378 17-12-2003 14:42:01 6.3 C 4.96 g/m*3 6.3 C 0 km/h
2379 17-12-2003 14:54:01 6.3 C 5.03 g/m*3 6.3 C 0 km/h
2380 17-12-2003 15:06:01 6.2 C 5.15 g/m*3 6.2 C 0 km/h
2381 17-12-2003 15:18:01 6.2 C 5.22 g/m*3 6.2 C 0 km/h
2382 17-12-2003 15:30:01 6.2 C 5.07 g/m*3 6.2 C 0 km/h
2383 17-12-2003 15:42:00 6 C 5.08 g/m*3 6 C 0 km/h
2384 17-12-2003 15:54:00 5.6 C 5.09 g/m*3 5.6 C 0 km/h
2385 17-12-2003 16:06:58 5.3 C 4.92 g/m*3 5.3 C 0 km/h
2386 17-12-2003 16:18:58 5 C 4.82 g/m*3 5 C 0 km/h
2387 17-12-2003 16:30:58 4.7 C 4.73 g/m*3 4.7 C 0 km/h
2388 17-12-2003 16:42:01 4.4 C 4.57 g/m*3 4.4 C 0 km/h
2389 17-12-2003 16:54:01 4.3 C 4.61 g/m*3 4.3 C 0 km/h
2390 17-12-2003 17:06:01 4.2 C 4.57 g/m*3 4.2 C 0 km/h
2391 17-12-2003 17:18:01 4.1 C 4.61 g/m*3 4.1 C 0 km/h
2392 17-12-2003 17:30:01 4 C 4.64 g/m*3 4 C 0 km/h
2393 17-12-2003 17:42:00 3.9 C 4.67 g/m*3 3.9 C 0 km/h
2394 17-12-2003 17:54:00 4 C 4.64 g/m*3 4 C 0 km/h
2395 17-12-2003 18:06:58 4 C 4.7 g/m*3 4 C 0 km/h
2396 17-12-2003 18:18:58 4 C 4.7 g/m*3 4 C 0 km/h
2397 17-12-2003 18:30:58 4 C 4.7 g/m*3 4 C 0 km/h
2398 17-12-2003 18:42:01 4 C 4.7 g/m*3 4 C 0 km/h
2399 17-12-2003 18:54:01 3.9 C 4.74 g/m*3 3.9 C 0 km/h
2400 17-12-2003 19:06:01 3.9 C 4.74 g/m*3 3.9 C 0 km/h
Sensor: Nr:Datum:Temp:Abs-Feuchte:Windchill:Wind:
Aussen-T/F 2401 17-12-2003 19:18:01 3.8 C 4.71 g/m*3 3.8 C 0 km/h
2402 17-12-2003 19:30:01 3.8 C 4.71 g/m*3 3.8 C 0 km/h
2403 17-12-2003 19:42:00 3.7 C 4.67 g/m*3 3.7 C 0 km/h
2404 17-12-2003 19:54:00 3.7 C 4.74 g/m*3 3.7 C 0 km/h
2405 17-12-2003 20:06:59 3.6 C 4.7 g/m*3 3.6 C 0 km/h
2406 17-12-2003 20:18:59 3.5 C 4.67 g/m*3 3.5 C 0 km/h
2407 17-12-2003 20:30:59 3.4 C 4.7 g/m*3 3.4 C 0 km/h
2408 17-12-2003 20:42:01 3.4 C 4.64 g/m*3 3.4 C 0 km/h
2409 17-12-2003 20:54:01 3.3 C 4.61 g/m*3 3.3 C 0 km/h
2410 17-12-2003 21:06:01 3.3 C 4.61 g/m*3 3.3 C 0 km/h
2411 17-12-2003 21:18:01 3.2 C 4.58 g/m*3 3.2 C 0 km/h
2412 17-12-2003 21:30:01 3.1 C 4.55 g/m*3 3.1 C 0 km/h
2413 17-12-2003 21:42:00 3 C 4.52 g/m*3 3 C 0 km/h
2414 17-12-2003 21:54:00 2.8 C 4.52 g/m*3 2.8 C 0 km/h
2415 17-12-2003 22:07:00 2.6 C 4.46 g/m*3 2.6 C 0 km/h
2416 17-12-2003 22:19:00 2.6 C 4.46 g/m*3 2.6 C 0 km/h
2417 17-12-2003 22:31:00 2.6 C 4.51 g/m*3 2.6 C 0 km/h
2418 17-12-2003 22:43:00 2.5 C 4.43 g/m*3 2.5 C 0 km/h
2419 17-12-2003 22:55:00 2.4 C 4.4 g/m*3 2.4 C 0 km/h
2420 17-12-2003 23:07:00 2.3 C 4.37 g/m*3 2.3 C 0 km/h
2421 17-12-2003 23:19:00 2 C 4.28 g/m*3 2 C 0 km/h
2422 17-12-2003 23:31:00 1.6 C 4.22 g/m*3 1.6 C 0 km/h
2423 17-12-2003 23:43:00 1.3 C 4.19 g/m*3 1.3 C 0 km/h
2424 17-12-2003 23:55:00 1.1 C 4.13 g/m*3 1.1 C 0 km/h
2425 18-12-2003 00:07:00 0.9 C 4.12 g/m*3 0.9 C 0 km/h
Sensor: Nr:Datum:Temp:Abs-Feuchte:Windchill:Wind:
Aussen-T/F 2426 18-12-2003 00:19:00 0.7 C 4.07 g/m*3 0.7 C 0 km/h
2427 18-12-2003 00:31:00 0.6 C 4.09 g/m*3 0.6 C 0 km/h
2428 18-12-2003 00:43:00 0.4 C 4.03 g/m*3 0.4 C 0 km/h
2429 18-12-2003 00:55:00 0.3 C 4.06 g/m*3 0.3 C 0 km/h
2430 18-12-2003 01:07:00 0.2 C 4.03 g/m*3 0.2 C 0 km/h
2431 18-12-2003 01:19:00 0.1 C 4 g/m*3 0.1 C 0 km/h
2432 18-12-2003 01:31:00 -0.1 C 3.95 g/m*3 -0.1 C 0 km/h
2433 18-12-2003 01:43:00 -0.3 C 3.89 g/m*3 -0.3 C 0 km/h
2434 18-12-2003 01:55:00 -0.2 C 3.92 g/m*3 -0.2 C 0 km/h
2435 18-12-2003 02:07:00 -0.6 C 3.81 g/m*3 -0.6 C 0 km/h
2436 18-12-2003 02:19:00 -0.4 C 3.91 g/m*3 -0.4 C 0 km/h
2437 18-12-2003 02:31:00 -0.6 C 3.86 g/m*3 -0.6 C 0 km/h
2438 18-12-2003 02:43:00 -0.8 C 3.8 g/m*3 -0.8 C 0 km/h
2439 18-12-2003 02:55:00 -0.9 C 3.82 g/m*3 -0.9 C 0 km/h
2440 18-12-2003 03:07:00 -1 C 3.8 g/m*3 -1 C 0 km/h
2441 18-12-2003 03:19:00 -0.9 C 3.82 g/m*3 -0.9 C 0 km/h
2442 18-12-2003 03:31:00 -1 C 3.84 g/m*3 -1 C 0 km/h
2443 18-12-2003 03:43:00 -1.1 C 3.77 g/m*3 -1.1 C 0 km/h
2444 18-12-2003 03:55:00 -1.1 C 3.82 g/m*3 -1.1 C 0 km/h
2445 18-12-2003 04:07:00 -1.2 C 3.79 g/m*3 -1.2 C 0 km/h
2446 18-12-2003 04:19:00 -1.4 C 3.69 g/m*3 -1.4 C 0 km/h
2447 18-12-2003 04:31:00 -1.5 C 3.67 g/m*3 -1.5 C 0 km/h
2448 18-12-2003 04:43:00 -1.4 C 3.74 g/m*3 -1.4 C 0 km/h
2449 18-12-2003 04:55:00 -1.6 C 3.68 g/m*3 -1.6 C 0 km/h
2450 18-12-2003 05:07:00 -1.6 C 3.68 g/m*3 -1.6 C 0 km/h
Sensor: Nr:Datum:Temp:Abs-Feuchte:Windchill:Wind:
Aussen-T/F 2451 18-12-2003 05:19:00 -1.6 C 3.68 g/m*3 -1.6 C 0 km/h
2452 18-12-2003 05:31:00 -1.7 C 3.66 g/m*3 -1.7 C 0 km/h
2453 18-12-2003 05:43:00 -1.7 C 3.66 g/m*3 -1.7 C 0 km/h
2454 18-12-2003 05:55:00 -1.8 C 3.63 g/m*3 -1.8 C 0 km/h
2455 18-12-2003 06:07:00 -2 C 3.58 g/m*3 -2 C 0 km/h
2456 18-12-2003 06:19:00 -2.1 C 3.56 g/m*3 -2.1 C 0 km/h
2457 18-12-2003 06:31:00 -2.1 C 3.56 g/m*3 -2.1 C 0 km/h
2458 18-12-2003 06:43:00 -2.3 C 3.51 g/m*3 -2.3 C 0 km/h
2459 18-12-2003 06:55:00 -2 C 3.58 g/m*3 -2 C 0 km/h
2460 18-12-2003 07:07:00 -2 C 3.63 g/m*3 -2 C 0 km/h
2461 18-12-2003 07:19:00 -1.9 C 3.65 g/m*3 -1.9 C 0 km/h
2462 18-12-2003 07:31:00 -1.8 C 3.68 g/m*3 -1.8 C 0 km/h
2463 18-12-2003 07:43:00 -1.9 C 3.69 g/m*3 -1.9 C 0 km/h
2464 18-12-2003 07:55:00 -1.9 C 3.69 g/m*3 -1.9 C 0 km/h
2465 18-12-2003 08:07:00 -1.9 C 3.69 g/m*3 -1.9 C 0 km/h
2466 18-12-2003 08:19:00 -1.8 C 3.72 g/m*3 -1.8 C 0 km/h
2467 18-12-2003 08:31:00 -1.8 C 3.72 g/m*3 -1.8 C 0 km/h
2468 18-12-2003 08:43:00 -1.8 C 3.76 g/m*3 -1.8 C 0 km/h
2469 18-12-2003 08:55:00 -1.7 C 3.79 g/m*3 -1.7 C 0 km/h
2470 18-12-2003 09:07:00 -1.7 C 3.79 g/m*3 -1.7 C 0 km/h
2471 18-12-2003 09:19:00 -1.7 C 3.79 g/m*3 -1.7 C 0 km/h
2472 18-12-2003 09:31:00 -1.7 C 3.79 g/m*3 -1.7 C 0 km/h
2473 18-12-2003 09:43:00 -1.7 C 3.79 g/m*3 -1.7 C 0 km/h
2474 18-12-2003 09:55:00 -1.6 C 3.81 g/m*3 -1.6 C 0 km/h
2475 18-12-2003 10:07:59 -1.7 C 3.79 g/m*3 -1.7 C 0 km/h
Sensor: Nr:Datum:Temp:Abs-Feuchte:Windchill:Wind:
Aussen-T/F 2476 18-12-2003 10:19:59 -1.7 C 3.79 g/m*3 -1.7 C 0 km/h
2477 18-12-2003 10:31:01 -1.6 C 3.81 g/m*3 -1.6 C 0 km/h
2478 18-12-2003 10:43:01 -1.5 C 3.84 g/m*3 -1.5 C 0 km/h
2479 18-12-2003 10:55:01 -1.2 C 3.92 g/m*3 -1.2 C 0 km/h
2480 18-12-2003 11:07:02 -1.3 C 3.85 g/m*3 -1.3 C 0 km/h
2481 18-12-2003 11:19:02 -1.4 C 3.78 g/m*3 -1.4 C 0 km/h
2482 18-12-2003 11:31:02 -1.5 C 3.75 g/m*3 -1.5 C 0 km/h
2483 18-12-2003 11:43:00 -1.4 C 3.78 g/m*3 -1.4 C 0 km/h
2484 18-12-2003 11:55:00 -1.4 C 3.78 g/m*3 -1.4 C 0 km/h
2485 18-12-2003 12:07:59 -1.3 C 3.81 g/m*3 -1.3 C 0 km/h
2486 18-12-2003 12:19:59 -1.3 C 3.81 g/m*3 -1.3 C 0 km/h
2487 18-12-2003 12:31:01 -1.2 C 3.83 g/m*3 -1.2 C 0 km/h
2488 18-12-2003 12:43:01 -1 C 3.89 g/m*3 -1 C 0 km/h
2489 18-12-2003 12:55:01 -0.7 C 4.02 g/m*3 -0.7 C 0 km/h
2490 18-12-2003 13:07:01 -0.2 C 4.21 g/m*3 -0.2 C 0 km/h
2491 18-12-2003 13:19:01 -0.1 C 4.23 g/m*3 -0.1 C 0 km/h
2492 18-12-2003 13:31:01 0.3 C 4.4 g/m*3 0.3 C 0 km/h
2493 18-12-2003 13:43:00 0.2 C 4.37 g/m*3 0.2 C 0 km/h
2494 18-12-2003 13:55:00 0.3 C 4.4 g/m*3 0.3 C 0 km/h
2495 18-12-2003 14:07:59 0.4 C 4.43 g/m*3 0.4 C 0 km/h
2496 18-12-2003 14:19:59 0.6 C 4.49 g/m*3 0.6 C 0 km/h
2497 18-12-2003 14:31:01 0.8 C 4.56 g/m*3 0.8 C 0 km/h
2498 18-12-2003 14:43:01 1.1 C 4.6 g/m*3 1.1 C 0 km/h
2499 18-12-2003 14:55:01 1.5 C 4.67 g/m*3 1.5 C 0 km/h
2500 18-12-2003 15:07:00 1.4 C 4.53 g/m*3 1.4 C 0 km/h
Sensor: Nr:Datum:Temp:Abs-Feuchte:Windchill:Wind:
Aussen-T/F 2501 18-12-2003 15:19:00 1.5 C 4.51 g/m*3 1.5 C 0 km/h
2502 18-12-2003 15:31:00 1.5 C 4.4 g/m*3 1.5 C 0 km/h
2503 18-12-2003 15:43:01 1.4 C 4.32 g/m*3 1.4 C 0 km/h
2504 18-12-2003 15:55:01 1.3 C 4.29 g/m*3 1.3 C 0 km/h
2505 18-12-2003 16:07:01 1.3 C 4.24 g/m*3 1.3 C 0 km/h
2506 18-12-2003 16:19:01 1 C 4.15 g/m*3 1 C 0 km/h
2507 18-12-2003 16:31:01 0.8 C 4.1 g/m*3 0.8 C 0 km/h
2508 18-12-2003 16:43:00 0.9 C 4.12 g/m*3 0.9 C 0 km/h
2509 18-12-2003 16:55:00 1.2 C 4.05 g/m*3 1.2 C 0 km/h
2510 18-12-2003 17:07:58 0.9 C 4.02 g/m*3 0.9 C 0 km/h
2511 18-12-2003 17:19:58 0.5 C 3.96 g/m*3 0.5 C 0 km/h
2512 18-12-2003 17:31:01 0.2 C 3.93 g/m*3 0.2 C 0 km/h
2513 18-12-2003 17:43:01 0.2 C 3.98 g/m*3 0.2 C 0 km/h
2514 18-12-2003 17:55:01 0.1 C 3.95 g/m*3 0.1 C 0 km/h
2515 18-12-2003 18:07:36 -0.1 C 3.9 g/m*3 -0.1 C 0 km/h
2516 18-12-2003 18:19:01 -0.1 C 3.95 g/m*3 -0.1 C 0 km/h
2517 18-12-2003 18:31:01 0 C 3.97 g/m*3 0 C 0 km/h
2518 18-12-2003 18:43:00 -0.1 C 3.95 g/m*3 -0.1 C 0 km/h
2519 18-12-2003 18:55:00 -0.2 C 3.92 g/m*3 -0.2 C 0 km/h
2520 18-12-2003 19:07:59 -0.4 C 3.86 g/m*3 -0.4 C 0 km/h
2521 18-12-2003 19:19:59 -0.4 C 3.91 g/m*3 -0.4 C 0 km/h
2522 18-12-2003 19:31:01 -0.5 C 3.88 g/m*3 -0.5 C 0 km/h
2523 18-12-2003 19:43:01 -0.5 C 3.88 g/m*3 -0.5 C 0 km/h
2524 18-12-2003 19:55:01 -0.6 C 3.86 g/m*3 -0.6 C 0 km/h
2525 18-12-2003 20:07:23 -0.5 C 3.88 g/m*3 -0.5 C 0 km/h
Sensor: Nr:Datum:Temp:Abs-Feuchte:Windchill:Wind:
Aussen-T/F 2526 18-12-2003 20:19:23 -0.5 C 3.88 g/m*3 -0.5 C 0 km/h
2527 18-12-2003 20:31:01 -0.4 C 3.91 g/m*3 -0.4 C 0 km/h
2528 18-12-2003 20:43:00 -0.7 C 3.83 g/m*3 -0.7 C 0 km/h
2529 18-12-2003 20:55:00 -0.7 C 3.83 g/m*3 -0.7 C 0 km/h
2530 18-12-2003 21:07:58 -0.7 C 3.88 g/m*3 -0.7 C 0 km/h
2531 18-12-2003 21:19:58 -0.6 C 3.9 g/m*3 -0.6 C 0 km/h
2532 18-12-2003 21:32:00 -0.8 C 3.85 g/m*3 -0.8 C 0 km/h
2533 18-12-2003 21:44:00 -0.9 C 3.82 g/m*3 -0.9 C 0 km/h
2534 18-12-2003 21:56:00 -0.9 C 3.82 g/m*3 -0.9 C 0 km/h
2535 18-12-2003 22:08:00 -0.8 C 3.85 g/m*3 -0.8 C 0 km/h
2536 18-12-2003 22:20:00 -0.9 C 3.87 g/m*3 -0.9 C 0 km/h
2537 18-12-2003 22:32:00 -0.7 C 3.92 g/m*3 -0.7 C 0 km/h
2538 18-12-2003 22:44:00 -0.4 C 4.05 g/m*3 -0.4 C 0 km/h
2539 18-12-2003 22:56:00 -0.2 C 4.11 g/m*3 -0.2 C 0 km/h
2540 18-12-2003 23:08:00 0 C 4.17 g/m*3 0 C 0 km/h
2541 18-12-2003 23:20:00 0.1 C 4.2 g/m*3 0.1 C 0 km/h
2542 18-12-2003 23:32:00 -0.1 C 4.04 g/m*3 -0.1 C 0 km/h
2543 18-12-2003 23:44:00 -0.3 C 3.99 g/m*3 -0.3 C 0 km/h
2544 18-12-2003 23:56:00 -0.4 C 3.96 g/m*3 -0.4 C 0 km/h
2545 19-12-2003 00:08:00 -0.3 C 3.99 g/m*3 -0.3 C 0 km/h
2546 19-12-2003 00:20:00 -0.3 C 3.99 g/m*3 -0.3 C 0 km/h
2547 19-12-2003 00:32:00 -0.1 C 4.09 g/m*3 -0.1 C 0 km/h
2548 19-12-2003 00:44:00 -0.1 C 4.04 g/m*3 -0.1 C 0 km/h
2549 19-12-2003 00:56:00 -0.3 C 3.99 g/m*3 -0.3 C 0 km/h
2550 19-12-2003 01:08:00 -0.5 C 3.93 g/m*3 -0.5 C 0 km/h
Sensor: Nr:Datum:Temp:Abs-Feuchte:Windchill:Wind:
Aussen-T/F 2551 19-12-2003 01:20:00 -0.7 C 3.88 g/m*3 -0.7 C 0 km/h
2552 19-12-2003 01:32:00 -0.9 C 3.82 g/m*3 -0.9 C 0 km/h
2553 19-12-2003 01:44:00 -0.9 C 3.82 g/m*3 -0.9 C 0 km/h
2554 19-12-2003 01:56:00 -0.4 C 4.01 g/m*3 -0.4 C 0 km/h
2555 19-12-2003 02:08:00 -0.1 C 4.09 g/m*3 -0.1 C 0 km/h
2556 19-12-2003 02:20:00 0.1 C 4.15 g/m*3 0.1 C 0 km/h
2557 19-12-2003 02:32:00 0.2 C 4.13 g/m*3 0.2 C 0 km/h
2558 19-12-2003 02:44:00 0.3 C 4.16 g/m*3 0.3 C 0 km/h
2559 19-12-2003 02:56:00 0.3 C 4.11 g/m*3 0.3 C 0 km/h
2560 19-12-2003 03:08:00 0.3 C 4.11 g/m*3 0.3 C 0 km/h
2561 19-12-2003 03:20:00 0.2 C 4.08 g/m*3 0.2 C 0 km/h
2562 19-12-2003 03:32:00 0 C 4.02 g/m*3 0 C 0 km/h
2563 19-12-2003 03:44:00 -0.3 C 3.89 g/m*3 -0.3 C 0 km/h
2564 19-12-2003 03:56:00 -0.5 C 3.88 g/m*3 -0.5 C 0 km/h
2565 19-12-2003 04:08:00 -0.5 C 3.93 g/m*3 -0.5 C 0 km/h
2566 19-12-2003 04:20:00 -0.7 C 3.88 g/m*3 -0.7 C 0 km/h
2567 19-12-2003 04:32:00 -0.7 C 3.92 g/m*3 -0.7 C 0 km/h
2568 19-12-2003 04:44:00 -0.7 C 3.92 g/m*3 -0.7 C 0 km/h
2569 19-12-2003 04:56:00 -0.7 C 3.92 g/m*3 -0.7 C 0 km/h
2570 19-12-2003 05:08:00 -0.9 C 3.87 g/m*3 -0.9 C 0 km/h
2571 19-12-2003 05:20:00 -0.9 C 3.87 g/m*3 -0.9 C 0 km/h
2572 19-12-2003 05:32:00 -0.8 C 3.94 g/m*3 -0.8 C 0 km/h
2573 19-12-2003 05:44:00 -0.5 C 4.07 g/m*3 -0.5 C 0 km/h
2574 19-12-2003 05:56:00 -0.4 C 4.1 g/m*3 -0.4 C 0 km/h
2575 19-12-2003 06:08:00 -0.7 C 3.97 g/m*3 -0.7 C 0 km/h
Sensor: Nr:Datum:Temp:Abs-Feuchte:Windchill:Wind:
Aussen-T/F 2576 19-12-2003 06:20:00 -0.9 C 3.91 g/m*3 -0.9 C 0 km/h
2577 19-12-2003 06:32:00 -1 C 3.89 g/m*3 -1 C 0 km/h
2578 19-12-2003 06:44:00 -1 C 3.89 g/m*3 -1 C 0 km/h
2579 19-12-2003 06:56:00 -1.2 C 3.83 g/m*3 -1.2 C 0 km/h
2580 19-12-2003 07:08:00 -1.3 C 3.81 g/m*3 -1.3 C 0 km/h
2581 19-12-2003 07:20:00 -1.3 C 3.81 g/m*3 -1.3 C 0 km/h
2582 19-12-2003 07:32:00 -1.4 C 3.78 g/m*3 -1.4 C 0 km/h
2583 19-12-2003 07:44:00 -1.5 C 3.75 g/m*3 -1.5 C 0 km/h
2584 19-12-2003 07:56:00 -1.6 C 3.73 g/m*3 -1.6 C 0 km/h
2585 19-12-2003 08:08:00 -1.3 C 3.85 g/m*3 -1.3 C 0 km/h
2586 19-12-2003 08:20:00 -1.2 C 3.88 g/m*3 -1.2 C 0 km/h
2587 19-12-2003 08:32:00 -1.3 C 3.85 g/m*3 -1.3 C 0 km/h
2588 19-12-2003 08:44:00 -1.4 C 3.82 g/m*3 -1.4 C 0 km/h
2589 19-12-2003 08:56:00 -1.3 C 3.85 g/m*3 -1.3 C 0 km/h
2590 19-12-2003 09:08:00 -0.9 C 3.96 g/m*3 -0.9 C 0 km/h
2591 19-12-2003 09:20:00 -0.8 C 4.03 g/m*3 -0.8 C 0 km/h
2592 19-12-2003 09:32:00 -0.6 C 4.04 g/m*3 -0.6 C 0 km/h
2593 19-12-2003 09:44:00 -0.5 C 4.07 g/m*3 -0.5 C 0 km/h
2594 19-12-2003 09:56:00 0 C 4.26 g/m*3 0 C 0 km/h
2595 19-12-2003 10:08:59 0.1 C 4.29 g/m*3 0.1 C 0 km/h
2596 19-12-2003 10:20:59 0.5 C 4.36 g/m*3 0.5 C 0 km/h
2597 19-12-2003 10:32:01 0.7 C 4.37 g/m*3 0.7 C 0 km/h
2598 19-12-2003 10:44:01 0.9 C 4.38 g/m*3 0.9 C 0 km/h
2599 19-12-2003 10:56:01 1.2 C 4.37 g/m*3 1.2 C 0 km/h
2600 19-12-2003 11:08:00 1.3 C 4.34 g/m*3 1.3 C 0 km/h
Sensor: Nr:Datum:Temp:Abs-Feuchte:Windchill:Wind:
Aussen-T/F 2601 19-12-2003 11:20:00 1.3 C 4.29 g/m*3 1.3 C 0 km/h
2602 19-12-2003 11:32:01 1.7 C 4.41 g/m*3 1.7 C 0 km/h
2603 19-12-2003 11:44:01 2 C 4.39 g/m*3 2 C 0 km/h
2604 19-12-2003 11:56:01 2.2 C 4.45 g/m*3 2.2 C 0 km/h
2605 19-12-2003 12:08:01 2.5 C 4.54 g/m*3 2.5 C 0 km/h
2606 19-12-2003 12:20:01 2.3 C 4.37 g/m*3 2.3 C 0 km/h
2607 19-12-2003 12:32:00 2.4 C 4.45 g/m*3 2.4 C 0 km/h
2608 19-12-2003 12:44:00 2.3 C 4.48 g/m*3 2.3 C 0 km/h
2609 19-12-2003 12:56:00 2.1 C 4.42 g/m*3 2.1 C 0 km/h
2610 19-12-2003 13:08:00 2.4 C 4.62 g/m*3 2.4 C 0 km/h
2611 19-12-2003 13:20:00 3.4 C 4.89 g/m*3 3.4 C 0 km/h
2612 19-12-2003 13:32:01 3.7 C 4.92 g/m*3 3.7 C 0 km/h
2613 19-12-2003 13:44:01 3.8 C 4.89 g/m*3 3.8 C 0 km/h
2614 19-12-2003 13:56:01 3.6 C 4.83 g/m*3 3.6 C 0 km/h
2615 19-12-2003 14:08:01 3.7 C 4.86 g/m*3 3.7 C 0 km/h
2616 19-12-2003 14:20:01 3.9 C 4.93 g/m*3 3.9 C 0 km/h
2617 19-12-2003 14:32:01 4 C 4.83 g/m*3 4 C 0 km/h
2618 19-12-2003 14:44:01 4.2 C 4.9 g/m*3 4.2 C 0 km/h
2619 19-12-2003 14:56:01 4.5 C 4.86 g/m*3 4.5 C 0 km/h
2620 19-12-2003 15:08:01 5 C 4.96 g/m*3 5 C 0 km/h
2621 19-12-2003 15:20:01 5.6 C 5.02 g/m*3 5.6 C 0 km/h
2622 19-12-2003 15:32:00 5.6 C 4.95 g/m*3 5.6 C 0 km/h
2623 19-12-2003 15:44:00 5.8 C 5.01 g/m*3 5.8 C 0 km/h
2624 19-12-2003 15:56:00 5.9 C 4.98 g/m*3 5.9 C 0 km/h
2625 19-12-2003 16:08:59 5.8 C 4.94 g/m*3 5.8 C 0 km/h
Sensor: Nr:Datum:Temp:Abs-Feuchte:Windchill:Wind:
Aussen-T/F 2626 19-12-2003 16:20:59 5.9 C 5.05 g/m*3 5.9 C 0 km/h
2627 19-12-2003 16:32:01 6 C 5.01 g/m*3 6 C 0 km/h
2628 19-12-2003 16:44:01 5.9 C 5.05 g/m*3 5.9 C 0 km/h
2629 19-12-2003 16:56:01 5.9 C 5.05 g/m*3 5.9 C 0 km/h
2630 19-12-2003 17:08:38 5.8 C 5.16 g/m*3 5.8 C 0 km/h
2631 19-12-2003 17:20:50 5.8 C 5.09 g/m*3 5.8 C 0 km/h
2632 19-12-2003 17:32:00 5.7 C 5.05 g/m*3 5.7 C 0 km/h
2633 19-12-2003 17:44:00 5.4 C 5.02 g/m*3 5.4 C 0 km/h
2634 19-12-2003 17:56:00 5.4 C 5.09 g/m*3 5.4 C 0 km/h
2635 19-12-2003 18:08:59 5.4 C 5.09 g/m*3 5.4 C 0 km/h
2636 19-12-2003 18:20:59 5.4 C 5.09 g/m*3 5.4 C 0 km/h
2637 19-12-2003 18:32:01 5.3 C 5.06 g/m*3 5.3 C 0 km/h
2638 19-12-2003 18:44:01 5.2 C 5.1 g/m*3 5.2 C 0 km/h
2639 19-12-2003 18:56:01 5 C 5.03 g/m*3 5 C 0 km/h
2640 19-12-2003 19:08:01 4.6 C 5.1 g/m*3 4.6 C 0 km/h
2641 19-12-2003 19:20:01 4.5 C 5.13 g/m*3 4.5 C 0 km/h
2642 19-12-2003 19:32:00 4.5 C 5.13 g/m*3 4.5 C 0 km/h
2643 19-12-2003 19:44:00 4.6 C 5.23 g/m*3 4.6 C 0 km/h
2644 19-12-2003 19:56:00 4.6 C 5.16 g/m*3 4.6 C 0 km/h
2645 19-12-2003 20:08:59 4.7 C 5.2 g/m*3 4.7 C 0 km/h
2646 19-12-2003 20:20:59 4.6 C 5.16 g/m*3 4.6 C 0 km/h
2647 19-12-2003 20:32:00 4.6 C 5.16 g/m*3 4.6 C 0 km/h
2648 19-12-2003 20:44:00 4.7 C 5.2 g/m*3 4.7 C 0 km/h
2649 19-12-2003 20:56:00 4.7 C 5.2 g/m*3 4.7 C 0 km/h
2650 19-12-2003 21:08:00 4.7 C 5.2 g/m*3 4.7 C 0 km/h
Sensor: Nr:Datum:Temp:Abs-Feuchte:Windchill:Wind:
Aussen-T/F 2651 19-12-2003 21:20:00 4.7 C 5.2 g/m*3 4.7 C 0 km/h
2652 19-12-2003 21:32:01 4.7 C 5.2 g/m*3 4.7 C 0 km/h
2653 19-12-2003 21:44:01 4.7 C 5.2 g/m*3 4.7 C 0 km/h
2654 19-12-2003 21:56:01 4.7 C 5.2 g/m*3 4.7 C 0 km/h
2655 19-12-2003 22:08:01 4.6 C 5.16 g/m*3 4.6 C 0 km/h
2656 19-12-2003 22:20:01 4.6 C 5.16 g/m*3 4.6 C 0 km/h
2657 19-12-2003 22:32:01 4.6 C 5.23 g/m*3 4.6 C 0 km/h
2658 19-12-2003 22:44:01 4.6 C 5.23 g/m*3 4.6 C 0 km/h
2659 19-12-2003 22:56:01 4.4 C 5.16 g/m*3 4.4 C 0 km/h
2660 19-12-2003 23:09:00 4.4 C 5.16 g/m*3 4.4 C 0 km/h
2661 19-12-2003 23:21:00 4.5 C 5.19 g/m*3 4.5 C 0 km/h
2662 19-12-2003 23:33:00 4.5 C 5.26 g/m*3 4.5 C 0 km/h
2663 19-12-2003 23:45:00 4.5 C 5.26 g/m*3 4.5 C 0 km/h
2664 19-12-2003 23:57:00 5.1 C 5.61 g/m*3 5.1 C 0 km/h
2665 20-12-2003 00:09:00 5.3 C 5.54 g/m*3 5.3 C 0 km/h
2666 20-12-2003 00:21:00 6.5 C 6.07 g/m*3 6.5 C 0 km/h
2667 20-12-2003 00:33:00 6.7 C 5.93 g/m*3 6.7 C 0 km/h
2668 20-12-2003 00:45:00 6.9 C 6.08 g/m*3 6.9 C 0 km/h
2669 20-12-2003 00:57:00 7.3 C 6.16 g/m*3 7.3 C 0 km/h
2670 20-12-2003 01:09:00 7.3 C 6.16 g/m*3 7.3 C 0 km/h
2671 20-12-2003 01:21:00 7.3 C 6.16 g/m*3 7.3 C 0 km/h
2672 20-12-2003 01:33:00 7.3 C 6.08 g/m*3 7.3 C 0 km/h
2673 20-12-2003 01:45:00 7.2 C 5.97 g/m*3 7.2 C 0 km/h
2674 20-12-2003 01:57:00 7.1 C 5.93 g/m*3 7.1 C 0 km/h
2675 20-12-2003 02:09:00 7 C 5.89 g/m*3 7 C 0 km/h
Sensor: Nr:Datum:Temp:Abs-Feuchte:Windchill:Wind:
Aussen-T/F 2676 20-12-2003 02:21:00 6.9 C 5.93 g/m*3 6.9 C 0 km/h
2677 20-12-2003 02:33:00 7.1 C 5.93 g/m*3 7.1 C 0 km/h
2678 20-12-2003 02:45:00 7.1 C 5.93 g/m*3 7.1 C 0 km/h
2679 20-12-2003 02:57:00 7 C 5.89 g/m*3 7 C 0 km/h
2680 20-12-2003 03:09:00 7.1 C 5.85 g/m*3 7.1 C 0 km/h
2681 20-12-2003 03:21:00 7 C 5.89 g/m*3 7 C 0 km/h
2682 20-12-2003 03:33:00 7 C 5.89 g/m*3 7 C 0 km/h
2683 20-12-2003 03:45:00 7 C 5.81 g/m*3 7 C 0 km/h
2684 20-12-2003 03:57:00 6.9 C 5.93 g/m*3 6.9 C 0 km/h
2685 20-12-2003 04:09:00 7.1 C 5.93 g/m*3 7.1 C 0 km/h
2686 20-12-2003 04:21:00 7.1 C 6.01 g/m*3 7.1 C 0 km/h
2687 20-12-2003 04:33:00 7.2 C 6.04 g/m*3 7.2 C 0 km/h
2688 20-12-2003 04:45:00 7.3 C 6.08 g/m*3 7.3 C 0 km/h
2689 20-12-2003 04:57:00 7.3 C 6.08 g/m*3 7.3 C 0 km/h
2690 20-12-2003 05:09:00 7.4 C 6.04 g/m*3 7.4 C 0 km/h
2691 20-12-2003 05:21:00 7.6 C 6.12 g/m*3 7.6 C 0 km/h
2692 20-12-2003 05:33:00 7.6 C 6.12 g/m*3 7.6 C 0 km/h
2693 20-12-2003 05:45:00 7.5 C 6.08 g/m*3 7.5 C 0 km/h
2694 20-12-2003 05:57:00 7.5 C 6.08 g/m*3 7.5 C 0 km/h
2695 20-12-2003 06:09:00 7.6 C 6.2 g/m*3 7.6 C 0 km/h
2696 20-12-2003 06:21:00 7.7 C 6.24 g/m*3 7.7 C 0 km/h
2697 20-12-2003 06:33:00 7.7 C 6.24 g/m*3 7.7 C 0 km/h
2698 20-12-2003 06:45:00 7.6 C 6.28 g/m*3 7.6 C 0 km/h
2699 20-12-2003 06:57:00 7.5 C 6.24 g/m*3 7.5 C 0 km/h
2700 20-12-2003 07:09:00 7.5 C 6.32 g/m*3 7.5 C 0 km/h
Sensor: Nr:Datum:Temp:Abs-Feuchte:Windchill:Wind:
Aussen-T/F 2701 20-12-2003 07:21:00 7.5 C 6.32 g/m*3 7.5 C 0 km/h
2702 20-12-2003 07:33:00 7.5 C 6.4 g/m*3 7.5 C 0 km/h
2703 20-12-2003 07:45:00 7.4 C 6.36 g/m*3 7.4 C 0 km/h
2704 20-12-2003 07:57:00 7.4 C 6.44 g/m*3 7.4 C 0 km/h
2705 20-12-2003 08:09:00 7.6 C 6.53 g/m*3 7.6 C 0 km/h
2706 20-12-2003 08:21:00 7.5 C 6.4 g/m*3 7.5 C 0 km/h
2707 20-12-2003 08:33:00 7.5 C 6.4 g/m*3 7.5 C 0 km/h
2708 20-12-2003 08:45:00 7.3 C 6.32 g/m*3 7.3 C 0 km/h
2709 20-12-2003 08:57:00 7.4 C 6.44 g/m*3 7.4 C 0 km/h
2710 20-12-2003 09:09:00 7.3 C 6.32 g/m*3 7.3 C 0 km/h
2711 20-12-2003 09:21:00 7.3 C 6.32 g/m*3 7.3 C 0 km/h
2712 20-12-2003 09:33:00 7.6 C 6.53 g/m*3 7.6 C 0 km/h
2713 20-12-2003 09:45:00 8 C 6.61 g/m*3 8 C 0 km/h
2714 20-12-2003 09:57:00 8.2 C 6.62 g/m*3 8.2 C 0 km/h
2715 20-12-2003 10:09:58 8.4 C 6.7 g/m*3 8.4 C 0 km/h
2716 20-12-2003 10:21:58 8.6 C 6.7 g/m*3 8.6 C 0 km/h
2717 20-12-2003 10:33:01 8.9 C 6.83 g/m*3 8.9 C 0 km/h
2718 20-12-2003 10:45:01 9.2 C 6.7 g/m*3 9.2 C 0 km/h
2719 20-12-2003 10:57:01 9.5 C 6.64 g/m*3 9.5 C 0 km/h
2720 20-12-2003 11:09:01 9.6 C 6.6 g/m*3 9.6 C 0 km/h
2721 20-12-2003 11:21:01 9.7 C 6.55 g/m*3 9.7 C 0 km/h
2722 20-12-2003 11:33:00 9.8 C 6.49 g/m*3 9.8 C 0 km/h
2723 20-12-2003 11:45:00 9.9 C 6.54 g/m*3 9.9 C 0 km/h
2724 20-12-2003 11:57:00 10 C 6.39 g/m*3 10 C 0 km/h
2725 20-12-2003 12:09:59 10.1 C 6.43 g/m*3 10.1 C 0 km/h
Sensor: Nr:Datum:Temp:Abs-Feuchte:Windchill:Wind:
Aussen-T/F 2726 20-12-2003 12:21:59 10 C 6.39 g/m*3 10 C 0 km/h
2727 20-12-2003 12:33:01 9.9 C 6.44 g/m*3 9.9 C 0 km/h
2728 20-12-2003 12:45:01 9.8 C 6.4 g/m*3 9.8 C 0 km/h
2729 20-12-2003 12:57:01 10 C 6.39 g/m*3 10 C 0 km/h
2730 20-12-2003 13:09:01 10.1 C 6.34 g/m*3 10.1 C 0 km/h
2731 20-12-2003 13:21:01 10.1 C 6.34 g/m*3 10.1 C 0 km/h
2732 20-12-2003 13:33:00 10.1 C 6.24 g/m*3 10.1 C 0 km/h
2733 20-12-2003 13:45:00 10.1 C 6.15 g/m*3 10.1 C 0 km/h
2734 20-12-2003 13:57:00 10.1 C 6.15 g/m*3 10.1 C 0 km/h
2735 20-12-2003 14:09:59 10.1 C 6.24 g/m*3 10.1 C 0 km/h
2736 20-12-2003 14:21:59 10 C 6.2 g/m*3 10 C 0 km/h
2737 20-12-2003 14:33:01 9.8 C 6.31 g/m*3 9.8 C 0 km/h
2738 20-12-2003 14:45:01 9.7 C 6.27 g/m*3 9.7 C 0 km/h
2739 20-12-2003 14:57:01 9.7 C 6.36 g/m*3 9.7 C 0 km/h
2740 20-12-2003 15:09:01 9.8 C 6.4 g/m*3 9.8 C 0 km/h
2741 20-12-2003 15:21:01 9.8 C 6.4 g/m*3 9.8 C 0 km/h
2742 20-12-2003 15:33:01 9.7 C 6.36 g/m*3 9.7 C 0 km/h
2743 20-12-2003 15:45:01 9.6 C 6.32 g/m*3 9.6 C 0 km/h
2744 20-12-2003 15:57:01 9.6 C 6.32 g/m*3 9.6 C 0 km/h
2745 20-12-2003 16:09:01 9.6 C 6.32 g/m*3 9.6 C 0 km/h
2746 20-12-2003 16:21:01 9.5 C 6.37 g/m*3 9.5 C 0 km/h
2747 20-12-2003 16:33:00 9.5 C 6.37 g/m*3 9.5 C 0 km/h
2748 20-12-2003 16:45:00 9.6 C 6.32 g/m*3 9.6 C 0 km/h
2749 20-12-2003 16:45:59 9.6 C 6.32 g/m*3 9.6 C 0 km/h
2750 20-12-2003 16:57:59 10.1 C 6.24 g/m*3 10.1 C 0 km/h
Sensor: Nr:Datum:Temp:Abs-Feuchte:Windchill:Wind:
Aussen-T/F 2751 20-12-2003 17:09:59 10.1 C 6.05 g/m*3 10.1 C 0 km/h
2752 20-12-2003 17:21:59 10.2 C 6 g/m*3 10.2 C 0 km/h
2753 20-12-2003 17:33:01 10.1 C 6.05 g/m*3 10.1 C 0 km/h
2754 20-12-2003 17:45:01 10 C 6.11 g/m*3 10 C 0 km/h
2755 20-12-2003 17:57:01 9.7 C 6.27 g/m*3 9.7 C 0 km/h
2756 20-12-2003 18:09:02 9.6 C 6.32 g/m*3 9.6 C 0 km/h
2757 20-12-2003 18:21:02 9.3 C 6.29 g/m*3 9.3 C 0 km/h
2758 20-12-2003 18:33:00 9.5 C 6.37 g/m*3 9.5 C 0 km/h
2759 20-12-2003 18:45:00 9.6 C 6.32 g/m*3 9.6 C 0 km/h
2760 20-12-2003 18:57:00 9.6 C 6.32 g/m*3 9.6 C 0 km/h
2761 20-12-2003 19:09:48 9.6 C 6.32 g/m*3 9.6 C 0 km/h
2762 20-12-2003 19:21:59 9.5 C 6.37 g/m*3 9.5 C 0 km/h
2763 20-12-2003 19:33:01 9.7 C 6.45 g/m*3 9.7 C 0 km/h
2764 20-12-2003 19:45:01 10 C 6.39 g/m*3 10 C 0 km/h
2765 20-12-2003 19:57:01 10 C 6.39 g/m*3 10 C 0 km/h
2766 20-12-2003 20:09:01 10 C 6.48 g/m*3 10 C 0 km/h
2767 20-12-2003 20:21:01 10.1 C 6.52 g/m*3 10.1 C 0 km/h
2768 20-12-2003 20:32:59 10.1 C 6.62 g/m*3 10.1 C 0 km/h
2769 20-12-2003 20:44:59 9.9 C 6.82 g/m*3 9.9 C 0 km/h
2770 20-12-2003 20:56:59 9.9 C 6.82 g/m*3 9.9 C 0 km/h
2771 20-12-2003 21:09:58 9.9 C 6.82 g/m*3 9.9 C 0 km/h
2772 20-12-2003 21:21:58 9.9 C 6.82 g/m*3 9.9 C 0 km/h
2773 20-12-2003 21:33:13 10.1 C 6.81 g/m*3 10.1 C 0 km/h
2774 20-12-2003 21:45:13 10.3 C 6.99 g/m*3 10.3 C 0 km/h
2775 20-12-2003 21:57:13 10.2 C 6.95 g/m*3 10.2 C 0 km/h
Sensor: Nr:Datum:Temp:Abs-Feuchte:Windchill:Wind:
Aussen-T/F 2776 20-12-2003 22:09:01 10.4 C 7.04 g/m*3 10.4 C 0 km/h
2777 20-12-2003 22:21:01 10.4 C 7.04 g/m*3 10.4 C 0 km/h
2778 20-12-2003 22:33:01 10 C 7.14 g/m*3 10 C 0 km/h
2779 20-12-2003 22:45:01 10 C 7.14 g/m*3 10 C 0 km/h
2780 20-12-2003 22:57:01 10 C 7.14 g/m*3 10 C 0 km/h
2781 20-12-2003 23:09:01 9.8 C 7.52 g/m*3 9.8 C 0 km/h
2782 20-12-2003 23:21:01 9.7 C 7.56 g/m*3 9.7 C 0 km/h
2783 20-12-2003 23:33:00 9.8 C 7.7 g/m*3 9.8 C 0 km/h
2784 20-12-2003 23:45:00 10 C 7.61 g/m*3 10 C 0 km/h
2785 20-12-2003 23:57:00 10.2 C 7.52 g/m*3 10.2 C 0 km/h
2786 21-12-2003 00:09:59 10 C 7.61 g/m*3 10 C 0 km/h
2787 21-12-2003 00:21:59 9.9 C 7.75 g/m*3 9.9 C 0 km/h
2788 21-12-2003 00:33:01 9.7 C 7.84 g/m*3 9.7 C 0 km/h
2789 21-12-2003 00:45:01 9.8 C 7.98 g/m*3 9.8 C 0 km/h
2790 21-12-2003 00:57:01 9.7 C 7.93 g/m*3 9.7 C 0 km/h
2791 21-12-2003 01:09:01 9.6 C 7.88 g/m*3 9.6 C 0 km/h
2792 21-12-2003 01:21:01 9.6 C 7.6 g/m*3 9.6 C 0 km/h
2793 21-12-2003 01:33:01 9.7 C 7.56 g/m*3 9.7 C 0 km/h
2794 21-12-2003 01:45:01 9.9 C 7.56 g/m*3 9.9 C 0 km/h
2795 21-12-2003 01:57:01 9.8 C 7.33 g/m*3 9.8 C 0 km/h
2796 21-12-2003 02:09:00 9.9 C 7.19 g/m*3 9.9 C 0 km/h
2797 21-12-2003 02:21:00 9.8 C 7.05 g/m*3 9.8 C 0 km/h
2798 21-12-2003 02:33:00 9.7 C 7.1 g/m*3 9.7 C 0 km/h
2799 21-12-2003 02:45:00 9.7 C 7.1 g/m*3 9.7 C 0 km/h
2800 21-12-2003 02:57:00 9.7 C 7.1 g/m*3 9.7 C 0 km/h
Sensor: Nr:Datum:Temp:Abs-Feuchte:Windchill:Wind:
Aussen-T/F 2801 21-12-2003 03:09:00 9.7 C 7.1 g/m*3 9.7 C 0 km/h
2802 21-12-2003 03:21:00 9.2 C 6.97 g/m*3 9.2 C 0 km/h
2803 21-12-2003 03:33:01 9 C 6.88 g/m*3 9 C 0 km/h
2804 21-12-2003 03:45:01 9 C 6.96 g/m*3 9 C 0 km/h
2805 21-12-2003 03:57:01 8.8 C 6.96 g/m*3 8.8 C 0 km/h
2806 21-12-2003 04:09:00 8.8 C 6.96 g/m*3 8.8 C 0 km/h
2807 21-12-2003 04:21:00 8.5 C 6.92 g/m*3 8.5 C 0 km/h
2808 21-12-2003 04:33:00 8.6 C 6.62 g/m*3 8.6 C 0 km/h
2809 21-12-2003 04:45:00 8.6 C 6.53 g/m*3 8.6 C 0 km/h
2810 21-12-2003 04:57:00 8.6 C 6.53 g/m*3 8.6 C 0 km/h
2811 21-12-2003 05:10:01 8.6 C 6.53 g/m*3 8.6 C 0 km/h
2812 21-12-2003 05:22:01 8.2 C 5.53 g/m*3 8.2 C 0 km/h
2813 21-12-2003 05:33:01 8.2 C 5.53 g/m*3 8.2 C 0 km/h
2814 21-12-2003 05:45:01 8.2 C 5.53 g/m*3 8.2 C 0 km/h
2815 21-12-2003 05:57:01 8.2 C 5.53 g/m*3 8.2 C 0 km/h
2816 21-12-2003 06:09:00 6.6 C 5.28 g/m*3 6.6 C 0 km/h
2817 21-12-2003 06:21:00 6.6 C 5.28 g/m*3 6.6 C 0 km/h
2818 21-12-2003 06:33:01 6.6 C 5.28 g/m*3 6.6 C 0 km/h
2819 21-12-2003 06:45:01 6.6 C 5.28 g/m*3 6.6 C 0 km/h
2820 21-12-2003 06:57:01 6.6 C 5.28 g/m*3 6.6 C 0 km/h
2821 21-12-2003 07:09:00 6.6 C 5.28 g/m*3 6.6 C 0 km/h
2822 21-12-2003 07:21:00 6.6 C 5.28 g/m*3 6.6 C 0 km/h
2823 21-12-2003 07:33:00 6.6 C 5.28 g/m*3 6.6 C 0 km/h
2824 21-12-2003 07:45:00 6.6 C 5.28 g/m*3 6.6 C 0 km/h
2825 21-12-2003 07:57:00 6.6 C 5.28 g/m*3 6.6 C 0 km/h
Sensor: Nr:Datum:Temp:Abs-Feuchte:Windchill:Wind:
Aussen-T/F 2826 21-12-2003 08:10:00 6.6 C 5.28 g/m*3 6.6 C 0 km/h
2827 21-12-2003 08:22:01 6.6 C 5.28 g/m*3 6.6 C 0 km/h
2828 21-12-2003 08:33:00 6.6 C 5.28 g/m*3 6.6 C 0 km/h
2829 21-12-2003 08:45:01 5.1 C 4.24 g/m*3 5.1 C 0 km/h
2830 21-12-2003 08:57:01 5.1 C 4.24 g/m*3 5.1 C 0 km/h
2831 21-12-2003 09:09:32 4 C 4.26 g/m*3 4 C 0 km/h
2832 21-12-2003 09:21:00 3.4 C 4.28 g/m*3 3.4 C 0 km/h
2833 21-12-2003 09:33:00 3.4 C 4.21 g/m*3 3.4 C 0 km/h
2834 21-12-2003 09:45:00 3.4 C 4.21 g/m*3 3.4 C 0 km/h
2835 21-12-2003 09:57:00 3.4 C 4.21 g/m*3 3.4 C 0 km/h
2836 21-12-2003 10:10:00 4.5 C 4.14 g/m*3 4.5 C 0 km/h
2837 21-12-2003 10:22:01 4.8 C 4.16 g/m*3 4.8 C 0 km/h
2838 21-12-2003 10:33:01 4.7 C 4.46 g/m*3 4.7 C 0 km/h
2839 21-12-2003 10:45:01 4.9 C 4.32 g/m*3 4.9 C 0 km/h
2840 21-12-2003 10:57:01 5.1 C 4.17 g/m*3 5.1 C 0 km/h
2841 21-12-2003 11:09:00 5.3 C 4.16 g/m*3 5.3 C 0 km/h
2842 21-12-2003 11:21:00 5.3 C 4.16 g/m*3 5.3 C 0 km/h
2843 21-12-2003 11:33:00 5.4 C 4.26 g/m*3 5.4 C 0 km/h
2844 21-12-2003 11:45:00 5.5 C 4.35 g/m*3 5.5 C 0 km/h
2845 21-12-2003 11:57:00 5.5 C 4.42 g/m*3 5.5 C 0 km/h
2846 21-12-2003 12:10:01 5.6 C 4.52 g/m*3 5.6 C 0 km/h
2847 21-12-2003 12:22:01 5.6 C 4.67 g/m*3 5.6 C 0 km/h
2848 21-12-2003 12:33:00 5.6 C 4.67 g/m*3 5.6 C 0 km/h
2849 21-12-2003 12:45:01 5.6 C 4.67 g/m*3 5.6 C 0 km/h
2850 21-12-2003 12:57:01 5.5 C 4.78 g/m*3 5.5 C 0 km/h
Sensor: Nr:Datum:Temp:Abs-Feuchte:Windchill:Wind:
Aussen-T/F 2851 21-12-2003 13:09:55 5.4 C 4.81 g/m*3 5.4 C 0 km/h
2852 21-12-2003 13:21:55 5.4 C 4.81 g/m*3 5.4 C 0 km/h
2853 21-12-2003 13:33:00 5.5 C 4.85 g/m*3 5.5 C 0 km/h
2854 21-12-2003 13:45:00 5.5 C 4.78 g/m*3 5.5 C 0 km/h
2855 21-12-2003 13:46:00 5.5 C 4.78 g/m*3 5.5 C 0 km/h
2856 21-12-2003 13:58:01 5.4 C 4.81 g/m*3 5.4 C 0 km/h
2857 21-12-2003 14:10:01 5.4 C 4.88 g/m*3 5.4 C 0 km/h
2858 21-12-2003 14:22:01 5.4 C 4.88 g/m*3 5.4 C 0 km/h
2859 21-12-2003 14:33:01 5.2 C 4.89 g/m*3 5.2 C 0 km/h
2860 21-12-2003 14:45:01 5.2 C 4.96 g/m*3 5.2 C 0 km/h
2861 21-12-2003 14:57:01 5.1 C 4.99 g/m*3 5.1 C 0 km/h
2862 21-12-2003 15:09:00 5.3 C 4.99 g/m*3 5.3 C 0 km/h
2863 21-12-2003 15:09:01 5.3 C 4.99 g/m*3 5.3 C 0 km/h
2864 21-12-2003 15:21:01 5.4 C 4.95 g/m*3 5.4 C 0 km/h
2865 21-12-2003 15:33:01 5.2 C 5.03 g/m*3 5.2 C 0 km/h
2866 21-12-2003 15:45:01 5.1 C 5.13 g/m*3 5.1 C 0 km/h
2867 21-12-2003 15:57:01 4.8 C 5.23 g/m*3 4.8 C 0 km/h
2868 21-12-2003 16:09:00 4.7 C 5.2 g/m*3 4.7 C 0 km/h
2869 21-12-2003 16:21:00 4.7 C 5.2 g/m*3 4.7 C 0 km/h
2870 21-12-2003 16:33:00 4.7 C 5.13 g/m*3 4.7 C 0 km/h
2871 21-12-2003 16:45:00 4.8 C 4.96 g/m*3 4.8 C 0 km/h
2872 21-12-2003 16:57:00 4.7 C 5 g/m*3 4.7 C 0 km/h
2873 21-12-2003 17:10:01 4.5 C 5.06 g/m*3 4.5 C 0 km/h
2874 21-12-2003 17:22:01 4.3 C 5.12 g/m*3 4.3 C 0 km/h
2875 21-12-2003 17:33:00 4.4 C 5.09 g/m*3 4.4 C 0 km/h
Sensor: Nr:Datum:Temp:Abs-Feuchte:Windchill:Wind:
Aussen-T/F 2876 21-12-2003 17:45:01 4.6 C 5.03 g/m*3 4.6 C 0 km/h
2877 21-12-2003 17:57:01 4.8 C 4.96 g/m*3 4.8 C 0 km/h
2878 21-12-2003 18:09:00 5.1 C 4.79 g/m*3 5.1 C 0 km/h
2879 21-12-2003 18:21:00 4.9 C 4.93 g/m*3 4.9 C 0 km/h
2880 21-12-2003 18:33:01 4.8 C 4.83 g/m*3 4.8 C 0 km/h
2881 21-12-2003 18:45:01 4.8 C 4.83 g/m*3 4.8 C 0 km/h
2882 21-12-2003 18:57:01 4.9 C 4.86 g/m*3 4.9 C 0 km/h
2883 21-12-2003 19:09:00 5 C 4.76 g/m*3 5 C 0 km/h
2884 21-12-2003 19:21:00 5 C 4.76 g/m*3 5 C 0 km/h
2885 21-12-2003 19:33:00 5.1 C 4.72 g/m*3 5.1 C 0 km/h
2886 21-12-2003 19:45:00 5.2 C 4.68 g/m*3 5.2 C 0 km/h
2887 21-12-2003 19:57:00 5.1 C 4.65 g/m*3 5.1 C 0 km/h
2888 21-12-2003 20:10:01 5.1 C 4.65 g/m*3 5.1 C 0 km/h
2889 21-12-2003 20:22:01 5 C 4.55 g/m*3 5 C 0 km/h
2890 21-12-2003 20:33:00 4.8 C 4.63 g/m*3 4.8 C 0 km/h
2891 21-12-2003 20:45:01 4.7 C 4.6 g/m*3 4.7 C 0 km/h
2892 21-12-2003 20:57:01 4.4 C 4.64 g/m*3 4.4 C 0 km/h
2893 21-12-2003 21:09:00 4.2 C 4.64 g/m*3 4.2 C 0 km/h
2894 21-12-2003 21:21:00 4.5 C 4.67 g/m*3 4.5 C 0 km/h
2895 21-12-2003 21:33:00 4.6 C 4.63 g/m*3 4.6 C 0 km/h
2896 21-12-2003 21:45:00 4.7 C 4.6 g/m*3 4.7 C 0 km/h
2897 21-12-2003 21:57:00 4.6 C 4.57 g/m*3 4.6 C 0 km/h
2898 21-12-2003 22:10:00 4.3 C 4.54 g/m*3 4.3 C 0 km/h
2899 21-12-2003 22:22:01 4.3 C 4.61 g/m*3 4.3 C 0 km/h
2900 21-12-2003 22:33:00 4.3 C 4.61 g/m*3 4.3 C 0 km/h
Sensor: Nr:Datum:Temp:Abs-Feuchte:Windchill:Wind:
Aussen-T/F 2901 21-12-2003 22:45:01 4.2 C 4.57 g/m*3 4.2 C 0 km/h
2902 21-12-2003 22:57:01 3.9 C 4.61 g/m*3 3.9 C 0 km/h
2903 21-12-2003 23:09:00 3.9 C 4.61 g/m*3 3.9 C 0 km/h
2904 21-12-2003 23:21:00 3.7 C 4.55 g/m*3 3.7 C 0 km/h
2905 21-12-2003 23:33:01 4 C 4.58 g/m*3 4 C 0 km/h
2906 21-12-2003 23:45:01 4.3 C 4.54 g/m*3 4.3 C 0 km/h
2907 21-12-2003 23:57:01 4.4 C 4.51 g/m*3 4.4 C 0 km/h
2908 22-12-2003 00:09:00 4.2 C 4.51 g/m*3 4.2 C 0 km/h
2909 22-12-2003 00:21:00 4.3 C 4.48 g/m*3 4.3 C 0 km/h
2910 22-12-2003 00:33:00 4.4 C 4.44 g/m*3 4.4 C 0 km/h
2911 22-12-2003 00:45:00 4.5 C 4.4 g/m*3 4.5 C 0 km/h
2912 22-12-2003 00:45:01 4.5 C 4.4 g/m*3 4.5 C 0 km/h
2913 22-12-2003 00:57:00 4.3 C 4.35 g/m*3 4.3 C 0 km/h
2914 22-12-2003 01:09:00 4.3 C 4.28 g/m*3 4.3 C 0 km/h
2915 22-12-2003 01:21:00 4.3 C 4.28 g/m*3 4.3 C 0 km/h
2916 22-12-2003 01:33:00 4.2 C 4.25 g/m*3 4.2 C 0 km/h
2917 22-12-2003 01:45:00 4.1 C 4.16 g/m*3 4.1 C 0 km/h
2918 22-12-2003 01:57:00 4.3 C 4.22 g/m*3 4.3 C 0 km/h
2919 22-12-2003 02:10:01 4.2 C 4.25 g/m*3 4.2 C 0 km/h
2920 22-12-2003 02:22:01 3.9 C 4.23 g/m*3 3.9 C 0 km/h
2921 22-12-2003 02:33:01 3.9 C 4.23 g/m*3 3.9 C 0 km/h
2922 22-12-2003 02:45:01 4 C 4.13 g/m*3 4 C 0 km/h
2923 22-12-2003 02:57:01 4 C 4.07 g/m*3 4 C 0 km/h
2924 22-12-2003 03:09:00 4.1 C 4.1 g/m*3 4.1 C 0 km/h
2925 22-12-2003 03:21:00 4 C 4.07 g/m*3 4 C 0 km/h
Sensor: Nr:Datum:Temp:Abs-Feuchte:Windchill:Wind:
Aussen-T/F 2926 22-12-2003 03:33:00 4 C 4.07 g/m*3 4 C 0 km/h
2927 22-12-2003 03:45:00 4 C 4.07 g/m*3 4 C 0 km/h
2928 22-12-2003 03:57:00 4 C 4.07 g/m*3 4 C 0 km/h
2929 22-12-2003 04:10:00 3.9 C 4.11 g/m*3 3.9 C 0 km/h
2930 22-12-2003 04:22:00 3.7 C 4.11 g/m*3 3.7 C 0 km/h
2931 22-12-2003 04:33:01 3.6 C 4.15 g/m*3 3.6 C 0 km/h
2932 22-12-2003 04:45:01 3.5 C 4.18 g/m*3 3.5 C 0 km/h
2933 22-12-2003 04:57:01 2 C 4.17 g/m*3 2 C 0 km/h
2934 22-12-2003 05:09:00 1 C 4.2 g/m*3 1 C 0 km/h
2935 22-12-2003 05:21:00 0.7 C 4.32 g/m*3 0.7 C 0 km/h
2936 22-12-2003 05:33:01 0.8 C 4.4 g/m*3 0.8 C 0 km/h
2937 22-12-2003 05:45:01 0.9 C 4.48 g/m*3 0.9 C 0 km/h
2938 22-12-2003 05:57:01 1.1 C 4.55 g/m*3 1.1 C 0 km/h
2939 22-12-2003 06:09:00 1 C 4.52 g/m*3 1 C 0 km/h
2940 22-12-2003 06:21:00 1 C 4.52 g/m*3 1 C 0 km/h
2941 22-12-2003 06:33:00 1 C 4.52 g/m*3 1 C 0 km/h
2942 22-12-2003 06:45:00 1.2 C 4.58 g/m*3 1.2 C 0 km/h
2943 22-12-2003 06:57:00 1.2 C 4.63 g/m*3 1.2 C 0 km/h
2944 22-12-2003 07:10:00 1.2 C 4.63 g/m*3 1.2 C 0 km/h
2945 22-12-2003 07:21:01 1.2 C 4.63 g/m*3 1.2 C 0 km/h
2946 22-12-2003 07:22:01 1.2 C 4.63 g/m*3 1.2 C 0 km/h
2947 22-12-2003 07:33:01 1.3 C 4.66 g/m*3 1.3 C 0 km/h
2948 22-12-2003 07:45:01 1.4 C 4.69 g/m*3 1.4 C 0 km/h
2949 22-12-2003 07:57:01 1.4 C 4.69 g/m*3 1.4 C 0 km/h
2950 22-12-2003 08:09:00 1.5 C 4.67 g/m*3 1.5 C 0 km/h
Sensor: Nr:Datum:Temp:Abs-Feuchte:Windchill:Wind:
Aussen-T/F 2951 22-12-2003 08:21:00 1.6 C 4.65 g/m*3 1.6 C 0 km/h
2952 22-12-2003 08:34:00 1.6 C 4.6 g/m*3 1.6 C 0 km/h
2953 22-12-2003 08:46:00 1.7 C 4.57 g/m*3 1.7 C 0 km/h
2954 22-12-2003 08:58:01 1.9 C 4.53 g/m*3 1.9 C 0 km/h
2955 22-12-2003 09:10:01 2 C 4.39 g/m*3 2 C 0 km/h
2956 22-12-2003 09:22:01 1.8 C 4.22 g/m*3 1.8 C 0 km/h
2957 22-12-2003 09:33:01 1.7 C 4.19 g/m*3 1.7 C 0 km/h
2958 22-12-2003 09:45:01 1.8 C 4.22 g/m*3 1.8 C 0 km/h
2959 22-12-2003 09:57:01 1.9 C 4.19 g/m*3 1.9 C 0 km/h
2960 22-12-2003 10:09:00 2.1 C 4.14 g/m*3 2.1 C 0 km/h
2961 22-12-2003 10:21:00 2.2 C 4.11 g/m*3 2.2 C 0 km/h
2962 22-12-2003 10:33:00 2 C 4 g/m*3 2 C 0 km/h
2963 22-12-2003 10:45:00 2 C 4.06 g/m*3 2 C 0 km/h
2964 22-12-2003 10:57:00 2.1 C 4.03 g/m*3 2.1 C 0 km/h
2965 22-12-2003 11:33:00 1.7 C 3.92 g/m*3 1.7 C 0 km/h
2966 22-12-2003 11:45:01 1.7 C 3.97 g/m*3 1.7 C 0 km/h
2967 22-12-2003 11:57:01 1.8 C 3.89 g/m*3 1.8 C 0 km/h
2968 22-12-2003 12:09:31 1.7 C 3.87 g/m*3 1.7 C 0 km/h
2969 22-12-2003 12:21:31 2 C 3.78 g/m*3 2 C 0 km/h
2970 22-12-2003 12:33:00 2 C 3.67 g/m*3 2 C 0 km/h
2971 22-12-2003 12:45:00 2 C 3.61 g/m*3 2 C 0 km/h
2972 22-12-2003 12:57:00 2 C 3.61 g/m*3 2 C 0 km/h
2973 22-12-2003 13:09:26 2.1 C 3.58 g/m*3 2.1 C 0 km/h
2974 22-12-2003 13:21:26 2.1 C 3.52 g/m*3 2.1 C 0 km/h
2975 22-12-2003 13:48:17 2.4 C 3.48 g/m*3 2.4 C 0 km/h
Sensor: Nr:Datum:Temp:Abs-Feuchte:Windchill:Wind:
Aussen-T/F 2976 22-12-2003 14:00:00 2.4 C 3.48 g/m*3 2.4 C 0 km/h
2977 22-12-2003 14:12:00 2.5 C 3.45 g/m*3 2.5 C 0 km/h
2978 22-12-2003 14:24:00 2.7 C 3.44 g/m*3 2.7 C 0 km/h
2979 22-12-2003 14:36:00 2.8 C 3.4 g/m*3 2.8 C 0 km/h
2980 22-12-2003 14:48:00 2.6 C 3.41 g/m*3 2.6 C 0 km/h
2981 22-12-2003 15:00:00 2.6 C 3.36 g/m*3 2.6 C 0 km/h
2982 22-12-2003 15:13:01 2.5 C 3.28 g/m*3 2.5 C 0 km/h
2983 22-12-2003 15:25:01 2.3 C 3.18 g/m*3 2.3 C 0 km/h
2984 22-12-2003 15:36:01 2 C 3.11 g/m*3 2 C 0 km/h
2985 22-12-2003 15:48:01 1.8 C 3.12 g/m*3 1.8 C 0 km/h
2986 22-12-2003 16:00:01 1.8 C 3.07 g/m*3 1.8 C 0 km/h
2987 22-12-2003 16:12:00 1.6 C 3.08 g/m*3 1.6 C 0 km/h
2988 22-12-2003 16:24:00 1.6 C 3.08 g/m*3 1.6 C 0 km/h
2989 22-12-2003 16:36:00 1.4 C 3.04 g/m*3 1.4 C 0 km/h
2990 22-12-2003 16:48:00 1.2 C 3.1 g/m*3 1.2 C 0 km/h
2991 22-12-2003 17:00:00 1.1 C 3.24 g/m*3 1.1 C 0 km/h
2992 22-12-2003 17:13:01 0.9 C 3.4 g/m*3 0.9 C 0 km/h
2993 22-12-2003 17:25:01 0.6 C 3.43 g/m*3 0.6 C 0 km/h
2994 22-12-2003 17:36:00 0.6 C 3.43 g/m*3 0.6 C 0 km/h
2995 22-12-2003 17:48:01 0.6 C 3.43 g/m*3 0.6 C 0 km/h
2996 22-12-2003 18:00:01 0.8 C 3.43 g/m*3 0.8 C 0 km/h
2997 22-12-2003 18:12:00 0.6 C 3.43 g/m*3 0.6 C 0 km/h
2998 22-12-2003 18:24:00 0.7 C 3.46 g/m*3 0.7 C 0 km/h
2999 22-12-2003 18:36:00 0.7 C 3.51 g/m*3 0.7 C 0 km/h
3000 22-12-2003 18:48:00 0.5 C 3.51 g/m*3 0.5 C 0 km/h
Sensor: Nr:Datum:Temp:Abs-Feuchte:Windchill:Wind:
Aussen-T/F 3001 22-12-2003 19:00:00 0.8 C 3.53 g/m*3 0.8 C 0 km/h
3002 22-12-2003 19:13:00 0.7 C 3.56 g/m*3 0.7 C 0 km/h
3003 22-12-2003 19:25:00 0.6 C 3.59 g/m*3 0.6 C 0 km/h
3004 22-12-2003 19:36:01 0.4 C 3.59 g/m*3 0.4 C 0 km/h
3005 22-12-2003 19:48:01 0.2 C 3.59 g/m*3 0.2 C 0 km/h
3006 22-12-2003 20:00:01 0.3 C 3.61 g/m*3 0.3 C 0 km/h
3007 22-12-2003 20:12:00 0.3 C 3.66 g/m*3 0.3 C 0 km/h
3008 22-12-2003 20:24:00 0.3 C 3.66 g/m*3 0.3 C 0 km/h
3009 22-12-2003 20:36:01 0.1 C 3.61 g/m*3 0.1 C 0 km/h
3010 22-12-2003 20:48:01 0 C 3.63 g/m*3 0 C 0 km/h
3011 22-12-2003 21:00:01 -0.1 C 3.61 g/m*3 -0.1 C 0 km/h
3012 22-12-2003 21:12:00 -0.3 C 3.61 g/m*3 -0.3 C 0 km/h
3013 22-12-2003 21:24:00 -0.4 C 3.63 g/m*3 -0.4 C 0 km/h
3014 22-12-2003 21:36:00 -0.2 C 3.68 g/m*3 -0.2 C 0 km/h
3015 22-12-2003 21:48:00 -0.6 C 3.53 g/m*3 -0.6 C 0 km/h
3016 22-12-2003 22:00:00 -1 C 3.48 g/m*3 -1 C 0 km/h
3017 22-12-2003 22:13:01 -1.2 C 3.48 g/m*3 -1.2 C 0 km/h
3018 22-12-2003 22:25:01 -1.3 C 3.5 g/m*3 -1.3 C 0 km/h
3019 22-12-2003 22:36:01 -1.4 C 3.52 g/m*3 -1.4 C 0 km/h
3020 22-12-2003 22:48:01 -1.4 C 3.52 g/m*3 -1.4 C 0 km/h
3021 22-12-2003 23:00:01 -1.3 C 3.54 g/m*3 -1.3 C 0 km/h
3022 22-12-2003 23:12:00 -1.3 C 3.5 g/m*3 -1.3 C 0 km/h
3023 22-12-2003 23:24:00 -1.4 C 3.47 g/m*3 -1.4 C 0 km/h
3024 22-12-2003 23:36:00 -1.6 C 3.42 g/m*3 -1.6 C 0 km/h
3025 22-12-2003 23:48:00 -1.8 C 3.38 g/m*3 -1.8 C 0 km/h
Sensor: Nr:Datum:Temp:Abs-Feuchte:Windchill:Wind:
Aussen-T/F 3026 23-12-2003 00:00:00 -1.9 C 3.4 g/m*3 -1.9 C 0 km/h
3027 23-12-2003 00:13:01 -2 C 3.37 g/m*3 -2 C 0 km/h
3028 23-12-2003 00:25:01 -1.9 C 3.44 g/m*3 -1.9 C 0 km/h
3029 23-12-2003 00:36:00 -2 C 3.41 g/m*3 -2 C 0 km/h
3030 23-12-2003 00:36:01 -2 C 3.41 g/m*3 -2 C 0 km/h
3031 23-12-2003 00:48:00 -2.1 C 3.39 g/m*3 -2.1 C 0 km/h
3032 23-12-2003 01:00:00 -2.3 C 3.34 g/m*3 -2.3 C 0 km/h
3033 23-12-2003 01:12:00 -2.3 C 3.38 g/m*3 -2.3 C 0 km/h
3034 23-12-2003 01:24:00 -2.2 C 3.41 g/m*3 -2.2 C 0 km/h
3035 23-12-2003 01:36:01 -2.3 C 3.34 g/m*3 -2.3 C 0 km/h
3036 23-12-2003 01:48:01 -2.4 C 3.32 g/m*3 -2.4 C 0 km/h
3037 23-12-2003 02:00:01 -2.4 C 3.32 g/m*3 -2.4 C 0 km/h
3038 23-12-2003 02:12:00 -2.5 C 3.3 g/m*3 -2.5 C 0 km/h
3039 23-12-2003 02:24:00 -2.4 C 3.32 g/m*3 -2.4 C 0 km/h
3040 23-12-2003 02:36:00 -2.3 C 3.34 g/m*3 -2.3 C 0 km/h
3041 23-12-2003 02:48:00 -1.9 C 3.35 g/m*3 -1.9 C 0 km/h
3042 23-12-2003 03:00:00 -2.1 C 3.31 g/m*3 -2.1 C 0 km/h
3043 23-12-2003 03:13:01 -2.1 C 3.31 g/m*3 -2.1 C 0 km/h
3044 23-12-2003 03:25:01 -2.1 C 3.26 g/m*3 -2.1 C 0 km/h
3045 23-12-2003 03:36:01 -2.3 C 3.26 g/m*3 -2.3 C 0 km/h
3046 23-12-2003 03:48:01 -2.5 C 3.21 g/m*3 -2.5 C 0 km/h
3047 23-12-2003 04:00:01 -2.5 C 3.21 g/m*3 -2.5 C 0 km/h
3048 23-12-2003 04:12:00 -2.6 C 3.19 g/m*3 -2.6 C 0 km/h
3049 23-12-2003 04:24:00 -2.6 C 3.19 g/m*3 -2.6 C 0 km/h
3050 23-12-2003 04:36:00 -2.4 C 3.24 g/m*3 -2.4 C 0 km/h
Sensor: Nr:Datum:Temp:Abs-Feuchte:Windchill:Wind:
Aussen-T/F 3051 23-12-2003 04:48:00 -2.4 C 3.2 g/m*3 -2.4 C 0 km/h
3052 23-12-2003 05:00:00 -2.4 C 3.2 g/m*3 -2.4 C 0 km/h
3053 23-12-2003 05:13:01 -2.4 C 3.2 g/m*3 -2.4 C 0 km/h
3054 23-12-2003 05:25:01 -2.2 C 3.2 g/m*3 -2.2 C 0 km/h
3055 23-12-2003 05:36:01 -2 C 3.2 g/m*3 -2 C 0 km/h
3056 23-12-2003 05:48:01 -2 C 3.2 g/m*3 -2 C 0 km/h
3057 23-12-2003 06:00:01 -1.9 C 3.23 g/m*3 -1.9 C 0 km/h
3058 23-12-2003 06:12:00 -1.9 C 3.31 g/m*3 -1.9 C 0 km/h
3059 23-12-2003 06:24:00 -1.8 C 3.33 g/m*3 -1.8 C 0 km/h
3060 23-12-2003 06:36:01 -1.7 C 3.36 g/m*3 -1.7 C 0 km/h
3061 23-12-2003 06:48:01 -1.7 C 3.36 g/m*3 -1.7 C 0 km/h
3062 23-12-2003 07:00:01 -1.7 C 3.36 g/m*3 -1.7 C 0 km/h
3063 23-12-2003 07:12:00 -1.8 C 3.33 g/m*3 -1.8 C 0 km/h
3064 23-12-2003 07:24:00 -1.7 C 3.4 g/m*3 -1.7 C 0 km/h
3065 23-12-2003 07:36:00 -1.4 C 3.43 g/m*3 -1.4 C 0 km/h
3066 23-12-2003 07:48:00 -1.4 C 3.43 g/m*3 -1.4 C 0 km/h
3067 23-12-2003 08:00:00 -1.5 C 3.41 g/m*3 -1.5 C 0 km/h
3068 23-12-2003 08:13:00 -1.4 C 3.43 g/m*3 -1.4 C 0 km/h
3069 23-12-2003 08:25:00 -1 C 3.53 g/m*3 -1 C 0 km/h
3070 23-12-2003 08:36:01 -0.7 C 3.6 g/m*3 -0.7 C 0 km/h
3071 23-12-2003 08:48:01 -0.7 C 3.55 g/m*3 -0.7 C 0 km/h
3072 23-12-2003 09:00:01 -0.6 C 3.58 g/m*3 -0.6 C 0 km/h
3073 23-12-2003 09:12:00 -0.5 C 3.6 g/m*3 -0.5 C 0 km/h
3074 23-12-2003 09:24:00 -0.4 C 3.63 g/m*3 -0.4 C 0 km/h
3075 23-12-2003 09:36:01 -0.4 C 3.68 g/m*3 -0.4 C 0 km/h
Sensor: Nr:Datum:Temp:Abs-Feuchte:Windchill:Wind:
Aussen-T/F 3076 23-12-2003 09:48:01 0 C 3.78 g/m*3 0 C 0 km/h
3077 23-12-2003 10:00:01 0.3 C 3.81 g/m*3 0.3 C 0 km/h
3078 23-12-2003 10:12:00 0.6 C 3.84 g/m*3 0.6 C 0 km/h
3079 23-12-2003 10:24:00 0.7 C 3.86 g/m*3 0.7 C 0 km/h
3080 23-12-2003 10:36:01 0.6 C 3.79 g/m*3 0.6 C 0 km/h
3081 23-12-2003 10:48:01 0.6 C 3.79 g/m*3 0.6 C 0 km/h
3082 23-12-2003 11:00:01 0.7 C 3.81 g/m*3 0.7 C 0 km/h
3083 23-12-2003 11:12:00 0.9 C 3.81 g/m*3 0.9 C 0 km/h
3084 23-12-2003 11:24:00 1.2 C 3.79 g/m*3 1.2 C 0 km/h
3085 23-12-2003 11:36:00 1.5 C 3.76 g/m*3 1.5 C 0 km/h
3086 23-12-2003 11:48:16 1.6 C 3.68 g/m*3 1.6 C 0 km/h
3087 23-12-2003 12:00:16 1.9 C 3.7 g/m*3 1.9 C 0 km/h
3088 23-12-2003 12:13:01 2 C 3.61 g/m*3 2 C 0 km/h
3089 23-12-2003 12:25:01 2.1 C 3.64 g/m*3 2.1 C 0 km/h
3090 23-12-2003 12:36:00 2 C 3.67 g/m*3 2 C 0 km/h
3091 23-12-2003 12:48:01 1.9 C 3.7 g/m*3 1.9 C 0 km/h
3092 23-12-2003 13:00:01 1.9 C 3.7 g/m*3 1.9 C 0 km/h
3093 23-12-2003 13:12:00 1.6 C 3.62 g/m*3 1.6 C 0 km/h
3094 23-12-2003 13:24:00 1.7 C 3.59 g/m*3 1.7 C 0 km/h
3095 23-12-2003 13:36:01 1.6 C 3.57 g/m*3 1.6 C 0 km/h
3096 23-12-2003 13:48:01 1.8 C 3.62 g/m*3 1.8 C 0 km/h
3097 23-12-2003 14:00:01 1.8 C 3.62 g/m*3 1.8 C 0 km/h
3098 23-12-2003 14:12:00 1.8 C 3.56 g/m*3 1.8 C 0 km/h
3099 23-12-2003 14:24:00 1.8 C 3.51 g/m*3 1.8 C 0 km/h
3100 23-12-2003 14:36:00 1.7 C 3.48 g/m*3 1.7 C 0 km/h
Sensor: Nr:Datum:Temp:Abs-Feuchte:Windchill:Wind:
Aussen-T/F 3101 23-12-2003 14:48:00 1.7 C 3.48 g/m*3 1.7 C 0 km/h
3102 23-12-2003 15:00:00 1.8 C 3.51 g/m*3 1.8 C 0 km/h
3103 23-12-2003 15:13:00 1.8 C 3.56 g/m*3 1.8 C 0 km/h
3104 23-12-2003 15:25:01 1.8 C 3.56 g/m*3 1.8 C 0 km/h
3105 23-12-2003 15:36:01 1.8 C 3.56 g/m*3 1.8 C 0 km/h
3106 23-12-2003 15:48:01 1.8 C 3.56 g/m*3 1.8 C 0 km/h
3107 23-12-2003 16:00:01 1.8 C 3.51 g/m*3 1.8 C 0 km/h
3108 23-12-2003 16:12:00 1.6 C 3.51 g/m*3 1.6 C 0 km/h
3109 23-12-2003 16:24:00 1.5 C 3.54 g/m*3 1.5 C 0 km/h
3110 23-12-2003 16:36:01 1.4 C 3.57 g/m*3 1.4 C 0 km/h
3111 23-12-2003 16:48:01 1.1 C 3.66 g/m*3 1.1 C 0 km/h
3112 23-12-2003 17:00:01 0.9 C 3.71 g/m*3 0.9 C 0 km/h
3113 23-12-2003 17:12:00 0.9 C 3.76 g/m*3 0.9 C 0 km/h
3114 23-12-2003 17:24:00 1 C 3.74 g/m*3 1 C 0 km/h
3115 23-12-2003 17:36:00 0.9 C 3.81 g/m*3 0.9 C 0 km/h
3116 23-12-2003 17:48:00 0.8 C 3.89 g/m*3 0.8 C 0 km/h
3117 23-12-2003 18:00:00 0.7 C 3.97 g/m*3 0.7 C 0 km/h
3118 23-12-2003 18:13:01 0.7 C 4.02 g/m*3 0.7 C 0 km/h
3119 23-12-2003 18:25:01 0.7 C 4.02 g/m*3 0.7 C 0 km/h
3120 23-12-2003 18:36:05 0.9 C 4.02 g/m*3 0.9 C 0 km/h
3121 23-12-2003 21:45:53 1.4 C 3.89 g/m*3 1.4 C 0 km/h
3122 23-12-2003 21:50:01 1.4 C 3.89 g/m*3 1.4 C 0 km/h
3123 23-12-2003 22:30:01 1.4 C 3.89 g/m*3 1.4 C 0 km/h
3124 23-12-2003 22:42:00 1.5 C 3.92 g/m*3 1.5 C 0 km/h
3125 23-12-2003 22:54:00 1.6 C 3.95 g/m*3 1.6 C 0 km/h
Sensor: Nr:Datum:Temp:Abs-Feuchte:Windchill:Wind:
Aussen-T/F 3126 23-12-2003 23:06:59 1.5 C 3.92 g/m*3 1.5 C 0 km/h
3127 23-12-2003 23:18:59 1.5 C 3.92 g/m*3 1.5 C 0 km/h
3128 23-12-2003 23:30:59 1.6 C 3.95 g/m*3 1.6 C 0 km/h
3129 23-12-2003 23:43:01 1.6 C 3.95 g/m*3 1.6 C 0 km/h
3130 23-12-2003 23:55:01 1.6 C 3.89 g/m*3 1.6 C 0 km/h
3131 24-12-2003 00:07:01 1.5 C 3.92 g/m*3 1.5 C 0 km/h
3132 24-12-2003 00:19:01 1.4 C 3.95 g/m*3 1.4 C 0 km/h
3133 24-12-2003 00:31:01 1.3 C 3.97 g/m*3 1.3 C 0 km/h
3134 24-12-2003 00:43:01 1.3 C 3.97 g/m*3 1.3 C 0 km/h
3135 24-12-2003 00:55:01 1.3 C 3.92 g/m*3 1.3 C 0 km/h
3136 24-12-2003 01:07:01 1.4 C 3.95 g/m*3 1.4 C 0 km/h
3137 24-12-2003 01:19:01 1.5 C 3.92 g/m*3 1.5 C 0 km/h
3138 24-12-2003 01:31:01 1.5 C 3.92 g/m*3 1.5 C 0 km/h
3139 24-12-2003 01:43:01 1.5 C 3.92 g/m*3 1.5 C 0 km/h
3140 24-12-2003 01:55:01 1.5 C 3.92 g/m*3 1.5 C 0 km/h
3141 24-12-2003 02:07:01 1.4 C 3.95 g/m*3 1.4 C 0 km/h
3142 24-12-2003 02:19:01 1.5 C 3.97 g/m*3 1.5 C 0 km/h
3143 24-12-2003 02:31:01 1.5 C 3.92 g/m*3 1.5 C 0 km/h
3144 24-12-2003 02:43:01 1.5 C 3.92 g/m*3 1.5 C 0 km/h
3145 24-12-2003 02:55:01 1.4 C 3.89 g/m*3 1.4 C 0 km/h
3146 24-12-2003 03:07:01 1.4 C 3.95 g/m*3 1.4 C 0 km/h
3147 24-12-2003 03:19:01 1.3 C 3.92 g/m*3 1.3 C 0 km/h
3148 24-12-2003 03:31:01 1.2 C 3.95 g/m*3 1.2 C 0 km/h
3149 24-12-2003 03:43:01 1.1 C 3.92 g/m*3 1.1 C 0 km/h
3150 24-12-2003 03:55:01 0.9 C 3.92 g/m*3 0.9 C 0 km/h
Sensor: Nr:Datum:Temp:Abs-Feuchte:Windchill:Wind:
Aussen-T/F 3151 24-12-2003 04:07:01 0.8 C 3.89 g/m*3 0.8 C 0 km/h
3152 24-12-2003 04:19:01 0.9 C 3.92 g/m*3 0.9 C 0 km/h
3153 24-12-2003 04:31:01 1.1 C 3.97 g/m*3 1.1 C 0 km/h
3154 24-12-2003 04:43:01 1.2 C 3.95 g/m*3 1.2 C 0 km/h
3155 24-12-2003 04:55:01 1.4 C 3.95 g/m*3 1.4 C 0 km/h
3156 24-12-2003 05:07:01 1.4 C 3.95 g/m*3 1.4 C 0 km/h
3157 24-12-2003 05:19:01 1.4 C 3.95 g/m*3 1.4 C 0 km/h
3158 24-12-2003 05:31:01 1.5 C 3.92 g/m*3 1.5 C 0 km/h
3159 24-12-2003 05:43:01 1.5 C 3.92 g/m*3 1.5 C 0 km/h
3160 24-12-2003 05:55:01 1.6 C 3.95 g/m*3 1.6 C 0 km/h
3161 24-12-2003 05:55:32 1.6 C 3.95 g/m*3 1.6 C 0 km/h
3162 24-12-2003 06:07:32 1.6 C 3.95 g/m*3 1.6 C 0 km/h
3163 24-12-2003 06:19:32 1.6 C 3.95 g/m*3 1.6 C 0 km/h
3164 24-12-2003 06:31:32 1.6 C 3.89 g/m*3 1.6 C 0 km/h
3165 24-12-2003 06:43:32 1.5 C 3.92 g/m*3 1.5 C 0 km/h
3166 24-12-2003 06:55:32 1.5 C 3.92 g/m*3 1.5 C 0 km/h
3167 24-12-2003 07:07:32 1.4 C 3.89 g/m*3 1.4 C 0 km/h
3168 24-12-2003 07:19:32 1.2 C 3.84 g/m*3 1.2 C 0 km/h
3169 24-12-2003 07:31:32 0.8 C 3.79 g/m*3 0.8 C 0 km/h
3170 24-12-2003 07:31:35 0.8 C 3.79 g/m*3 0.8 C 0 km/h
3171 24-12-2003 07:43:35 0.4 C 3.74 g/m*3 0.4 C 0 km/h
3172 24-12-2003 07:55:35 0.3 C 3.76 g/m*3 0.3 C 0 km/h
3173 24-12-2003 08:07:35 0.2 C 3.73 g/m*3 0.2 C 0 km/h
3174 24-12-2003 08:19:35 0.1 C 3.71 g/m*3 0.1 C 0 km/h
3175 24-12-2003 08:31:35 0.1 C 3.71 g/m*3 0.1 C 0 km/h
Sensor: Nr:Datum:Temp:Abs-Feuchte:Windchill:Wind:
Aussen-T/F 3176 24-12-2003 08:43:35 0.1 C 3.71 g/m*3 0.1 C 0 km/h
3177 24-12-2003 08:55:35 0 C 3.68 g/m*3 0 C 0 km/h
3178 24-12-2003 09:07:35 -0.2 C 3.63 g/m*3 -0.2 C 0 km/h
3179 24-12-2003 09:19:35 -0.3 C 3.61 g/m*3 -0.3 C 0 km/h
3180 24-12-2003 09:31:35 -0.1 C 3.66 g/m*3 -0.1 C 0 km/h
3181 24-12-2003 09:43:35 -0.1 C 3.61 g/m*3 -0.1 C 0 km/h
3182 24-12-2003 09:55:35 -0.2 C 3.58 g/m*3 -0.2 C 0 km/h
3183 24-12-2003 10:07:35 -0.2 C 3.63 g/m*3 -0.2 C 0 km/h
3184 24-12-2003 10:19:35 -0.3 C 3.65 g/m*3 -0.3 C 0 km/h
3185 24-12-2003 10:31:35 -0.4 C 3.68 g/m*3 -0.4 C 0 km/h
3186 24-12-2003 10:43:35 -0.4 C 3.72 g/m*3 -0.4 C 0 km/h
3187 24-12-2003 10:55:35 -0.3 C 3.75 g/m*3 -0.3 C 0 km/h
3188 24-12-2003 11:07:35 -0.3 C 3.75 g/m*3 -0.3 C 0 km/h
3189 24-12-2003 11:19:35 -0.2 C 3.78 g/m*3 -0.2 C 0 km/h
3190 24-12-2003 11:31:35 0 C 3.78 g/m*3 0 C 0 km/h
3191 24-12-2003 11:43:35 0.1 C 3.76 g/m*3 0.1 C 0 km/h
3192 24-12-2003 11:55:35 0.3 C 3.81 g/m*3 0.3 C 0 km/h
3193 24-12-2003 12:07:58 0.5 C 3.81 g/m*3 0.5 C 0 km/h
3194 24-12-2003 12:19:01 0.8 C 3.89 g/m*3 0.8 C 0 km/h
3195 24-12-2003 12:31:01 1.4 C 3.89 g/m*3 1.4 C 0 km/h
3196 24-12-2003 12:43:01 2.1 C 3.92 g/m*3 2.1 C 0 km/h
3197 24-12-2003 12:55:01 2.3 C 3.86 g/m*3 2.3 C 0 km/h
3198 24-12-2003 13:07:00 2.8 C 3.7 g/m*3 2.8 C 0 km/h
3199 24-12-2003 13:19:00 3.2 C 3.56 g/m*3 3.2 C 0 km/h
3200 24-12-2003 13:31:00 3.2 C 3.62 g/m*3 3.2 C 0 km/h
Sensor: Nr:Datum:Temp:Abs-Feuchte:Windchill:Wind:
Aussen-T/F 3201 24-12-2003 13:43:01 3.2 C 3.62 g/m*3 3.2 C 0 km/h
3202 24-12-2003 13:55:01 3 C 3.69 g/m*3 3 C 0 km/h
3203 24-12-2003 14:07:01 2.9 C 3.78 g/m*3 2.9 C 0 km/h
3204 24-12-2003 14:19:01 3.1 C 3.71 g/m*3 3.1 C 0 km/h
3205 24-12-2003 14:31:01 3.5 C 3.81 g/m*3 3.5 C 0 km/h
3206 24-12-2003 14:43:00 3.7 C 3.86 g/m*3 3.7 C 0 km/h
3207 24-12-2003 14:55:00 3.8 C 3.76 g/m*3 3.8 C 0 km/h
3208 24-12-2003 14:55:58 3.8 C 3.76 g/m*3 3.8 C 0 km/h
3209 24-12-2003 15:07:58 3.8 C 3.64 g/m*3 3.8 C 0 km/h
3210 24-12-2003 15:07:59 3.8 C 3.64 g/m*3 3.8 C 0 km/h
3211 24-12-2003 15:19:59 3.2 C 3.74 g/m*3 3.2 C 0 km/h
3212 24-12-2003 15:31:01 2.4 C 3.77 g/m*3 2.4 C 0 km/h
3213 24-12-2003 15:43:01 2.2 C 3.72 g/m*3 2.2 C 0 km/h
3214 24-12-2003 15:43:49 2.2 C 3.72 g/m*3 2.2 C 0 km/h
3215 24-12-2003 15:55:49 1.8 C 3.84 g/m*3 1.8 C 0 km/h
3216 24-12-2003 16:07:39 1.4 C 3.73 g/m*3 1.4 C 0 km/h
3217 24-12-2003 16:19:39 1.3 C 3.71 g/m*3 1.3 C 0 km/h
3218 24-12-2003 16:31:01 1.4 C 3.68 g/m*3 1.4 C 0 km/h
3219 24-12-2003 16:43:01 1.6 C 3.62 g/m*3 1.6 C 0 km/h
3220 24-12-2003 16:55:01 1.6 C 3.51 g/m*3 1.6 C 0 km/h
3221 24-12-2003 17:07:02 1.5 C 3.65 g/m*3 1.5 C 0 km/h
3222 24-12-2003 17:19:02 1.5 C 3.65 g/m*3 1.5 C 0 km/h
3223 24-12-2003 17:31:02 1.5 C 3.65 g/m*3 1.5 C 0 km/h
3224 24-12-2003 17:43:00 1.4 C 3.63 g/m*3 1.4 C 0 km/h
3225 24-12-2003 17:55:00 1.3 C 3.6 g/m*3 1.3 C 0 km/h
Sensor: Nr:Datum:Temp:Abs-Feuchte:Windchill:Wind:
Aussen-T/F 3226 24-12-2003 18:07:59 1.3 C 3.66 g/m*3 1.3 C 0 km/h
3227 24-12-2003 18:19:59 1.2 C 3.58 g/m*3 1.2 C 0 km/h
3228 24-12-2003 18:31:01 1.2 C 3.63 g/m*3 1.2 C 0 km/h
3229 24-12-2003 18:43:01 1.2 C 3.63 g/m*3 1.2 C 0 km/h
3230 24-12-2003 18:55:01 1.2 C 3.63 g/m*3 1.2 C 0 km/h
3231 24-12-2003 19:07:00 1.2 C 3.58 g/m*3 1.2 C 0 km/h
3232 24-12-2003 19:19:00 1.2 C 3.53 g/m*3 1.2 C 0 km/h
3233 24-12-2003 19:31:00 1.1 C 3.55 g/m*3 1.1 C 0 km/h
3234 24-12-2003 19:43:01 1 C 3.53 g/m*3 1 C 0 km/h
3235 24-12-2003 19:55:01 1.1 C 3.55 g/m*3 1.1 C 0 km/h
3236 24-12-2003 20:07:01 1.3 C 3.6 g/m*3 1.3 C 0 km/h
3237 24-12-2003 20:19:01 1.5 C 3.65 g/m*3 1.5 C 0 km/h
3238 24-12-2003 20:31:01 1.6 C 3.68 g/m*3 1.6 C 0 km/h
3239 24-12-2003 20:43:01 1.7 C 3.65 g/m*3 1.7 C 0 km/h
3240 24-12-2003 20:55:01 1.7 C 3.65 g/m*3 1.7 C 0 km/h
3241 24-12-2003 21:07:01 1.8 C 3.67 g/m*3 1.8 C 0 km/h
3242 24-12-2003 21:19:01 1.8 C 3.67 g/m*3 1.8 C 0 km/h
3243 24-12-2003 21:31:01 2 C 3.5 g/m*3 2 C 0 km/h
3244 24-12-2003 21:43:00 2.3 C 3.35 g/m*3 2.3 C 0 km/h
3245 24-12-2003 21:55:00 2.4 C 3.43 g/m*3 2.4 C 0 km/h
3246 24-12-2003 22:07:01 2.4 C 3.37 g/m*3 2.4 C 0 km/h
3247 24-12-2003 22:07:59 2.4 C 3.37 g/m*3 2.4 C 0 km/h
3248 24-12-2003 22:19:01 2.4 C 3.31 g/m*3 2.4 C 0 km/h </